<?xml version='1.0' encoding='UTF-8'?><gpx version="1.1" creator="JPX - https://github.com/jenetics/jpx" xmlns="http://www.topografix.com/GPX/1/1"><trk><trkseg><trkpt lat="40.8193452" lon="8.1966576"><ele>63.0</ele><time>2026-05-03T09:15:12.855Z</time></trkpt><trkpt lat="40.819317" lon="8.1964735"><ele>64.0</ele><time>2026-05-03T09:15:14.855Z</time></trkpt><trkpt lat="40.8192978" lon="8.1963445"><ele>65.0</ele><time>2026-05-03T09:15:15.855Z</time></trkpt><trkpt lat="40.8192837" lon="8.1962105"><ele>66.0</ele><time>2026-05-03T09:15:16.854Z</time></trkpt><trkpt lat="40.8192744" lon="8.1960625"><ele>66.0</ele><time>2026-05-03T09:15:17.855Z</time></trkpt><trkpt lat="40.8192679" lon="8.1959064"><ele>66.0</ele><time>2026-05-03T09:15:18.855Z</time></trkpt><trkpt lat="40.8192586" lon="8.1957464"><ele>66.0</ele><time>2026-05-03T09:15:19.855Z</time></trkpt><trkpt lat="40.8192476" lon="8.1955899"><ele>66.0</ele><time>2026-05-03T09:15:20.855Z</time></trkpt><trkpt lat="40.819237" lon="8.1954334"><ele>66.25</ele><time>2026-05-03T09:15:21.855Z</time></trkpt><trkpt lat="40.819229" lon="8.195277"><ele>66.5</ele><time>2026-05-03T09:15:22.855Z</time></trkpt><trkpt lat="40.819221" lon="8.1951221"><ele>66.75</ele><time>2026-05-03T09:15:23.855Z</time></trkpt><trkpt lat="40.8192101" lon="8.1949676"><ele>67.0</ele><time>2026-05-03T09:15:24.855Z</time></trkpt><trkpt lat="40.8191997" lon="8.194813"><ele>67.5</ele><time>2026-05-03T09:15:25.854Z</time></trkpt><trkpt lat="40.8191949" lon="8.1946596"><ele>68.0</ele><time>2026-05-03T09:15:26.854Z</time></trkpt><trkpt lat="40.8191967" lon="8.1945067"><ele>68.5</ele><time>2026-05-03T09:15:27.855Z</time></trkpt><trkpt lat="40.8192093" lon="8.1943552"><ele>69.0</ele><time>2026-05-03T09:15:28.855Z</time></trkpt><trkpt lat="40.8192382" lon="8.1942043"><ele>69.0</ele><time>2026-05-03T09:15:29.855Z</time></trkpt><trkpt lat="40.8192842" lon="8.1940582"><ele>69.0</ele><time>2026-05-03T09:15:30.855Z</time></trkpt><trkpt lat="40.8193459" lon="8.1939073"><ele>69.0</ele><time>2026-05-03T09:15:31.854Z</time></trkpt><trkpt lat="40.8194134" lon="8.1937542"><ele>69.0</ele><time>2026-05-03T09:15:32.854Z</time></trkpt><trkpt lat="40.8194758" lon="8.1936204"><ele>68.8</ele><time>2026-05-03T09:15:33.854Z</time></trkpt><trkpt lat="40.8195392" lon="8.1934859"><ele>68.60000000000001</ele><time>2026-05-03T09:15:34.855Z</time></trkpt><trkpt lat="40.8195978" lon="8.1933548"><ele>68.4</ele><time>2026-05-03T09:15:35.855Z</time></trkpt><trkpt lat="40.8196522" lon="8.1932386"><ele>68.2</ele><time>2026-05-03T09:15:36.855Z</time></trkpt><trkpt lat="40.8197005" lon="8.1931371"><ele>68.0</ele><time>2026-05-03T09:15:37.855Z</time></trkpt><trkpt lat="40.8197463" lon="8.1930491"><ele>68.66666666666667</ele><time>2026-05-03T09:15:38.855Z</time></trkpt><trkpt lat="40.8197881" lon="8.1929715"><ele>69.33333333333334</ele><time>2026-05-03T09:15:39.855Z</time></trkpt><trkpt lat="40.8198532" lon="8.1928682"><ele>70.0</ele><time>2026-05-03T09:15:41.855Z</time></trkpt><trkpt lat="40.8199163" lon="8.1928576"><ele>70.66666666666667</ele><time>2026-05-03T09:15:43.854Z</time></trkpt><trkpt lat="40.8199897" lon="8.1928975"><ele>71.33333333333333</ele><time>2026-05-03T09:15:45.854Z</time></trkpt><trkpt lat="40.8200444" lon="8.1929415"><ele>72.0</ele><time>2026-05-03T09:15:46.854Z</time></trkpt><trkpt lat="40.8201212" lon="8.1929962"><ele>70.5</ele><time>2026-05-03T09:15:47.854Z</time></trkpt><trkpt lat="40.820228" lon="8.1930624"><ele>69.0</ele><time>2026-05-03T09:15:48.855Z</time></trkpt><trkpt lat="40.8203771" lon="8.1931376"><ele>67.5</ele><time>2026-05-03T09:15:49.853Z</time></trkpt><trkpt lat="40.8205395" lon="8.1932086"><ele>66.0</ele><time>2026-05-03T09:15:50.855Z</time></trkpt><trkpt lat="40.8206921" lon="8.193269"><ele>66.0</ele><time>2026-05-03T09:15:51.855Z</time></trkpt><trkpt lat="40.8208382" lon="8.1933059"><ele>66.0</ele><time>2026-05-03T09:15:52.855Z</time></trkpt><trkpt lat="40.8209764" lon="8.1933389"><ele>66.0</ele><time>2026-05-03T09:15:53.855Z</time></trkpt><trkpt lat="40.821104" lon="8.1933959"><ele>66.0</ele><time>2026-05-03T09:15:54.855Z</time></trkpt><trkpt lat="40.8212249" lon="8.1934675"><ele>66.0</ele><time>2026-05-03T09:15:55.854Z</time></trkpt><trkpt lat="40.8213468" lon="8.1935587"><ele>66.0</ele><time>2026-05-03T09:15:56.855Z</time></trkpt><trkpt lat="40.8214642" lon="8.1936636"><ele>66.0</ele><time>2026-05-03T09:15:57.855Z</time></trkpt><trkpt lat="40.8215793" lon="8.1937474"><ele>66.0</ele><time>2026-05-03T09:15:58.853Z</time></trkpt><trkpt lat="40.8217169" lon="8.1938238"><ele>66.66666666666667</ele><time>2026-05-03T09:15:59.854Z</time></trkpt><trkpt lat="40.8218747" lon="8.1939266"><ele>67.33333333333334</ele><time>2026-05-03T09:16:00.854Z</time></trkpt><trkpt lat="40.822037" lon="8.1940445"><ele>68.0</ele><time>2026-05-03T09:16:01.854Z</time></trkpt><trkpt lat="40.8221776" lon="8.1941516"><ele>68.0</ele><time>2026-05-03T09:16:02.855Z</time></trkpt><trkpt lat="40.8223108" lon="8.1942491"><ele>68.0</ele><time>2026-05-03T09:16:03.855Z</time></trkpt><trkpt lat="40.8224326" lon="8.1943388"><ele>68.0</ele><time>2026-05-03T09:16:04.855Z</time></trkpt><trkpt lat="40.82256" lon="8.1944348"><ele>68.0</ele><time>2026-05-03T09:16:05.855Z</time></trkpt><trkpt lat="40.8226855" lon="8.1945287"><ele>67.33333333333334</ele><time>2026-05-03T09:16:06.855Z</time></trkpt><trkpt lat="40.8228221" lon="8.1946303"><ele>66.66666666666667</ele><time>2026-05-03T09:16:07.854Z</time></trkpt><trkpt lat="40.8229687" lon="8.194726"><ele>66.0</ele><time>2026-05-03T09:16:08.854Z</time></trkpt><trkpt lat="40.8231316" lon="8.1948451"><ele>66.0</ele><time>2026-05-03T09:16:09.855Z</time></trkpt><trkpt lat="40.8232679" lon="8.1949613"><ele>66.0</ele><time>2026-05-03T09:16:10.854Z</time></trkpt><trkpt lat="40.8233934" lon="8.1950742"><ele>66.0</ele><time>2026-05-03T09:16:11.855Z</time></trkpt><trkpt lat="40.8235176" lon="8.1951973"><ele>67.25</ele><time>2026-05-03T09:16:12.855Z</time></trkpt><trkpt lat="40.823629" lon="8.1953154"><ele>68.5</ele><time>2026-05-03T09:16:13.854Z</time></trkpt><trkpt lat="40.8237351" lon="8.1954184"><ele>69.75</ele><time>2026-05-03T09:16:14.854Z</time></trkpt><trkpt lat="40.8238421" lon="8.1954967"><ele>71.0</ele><time>2026-05-03T09:16:15.854Z</time></trkpt><trkpt lat="40.823947" lon="8.1955668"><ele>71.0</ele><time>2026-05-03T09:16:16.855Z</time></trkpt><trkpt lat="40.8240556" lon="8.1956501"><ele>71.0</ele><time>2026-05-03T09:16:17.854Z</time></trkpt><trkpt lat="40.8241588" lon="8.195746"><ele>71.0</ele><time>2026-05-03T09:16:18.854Z</time></trkpt><trkpt lat="40.8242597" lon="8.1958648"><ele>71.0</ele><time>2026-05-03T09:16:19.854Z</time></trkpt><trkpt lat="40.8243558" lon="8.1959785"><ele>69.2</ele><time>2026-05-03T09:16:20.855Z</time></trkpt><trkpt lat="40.8244496" lon="8.1960725"><ele>67.39999999999999</ele><time>2026-05-03T09:16:21.855Z</time></trkpt><trkpt lat="40.8245361" lon="8.1961551"><ele>65.6</ele><time>2026-05-03T09:16:22.855Z</time></trkpt><trkpt lat="40.8246157" lon="8.1962568"><ele>63.8</ele><time>2026-05-03T09:16:23.854Z</time></trkpt><trkpt lat="40.824671" lon="8.1963549"><ele>62.0</ele><time>2026-05-03T09:16:24.855Z</time></trkpt><trkpt lat="40.8247098" lon="8.1964362"><ele>62.00000000000001</ele><time>2026-05-03T09:16:25.855Z</time></trkpt><trkpt lat="40.8247541" lon="8.1965022"><ele>62.0</ele><time>2026-05-03T09:16:27.855Z</time></trkpt><trkpt lat="40.8248429" lon="8.1964352"><ele>62.0</ele><time>2026-05-03T09:16:30.854Z</time></trkpt><trkpt lat="40.8249015" lon="8.1963706"><ele>62.0</ele><time>2026-05-03T09:16:31.855Z</time></trkpt><trkpt lat="40.8249529" lon="8.1962329"><ele>62.00000000000001</ele><time>2026-05-03T09:16:33.855Z</time></trkpt><trkpt lat="40.824955" lon="8.1961481"><ele>62.0</ele><time>2026-05-03T09:16:34.855Z</time></trkpt><trkpt lat="40.8249636" lon="8.1960485"><ele>62.0</ele><time>2026-05-03T09:16:35.854Z</time></trkpt><trkpt lat="40.8249751" lon="8.1959436"><ele>62.0</ele><time>2026-05-03T09:16:36.855Z</time></trkpt><trkpt lat="40.8249885" lon="8.1958482"><ele>62.0</ele><time>2026-05-03T09:16:37.855Z</time></trkpt><trkpt lat="40.8250023" lon="8.1956878"><ele>62.0</ele><time>2026-05-03T09:16:39.854Z</time></trkpt><trkpt lat="40.8249966" lon="8.1955396"><ele>62.0</ele><time>2026-05-03T09:16:41.854Z</time></trkpt><trkpt lat="40.824968" lon="8.1954104"><ele>62.0</ele><time>2026-05-03T09:16:43.854Z</time></trkpt><trkpt lat="40.8249226" lon="8.1953392"><ele>62.0</ele><time>2026-05-03T09:16:44.853Z</time></trkpt><trkpt lat="40.8248449" lon="8.1952622"><ele>62.0</ele><time>2026-05-03T09:16:45.854Z</time></trkpt><trkpt lat="40.8247325" lon="8.1951739"><ele>62.0</ele><time>2026-05-03T09:16:46.854Z</time></trkpt><trkpt lat="40.8246229" lon="8.1950957"><ele>62.0</ele><time>2026-05-03T09:16:47.854Z</time></trkpt><trkpt lat="40.8245411" lon="8.1950419"><ele>62.0</ele><time>2026-05-03T09:16:48.854Z</time></trkpt><trkpt lat="40.8244764" lon="8.1949993"><ele>62.00000000000001</ele><time>2026-05-03T09:16:49.854Z</time></trkpt><trkpt lat="40.8244218" lon="8.1949393"><ele>62.0</ele><time>2026-05-03T09:16:50.853Z</time></trkpt><trkpt lat="40.8243624" lon="8.194853"><ele>62.0</ele><time>2026-05-03T09:16:51.853Z</time></trkpt><trkpt lat="40.824322" lon="8.1947627"><ele>62.00000000000001</ele><time>2026-05-03T09:16:52.853Z</time></trkpt><trkpt lat="40.8242995" lon="8.1946714"><ele>62.0</ele><time>2026-05-03T09:16:53.854Z</time></trkpt><trkpt lat="40.8242904" lon="8.1945858"><ele>62.0</ele><time>2026-05-03T09:16:54.854Z</time></trkpt><trkpt lat="40.8242917" lon="8.1944399"><ele>63.66666666666667</ele><time>2026-05-03T09:16:56.854Z</time></trkpt><trkpt lat="40.8242955" lon="8.194321"><ele>65.33333333333334</ele><time>2026-05-03T09:16:58.854Z</time></trkpt><trkpt lat="40.8243208" lon="8.194234"><ele>67.0</ele><time>2026-05-03T09:17:00.853Z</time></trkpt><trkpt lat="40.8243616" lon="8.1941608"><ele>68.66666666666667</ele><time>2026-05-03T09:18:39.854Z</time></trkpt><trkpt lat="40.8243414" lon="8.1942483"><ele>70.33333333333333</ele><time>2026-05-03T09:22:28.853Z</time></trkpt><trkpt lat="40.824276" lon="8.1942792"><ele>72.0</ele><time>2026-05-03T09:22:38.852Z</time></trkpt><trkpt lat="40.8242364" lon="8.1941684"><ele>72.0</ele><time>2026-05-03T09:22:41.853Z</time></trkpt><trkpt lat="40.8242076" lon="8.1940565"><ele>72.0</ele><time>2026-05-03T09:22:43.851Z</time></trkpt><trkpt lat="40.8242091" lon="8.1939343"><ele>72.0</ele><time>2026-05-03T09:22:45.853Z</time></trkpt><trkpt lat="40.8242179" lon="8.1938148"><ele>72.0</ele><time>2026-05-03T09:22:47.853Z</time></trkpt><trkpt lat="40.8242277" lon="8.1937248"><ele>72.0</ele><time>2026-05-03T09:22:48.852Z</time></trkpt><trkpt lat="40.8242293" lon="8.1936374"><ele>72.0</ele><time>2026-05-03T09:22:49.853Z</time></trkpt><trkpt lat="40.8242109" lon="8.1935497"><ele>71.5</ele><time>2026-05-03T09:22:50.852Z</time></trkpt><trkpt lat="40.8241875" lon="8.1934663"><ele>71.0</ele><time>2026-05-03T09:22:51.853Z</time></trkpt><trkpt lat="40.8241597" lon="8.1933119"><ele>70.5</ele><time>2026-05-03T09:22:53.853Z</time></trkpt><trkpt lat="40.8241591" lon="8.1932283"><ele>70.0</ele><time>2026-05-03T09:22:54.852Z</time></trkpt><trkpt lat="40.8241802" lon="8.1931003"><ele>69.5</ele><time>2026-05-03T09:22:56.852Z</time></trkpt><trkpt lat="40.8241829" lon="8.1930115"><ele>69.0</ele><time>2026-05-03T09:22:58.852Z</time></trkpt><trkpt lat="40.8241388" lon="8.1929407"><ele>67.0</ele><time>2026-05-03T09:23:00.853Z</time></trkpt><trkpt lat="40.8240547" lon="8.1929097"><ele>65.0</ele><time>2026-05-03T09:23:02.853Z</time></trkpt><trkpt lat="40.8239462" lon="8.1929078"><ele>63.00000000000001</ele><time>2026-05-03T09:23:04.852Z</time></trkpt><trkpt lat="40.8238131" lon="8.1929373"><ele>61.0</ele><time>2026-05-03T09:23:06.853Z</time></trkpt><trkpt lat="40.823742" lon="8.1929411"><ele>59.0</ele><time>2026-05-03T09:23:07.853Z</time></trkpt><trkpt lat="40.8236641" lon="8.1929332"><ele>59.00000000000001</ele><time>2026-05-03T09:23:08.852Z</time></trkpt><trkpt lat="40.8235949" lon="8.1929172"><ele>59.0</ele><time>2026-05-03T09:23:09.852Z</time></trkpt><trkpt lat="40.8235305" lon="8.1929056"><ele>59.0</ele><time>2026-05-03T09:23:10.853Z</time></trkpt><trkpt lat="40.8234311" lon="8.1929222"><ele>59.0</ele><time>2026-05-03T09:23:12.851Z</time></trkpt><trkpt lat="40.823376" lon="8.1930232"><ele>59.00000000000001</ele><time>2026-05-03T09:23:15.852Z</time></trkpt><trkpt lat="40.8233542" lon="8.1931202"><ele>59.0</ele><time>2026-05-03T09:23:17.853Z</time></trkpt><trkpt lat="40.8232915" lon="8.1931675"><ele>58.333333333333336</ele><time>2026-05-03T09:23:19.853Z</time></trkpt><trkpt lat="40.8231803" lon="8.1931569"><ele>57.66666666666667</ele><time>2026-05-03T09:23:21.852Z</time></trkpt><trkpt lat="40.823119" lon="8.1931352"><ele>57.0</ele><time>2026-05-03T09:23:22.853Z</time></trkpt><trkpt lat="40.8230303" lon="8.1930864"><ele>56.33333333333333</ele><time>2026-05-03T09:23:24.853Z</time></trkpt><trkpt lat="40.8229573" lon="8.1930537"><ele>55.666666666666664</ele><time>2026-05-03T09:23:26.853Z</time></trkpt><trkpt lat="40.8228744" lon="8.1930689"><ele>55.0</ele><time>2026-05-03T09:23:28.853Z</time></trkpt><trkpt lat="40.8227634" lon="8.1931071"><ele>53.0</ele><time>2026-05-03T09:23:30.852Z</time></trkpt><trkpt lat="40.8226349" lon="8.1931373"><ele>51.0</ele><time>2026-05-03T09:23:32.852Z</time></trkpt><trkpt lat="40.8225681" lon="8.1931495"><ele>49.0</ele><time>2026-05-03T09:23:33.852Z</time></trkpt><trkpt lat="40.8225005" lon="8.1931664"><ele>47.0</ele><time>2026-05-03T09:23:34.853Z</time></trkpt><trkpt lat="40.8224301" lon="8.1931811"><ele>45.0</ele><time>2026-05-03T09:23:35.853Z</time></trkpt><trkpt lat="40.8223074" lon="8.1931778"><ele>45.0</ele><time>2026-05-03T09:23:37.852Z</time></trkpt><trkpt lat="40.8222467" lon="8.193153"><ele>45.0</ele><time>2026-05-03T09:23:38.853Z</time></trkpt><trkpt lat="40.8221667" lon="8.193099"><ele>45.0</ele><time>2026-05-03T09:23:40.853Z</time></trkpt><trkpt lat="40.8221046" lon="8.193051"><ele>45.0</ele><time>2026-05-03T09:23:43.853Z</time></trkpt><trkpt lat="40.8220241" lon="8.1930292"><ele>45.0</ele><time>2026-05-03T09:23:54.853Z</time></trkpt><trkpt lat="40.8219241" lon="8.1930143"><ele>45.0</ele><time>2026-05-03T09:23:56.853Z</time></trkpt><trkpt lat="40.8218453" lon="8.193093"><ele>44.833333333333336</ele><time>2026-05-03T09:23:58.853Z</time></trkpt><trkpt lat="40.8218141" lon="8.1931714"><ele>44.666666666666664</ele><time>2026-05-03T09:23:59.852Z</time></trkpt><trkpt lat="40.821794" lon="8.1932939"><ele>44.5</ele><time>2026-05-03T09:24:00.852Z</time></trkpt><trkpt lat="40.8217855" lon="8.1934289"><ele>44.33333333333333</ele><time>2026-05-03T09:24:01.853Z</time></trkpt><trkpt lat="40.8217728" lon="8.1935327"><ele>44.166666666666664</ele><time>2026-05-03T09:24:02.853Z</time></trkpt><trkpt lat="40.8217541" lon="8.193629"><ele>44.0</ele><time>2026-05-03T09:24:03.853Z</time></trkpt><trkpt lat="40.8217118" lon="8.193743"><ele>47.666666666666664</ele><time>2026-05-03T09:24:05.851Z</time></trkpt><trkpt lat="40.821653" lon="8.1937737"><ele>51.33333333333333</ele><time>2026-05-03T09:24:07.853Z</time></trkpt><trkpt lat="40.8215459" lon="8.1937219"><ele>55.0</ele><time>2026-05-03T09:24:09.852Z</time></trkpt><trkpt lat="40.8214793" lon="8.193656"><ele>58.666666666666664</ele><time>2026-05-03T09:24:10.853Z</time></trkpt><trkpt lat="40.8214031" lon="8.1935868"><ele>62.333333333333336</ele><time>2026-05-03T09:24:11.853Z</time></trkpt><trkpt lat="40.8213254" lon="8.1935192"><ele>66.0</ele><time>2026-05-03T09:24:12.852Z</time></trkpt><trkpt lat="40.8212271" lon="8.1934476"><ele>66.0</ele><time>2026-05-03T09:24:13.853Z</time></trkpt><trkpt lat="40.8210956" lon="8.1933837"><ele>66.0</ele><time>2026-05-03T09:24:14.853Z</time></trkpt><trkpt lat="40.820954" lon="8.1933439"><ele>66.0</ele><time>2026-05-03T09:24:15.853Z</time></trkpt><trkpt lat="40.8208138" lon="8.1933082"><ele>66.0</ele><time>2026-05-03T09:24:16.853Z</time></trkpt><trkpt lat="40.8206641" lon="8.1932542"><ele>66.0</ele><time>2026-05-03T09:24:17.852Z</time></trkpt><trkpt lat="40.820496" lon="8.1931842"><ele>66.0</ele><time>2026-05-03T09:24:18.853Z</time></trkpt><trkpt lat="40.8203544" lon="8.1931154"><ele>66.0</ele><time>2026-05-03T09:24:19.853Z</time></trkpt><trkpt lat="40.8202396" lon="8.1930536"><ele>65.66666666666667</ele><time>2026-05-03T09:24:20.853Z</time></trkpt><trkpt lat="40.8201558" lon="8.1930108"><ele>65.33333333333333</ele><time>2026-05-03T09:24:21.852Z</time></trkpt><trkpt lat="40.8200877" lon="8.1929722"><ele>65.0</ele><time>2026-05-03T09:24:22.853Z</time></trkpt><trkpt lat="40.8200272" lon="8.1929333"><ele>64.66666666666666</ele><time>2026-05-03T09:24:23.853Z</time></trkpt><trkpt lat="40.8199658" lon="8.1928882"><ele>64.33333333333333</ele><time>2026-05-03T09:24:24.853Z</time></trkpt><trkpt lat="40.8198967" lon="8.1928307"><ele>64.0</ele><time>2026-05-03T09:24:26.853Z</time></trkpt><trkpt lat="40.8198381" lon="8.1927646"><ele>65.14285714285714</ele><time>2026-05-03T09:24:28.852Z</time></trkpt><trkpt lat="40.8197887" lon="8.1927037"><ele>66.28571428571428</ele><time>2026-05-03T09:24:29.853Z</time></trkpt><trkpt lat="40.819733" lon="8.1926329"><ele>67.42857142857143</ele><time>2026-05-03T09:24:30.853Z</time></trkpt><trkpt lat="40.8196766" lon="8.1925526"><ele>68.57142857142857</ele><time>2026-05-03T09:24:31.853Z</time></trkpt><trkpt lat="40.8196311" lon="8.1924794"><ele>69.71428571428572</ele><time>2026-05-03T09:24:32.853Z</time></trkpt><trkpt lat="40.819579" lon="8.192414"><ele>70.85714285714286</ele><time>2026-05-03T09:24:33.852Z</time></trkpt><trkpt lat="40.8195196" lon="8.1923478"><ele>72.0</ele><time>2026-05-03T09:24:34.852Z</time></trkpt><trkpt lat="40.8194613" lon="8.1922893"><ele>72.2</ele><time>2026-05-03T09:24:35.853Z</time></trkpt><trkpt lat="40.8194052" lon="8.1922454"><ele>72.4</ele><time>2026-05-03T09:24:36.853Z</time></trkpt><trkpt lat="40.8193305" lon="8.1922064"><ele>72.6</ele><time>2026-05-03T09:24:37.852Z</time></trkpt><trkpt lat="40.8192412" lon="8.192191"><ele>72.8</ele><time>2026-05-03T09:24:38.853Z</time></trkpt><trkpt lat="40.8191333" lon="8.1922048"><ele>73.0</ele><time>2026-05-03T09:24:39.852Z</time></trkpt><trkpt lat="40.8190125" lon="8.1922322"><ele>73.33333333333333</ele><time>2026-05-03T09:24:40.853Z</time></trkpt><trkpt lat="40.8189127" lon="8.1922576"><ele>73.66666666666666</ele><time>2026-05-03T09:24:41.853Z</time></trkpt><trkpt lat="40.8188282" lon="8.1922708"><ele>74.0</ele><time>2026-05-03T09:24:42.853Z</time></trkpt><trkpt lat="40.8187526" lon="8.1922655"><ele>74.33333333333333</ele><time>2026-05-03T09:24:43.852Z</time></trkpt><trkpt lat="40.8186816" lon="8.1922416"><ele>74.66666666666667</ele><time>2026-05-03T09:24:44.853Z</time></trkpt><trkpt lat="40.8186182" lon="8.1922016"><ele>75.0</ele><time>2026-05-03T09:24:45.852Z</time></trkpt><trkpt lat="40.8185511" lon="8.1921517"><ele>75.0</ele><time>2026-05-03T09:24:46.852Z</time></trkpt><trkpt lat="40.8184942" lon="8.1921091"><ele>75.0</ele><time>2026-05-03T09:24:47.852Z</time></trkpt><trkpt lat="40.8184343" lon="8.1920726"><ele>75.0</ele><time>2026-05-03T09:24:48.852Z</time></trkpt><trkpt lat="40.8182953" lon="8.1920573"><ele>75.0</ele><time>2026-05-03T09:24:50.853Z</time></trkpt><trkpt lat="40.8182064" lon="8.1920666"><ele>75.0</ele><time>2026-05-03T09:24:51.853Z</time></trkpt><trkpt lat="40.8181101" lon="8.1920873"><ele>75.4</ele><time>2026-05-03T09:24:52.853Z</time></trkpt><trkpt lat="40.818008" lon="8.1921069"><ele>75.8</ele><time>2026-05-03T09:24:53.852Z</time></trkpt><trkpt lat="40.8179152" lon="8.1921159"><ele>76.2</ele><time>2026-05-03T09:24:54.852Z</time></trkpt><trkpt lat="40.8178321" lon="8.1921167"><ele>76.6</ele><time>2026-05-03T09:24:55.853Z</time></trkpt><trkpt lat="40.8177678" lon="8.1921079"><ele>77.0</ele><time>2026-05-03T09:24:56.853Z</time></trkpt><trkpt lat="40.8176602" lon="8.1920497"><ele>76.0</ele><time>2026-05-03T09:24:58.853Z</time></trkpt><trkpt lat="40.8176125" lon="8.1919935"><ele>75.0</ele><time>2026-05-03T09:24:59.853Z</time></trkpt><trkpt lat="40.8175403" lon="8.1918341"><ele>74.0</ele><time>2026-05-03T09:25:01.853Z</time></trkpt><trkpt lat="40.8174886" lon="8.1916939"><ele>73.0</ele><time>2026-05-03T09:25:02.853Z</time></trkpt><trkpt lat="40.8174379" lon="8.1915392"><ele>74.0</ele><time>2026-05-03T09:25:03.853Z</time></trkpt><trkpt lat="40.8173893" lon="8.1913899"><ele>75.0</ele><time>2026-05-03T09:25:04.853Z</time></trkpt><trkpt lat="40.8173384" lon="8.1912321"><ele>76.0</ele><time>2026-05-03T09:25:05.852Z</time></trkpt><trkpt lat="40.817288" lon="8.1910908"><ele>77.0</ele><time>2026-05-03T09:25:06.852Z</time></trkpt><trkpt lat="40.8172358" lon="8.1909391"><ele>77.0</ele><time>2026-05-03T09:25:07.853Z</time></trkpt><trkpt lat="40.8171927" lon="8.1908006"><ele>77.0</ele><time>2026-05-03T09:25:08.853Z</time></trkpt><trkpt lat="40.817148" lon="8.190663"><ele>77.0</ele><time>2026-05-03T09:25:09.852Z</time></trkpt><trkpt lat="40.8171035" lon="8.1905263"><ele>77.0</ele><time>2026-05-03T09:25:10.853Z</time></trkpt><trkpt lat="40.8170544" lon="8.1903771"><ele>77.75</ele><time>2026-05-03T09:25:11.853Z</time></trkpt><trkpt lat="40.8170058" lon="8.1902252"><ele>78.5</ele><time>2026-05-03T09:25:12.853Z</time></trkpt><trkpt lat="40.8169589" lon="8.1900815"><ele>79.25</ele><time>2026-05-03T09:25:13.852Z</time></trkpt><trkpt lat="40.8169135" lon="8.1899433"><ele>80.0</ele><time>2026-05-03T09:25:14.853Z</time></trkpt><trkpt lat="40.81687" lon="8.1898033"><ele>80.0</ele><time>2026-05-03T09:25:15.853Z</time></trkpt><trkpt lat="40.8168248" lon="8.1896631"><ele>80.0</ele><time>2026-05-03T09:25:16.851Z</time></trkpt><trkpt lat="40.8167786" lon="8.1895253"><ele>80.0</ele><time>2026-05-03T09:25:17.853Z</time></trkpt><trkpt lat="40.8167344" lon="8.1893844"><ele>80.0</ele><time>2026-05-03T09:25:18.853Z</time></trkpt><trkpt lat="40.8166898" lon="8.1892535"><ele>79.16666666666667</ele><time>2026-05-03T09:25:19.852Z</time></trkpt><trkpt lat="40.8166491" lon="8.1891278"><ele>78.33333333333334</ele><time>2026-05-03T09:25:20.852Z</time></trkpt><trkpt lat="40.8166152" lon="8.1890191"><ele>77.5</ele><time>2026-05-03T09:25:21.852Z</time></trkpt><trkpt lat="40.8165876" lon="8.1889245"><ele>76.66666666666667</ele><time>2026-05-03T09:25:22.853Z</time></trkpt><trkpt lat="40.8165605" lon="8.1888346"><ele>75.83333333333333</ele><time>2026-05-03T09:25:23.853Z</time></trkpt><trkpt lat="40.8164855" lon="8.1887544"><ele>75.0</ele><time>2026-05-03T09:25:25.852Z</time></trkpt><trkpt lat="40.816376" lon="8.1888156"><ele>75.0</ele><time>2026-05-03T09:25:27.852Z</time></trkpt><trkpt lat="40.8162977" lon="8.1889022"><ele>75.0</ele><time>2026-05-03T09:25:28.853Z</time></trkpt><trkpt lat="40.8162043" lon="8.1890147"><ele>75.0</ele><time>2026-05-03T09:25:29.852Z</time></trkpt><trkpt lat="40.8161187" lon="8.1891065"><ele>75.0</ele><time>2026-05-03T09:25:30.853Z</time></trkpt><trkpt lat="40.8160319" lon="8.1891819"><ele>75.0</ele><time>2026-05-03T09:25:31.852Z</time></trkpt><trkpt lat="40.8159396" lon="8.1892351"><ele>74.5</ele><time>2026-05-03T09:25:32.853Z</time></trkpt><trkpt lat="40.8158203" lon="8.1892985"><ele>74.0</ele><time>2026-05-03T09:25:33.853Z</time></trkpt><trkpt lat="40.8157032" lon="8.189355"><ele>73.5</ele><time>2026-05-03T09:25:34.853Z</time></trkpt><trkpt lat="40.8156023" lon="8.1893973"><ele>73.0</ele><time>2026-05-03T09:25:35.853Z</time></trkpt><trkpt lat="40.8155122" lon="8.1894377"><ele>73.0</ele><time>2026-05-03T09:25:36.853Z</time></trkpt><trkpt lat="40.8154298" lon="8.1894703"><ele>73.0</ele><time>2026-05-03T09:25:37.851Z</time></trkpt><trkpt lat="40.8153415" lon="8.189499"><ele>73.0</ele><time>2026-05-03T09:25:38.853Z</time></trkpt><trkpt lat="40.8152546" lon="8.1895272"><ele>73.0</ele><time>2026-05-03T09:25:39.853Z</time></trkpt><trkpt lat="40.8151654" lon="8.1895588"><ele>73.0</ele><time>2026-05-03T09:25:40.853Z</time></trkpt><trkpt lat="40.8150744" lon="8.1895941"><ele>72.66666666666666</ele><time>2026-05-03T09:25:41.853Z</time></trkpt><trkpt lat="40.8149897" lon="8.1896281"><ele>72.33333333333333</ele><time>2026-05-03T09:25:42.853Z</time></trkpt><trkpt lat="40.8149038" lon="8.1896646"><ele>72.0</ele><time>2026-05-03T09:25:43.853Z</time></trkpt><trkpt lat="40.8148173" lon="8.1896998"><ele>71.66666666666667</ele><time>2026-05-03T09:25:44.853Z</time></trkpt><trkpt lat="40.8147327" lon="8.1897309"><ele>71.33333333333334</ele><time>2026-05-03T09:25:45.853Z</time></trkpt><trkpt lat="40.8146591" lon="8.1897553"><ele>71.0</ele><time>2026-05-03T09:25:46.853Z</time></trkpt><trkpt lat="40.8145908" lon="8.1897751"><ele>71.0</ele><time>2026-05-03T09:25:47.853Z</time></trkpt><trkpt lat="40.8144761" lon="8.1897973"><ele>71.0</ele><time>2026-05-03T09:25:49.853Z</time></trkpt><trkpt lat="40.8143724" lon="8.1898083"><ele>71.0</ele><time>2026-05-03T09:25:51.853Z</time></trkpt><trkpt lat="40.8143075" lon="8.1898093"><ele>71.0</ele><time>2026-05-03T09:25:52.852Z</time></trkpt><trkpt lat="40.8142374" lon="8.1898122"><ele>71.0</ele><time>2026-05-03T09:25:53.853Z</time></trkpt><trkpt lat="40.8141643" lon="8.1898169"><ele>71.0</ele><time>2026-05-03T09:25:54.852Z</time></trkpt><trkpt lat="40.8140901" lon="8.1898242"><ele>70.83333333333334</ele><time>2026-05-03T09:25:55.853Z</time></trkpt><trkpt lat="40.8140155" lon="8.1898245"><ele>70.66666666666667</ele><time>2026-05-03T09:25:56.853Z</time></trkpt><trkpt lat="40.813938" lon="8.1898138"><ele>70.5</ele><time>2026-05-03T09:25:57.853Z</time></trkpt><trkpt lat="40.8138639" lon="8.1897886"><ele>70.33333333333333</ele><time>2026-05-03T09:25:58.853Z</time></trkpt><trkpt lat="40.8138001" lon="8.1897578"><ele>70.16666666666666</ele><time>2026-05-03T09:25:59.853Z</time></trkpt><trkpt lat="40.813693" lon="8.1896792"><ele>70.0</ele><time>2026-05-03T09:26:01.852Z</time></trkpt><trkpt lat="40.8136163" lon="8.189607"><ele>70.0</ele><time>2026-05-03T09:26:03.853Z</time></trkpt><trkpt lat="40.8135782" lon="8.1895061"><ele>70.0</ele><time>2026-05-03T09:26:06.853Z</time></trkpt><trkpt lat="40.8135427" lon="8.1894346"><ele>70.0</ele><time>2026-05-03T09:26:10.853Z</time></trkpt><trkpt lat="40.8135089" lon="8.1895347"><ele>70.0</ele><time>2026-05-03T09:26:22.851Z</time></trkpt><trkpt lat="40.8135796" lon="8.1896198"><ele>70.0</ele><time>2026-05-03T09:26:25.852Z</time></trkpt><trkpt lat="40.8136659" lon="8.1896476"><ele>70.0</ele><time>2026-05-03T09:26:27.852Z</time></trkpt><trkpt lat="40.8137708" lon="8.189741"><ele>70.0</ele><time>2026-05-03T09:26:29.852Z</time></trkpt><trkpt lat="40.8138691" lon="8.1898321"><ele>70.0</ele><time>2026-05-03T09:26:31.852Z</time></trkpt><trkpt lat="40.8139217" lon="8.1899569"><ele>70.0</ele><time>2026-05-03T09:26:33.852Z</time></trkpt><trkpt lat="40.8139541" lon="8.1900871"><ele>70.0</ele><time>2026-05-03T09:26:35.852Z</time></trkpt><trkpt lat="40.8139776" lon="8.1901804"><ele>70.0</ele><time>2026-05-03T09:26:37.852Z</time></trkpt><trkpt lat="40.8139771" lon="8.1902786"><ele>70.6</ele><time>2026-05-03T09:26:39.851Z</time></trkpt><trkpt lat="40.8138973" lon="8.1904121"><ele>71.2</ele><time>2026-05-03T09:26:41.852Z</time></trkpt><trkpt lat="40.8138281" lon="8.1904841"><ele>71.8</ele><time>2026-05-03T09:26:42.852Z</time></trkpt><trkpt lat="40.8137509" lon="8.1905672"><ele>72.4</ele><time>2026-05-03T09:26:43.851Z</time></trkpt><trkpt lat="40.8136812" lon="8.1906461"><ele>73.0</ele><time>2026-05-03T09:26:44.85Z</time></trkpt><trkpt lat="40.8136173" lon="8.1907113"><ele>73.0</ele><time>2026-05-03T09:26:45.852Z</time></trkpt><trkpt lat="40.8135547" lon="8.1907636"><ele>73.0</ele><time>2026-05-03T09:26:46.852Z</time></trkpt><trkpt lat="40.8134952" lon="8.1908058"><ele>73.0</ele><time>2026-05-03T09:26:47.852Z</time></trkpt><trkpt lat="40.8134425" lon="8.1908519"><ele>73.0</ele><time>2026-05-03T09:26:48.852Z</time></trkpt><trkpt lat="40.8133612" lon="8.1909835"><ele>73.0</ele><time>2026-05-03T09:26:50.852Z</time></trkpt><trkpt lat="40.8133191" lon="8.1910771"><ele>73.0</ele><time>2026-05-03T09:26:51.851Z</time></trkpt><trkpt lat="40.8132696" lon="8.1911815"><ele>72.8</ele><time>2026-05-03T09:26:52.852Z</time></trkpt><trkpt lat="40.8132188" lon="8.1912871"><ele>72.6</ele><time>2026-05-03T09:26:53.852Z</time></trkpt><trkpt lat="40.8131708" lon="8.1913955"><ele>72.4</ele><time>2026-05-03T09:26:54.851Z</time></trkpt><trkpt lat="40.8131263" lon="8.191505"><ele>72.2</ele><time>2026-05-03T09:26:55.852Z</time></trkpt><trkpt lat="40.8130874" lon="8.1916191"><ele>72.0</ele><time>2026-05-03T09:26:56.852Z</time></trkpt><trkpt lat="40.8130509" lon="8.1917403"><ele>71.8</ele><time>2026-05-03T09:26:57.851Z</time></trkpt><trkpt lat="40.8130175" lon="8.1918641"><ele>71.6</ele><time>2026-05-03T09:26:58.852Z</time></trkpt><trkpt lat="40.8129924" lon="8.1919919"><ele>71.39999999999999</ele><time>2026-05-03T09:26:59.852Z</time></trkpt><trkpt lat="40.812969" lon="8.1921213"><ele>71.2</ele><time>2026-05-03T09:27:00.852Z</time></trkpt><trkpt lat="40.8129325" lon="8.1922452"><ele>71.0</ele><time>2026-05-03T09:27:01.852Z</time></trkpt><trkpt lat="40.8128875" lon="8.1923676"><ele>71.33333333333334</ele><time>2026-05-03T09:27:02.852Z</time></trkpt><trkpt lat="40.8128468" lon="8.1924813"><ele>71.66666666666667</ele><time>2026-05-03T09:27:03.852Z</time></trkpt><trkpt lat="40.8128122" lon="8.1925822"><ele>72.0</ele><time>2026-05-03T09:27:04.852Z</time></trkpt><trkpt lat="40.8127721" lon="8.1926749"><ele>72.33333333333333</ele><time>2026-05-03T09:27:05.851Z</time></trkpt><trkpt lat="40.8127279" lon="8.1927589"><ele>72.66666666666666</ele><time>2026-05-03T09:27:06.852Z</time></trkpt><trkpt lat="40.8126809" lon="8.1928277"><ele>73.0</ele><time>2026-05-03T09:27:07.851Z</time></trkpt><trkpt lat="40.812613" lon="8.1929403"><ele>73.16666666666666</ele><time>2026-05-03T09:27:09.852Z</time></trkpt><trkpt lat="40.8125703" lon="8.1930287"><ele>73.33333333333333</ele><time>2026-05-03T09:27:11.851Z</time></trkpt><trkpt lat="40.8125142" lon="8.1931219"><ele>73.5</ele><time>2026-05-03T09:27:13.85Z</time></trkpt><trkpt lat="40.8124587" lon="8.1932117"><ele>73.66666666666667</ele><time>2026-05-03T09:27:15.851Z</time></trkpt><trkpt lat="40.8123909" lon="8.1932912"><ele>73.83333333333334</ele><time>2026-05-03T09:27:17.85Z</time></trkpt><trkpt lat="40.8123051" lon="8.1933374"><ele>74.0</ele><time>2026-05-03T09:27:19.85Z</time></trkpt><trkpt lat="40.8122195" lon="8.1933676"><ele>74.5</ele><time>2026-05-03T09:27:21.851Z</time></trkpt><trkpt lat="40.8121461" lon="8.1933988"><ele>75.0</ele><time>2026-05-03T09:27:23.851Z</time></trkpt><trkpt lat="40.8120697" lon="8.1934331"><ele>75.5</ele><time>2026-05-03T09:27:25.851Z</time></trkpt><trkpt lat="40.8119753" lon="8.1934802"><ele>76.0</ele><time>2026-05-03T09:27:27.852Z</time></trkpt><trkpt lat="40.8119112" lon="8.1935133"><ele>76.5</ele><time>2026-05-03T09:27:28.851Z</time></trkpt><trkpt lat="40.8118379" lon="8.1935494"><ele>77.0</ele><time>2026-05-03T09:27:29.851Z</time></trkpt><trkpt lat="40.8117618" lon="8.1935968"><ele>78.5</ele><time>2026-05-03T09:27:30.852Z</time></trkpt><trkpt lat="40.8116757" lon="8.1936592"><ele>80.0</ele><time>2026-05-03T09:27:31.852Z</time></trkpt><trkpt lat="40.8115736" lon="8.193728"><ele>81.5</ele><time>2026-05-03T09:27:32.851Z</time></trkpt><trkpt lat="40.8114462" lon="8.1938084"><ele>83.0</ele><time>2026-05-03T09:27:33.852Z</time></trkpt><trkpt lat="40.8113112" lon="8.1938934"><ele>83.0</ele><time>2026-05-03T09:27:34.852Z</time></trkpt><trkpt lat="40.8111877" lon="8.1939728"><ele>83.0</ele><time>2026-05-03T09:27:35.85Z</time></trkpt><trkpt lat="40.8110727" lon="8.1940399"><ele>83.0</ele><time>2026-05-03T09:27:36.85Z</time></trkpt><trkpt lat="40.8109649" lon="8.1941056"><ele>83.0</ele><time>2026-05-03T09:27:37.852Z</time></trkpt><trkpt lat="40.8108643" lon="8.1941666"><ele>83.16666666666667</ele><time>2026-05-03T09:27:38.852Z</time></trkpt><trkpt lat="40.8107817" lon="8.1942176"><ele>83.33333333333334</ele><time>2026-05-03T09:27:39.851Z</time></trkpt><trkpt lat="40.8107156" lon="8.1942546"><ele>83.5</ele><time>2026-05-03T09:27:40.851Z</time></trkpt><trkpt lat="40.8106527" lon="8.194269"><ele>83.66666666666667</ele><time>2026-05-03T09:27:41.851Z</time></trkpt><trkpt lat="40.8105862" lon="8.1942635"><ele>83.83333333333333</ele><time>2026-05-03T09:27:42.852Z</time></trkpt><trkpt lat="40.8104984" lon="8.194244"><ele>84.0</ele><time>2026-05-03T09:27:43.852Z</time></trkpt><trkpt lat="40.8103878" lon="8.1942122"><ele>84.0</ele><time>2026-05-03T09:27:44.852Z</time></trkpt><trkpt lat="40.8102598" lon="8.1941693"><ele>84.0</ele><time>2026-05-03T09:27:45.851Z</time></trkpt><trkpt lat="40.8101343" lon="8.194141"><ele>84.0</ele><time>2026-05-03T09:27:46.851Z</time></trkpt><trkpt lat="40.8099987" lon="8.1941284"><ele>84.0</ele><time>2026-05-03T09:27:47.85Z</time></trkpt><trkpt lat="40.809885" lon="8.1941152"><ele>86.0</ele><time>2026-05-03T09:27:48.851Z</time></trkpt><trkpt lat="40.8097754" lon="8.1940879"><ele>88.0</ele><time>2026-05-03T09:27:49.851Z</time></trkpt><trkpt lat="40.8096767" lon="8.1940432"><ele>90.0</ele><time>2026-05-03T09:27:50.852Z</time></trkpt><trkpt lat="40.8095749" lon="8.1939868"><ele>92.0</ele><time>2026-05-03T09:27:51.852Z</time></trkpt><trkpt lat="40.809449" lon="8.1939205"><ele>92.75</ele><time>2026-05-03T09:27:52.851Z</time></trkpt><trkpt lat="40.8093338" lon="8.1938672"><ele>93.5</ele><time>2026-05-03T09:27:53.852Z</time></trkpt><trkpt lat="40.8092244" lon="8.1938304"><ele>94.25</ele><time>2026-05-03T09:27:54.851Z</time></trkpt><trkpt lat="40.8091083" lon="8.1938093"><ele>95.0</ele><time>2026-05-03T09:27:55.851Z</time></trkpt><trkpt lat="40.8089896" lon="8.1938087"><ele>98.0</ele><time>2026-05-03T09:27:56.851Z</time></trkpt><trkpt lat="40.8088836" lon="8.1938197"><ele>101.0</ele><time>2026-05-03T09:27:57.852Z</time></trkpt><trkpt lat="40.8087961" lon="8.1938392"><ele>104.0</ele><time>2026-05-03T09:27:58.852Z</time></trkpt><trkpt lat="40.8087233" lon="8.1938383"><ele>107.0</ele><time>2026-05-03T09:27:59.852Z</time></trkpt><trkpt lat="40.808629" lon="8.1937882"><ele>110.0</ele><time>2026-05-03T09:28:01.851Z</time></trkpt><trkpt lat="40.8085721" lon="8.1936962"><ele>110.0</ele><time>2026-05-03T09:28:03.852Z</time></trkpt><trkpt lat="40.8085239" lon="8.1935429"><ele>110.0</ele><time>2026-05-03T09:28:05.852Z</time></trkpt><trkpt lat="40.8084962" lon="8.19345"><ele>110.0</ele><time>2026-05-03T09:28:06.852Z</time></trkpt><trkpt lat="40.8084579" lon="8.1933329"><ele>110.0</ele><time>2026-05-03T09:28:07.852Z</time></trkpt><trkpt lat="40.8084124" lon="8.1932147"><ele>110.0</ele><time>2026-05-03T09:28:08.851Z</time></trkpt><trkpt lat="40.8083752" lon="8.1930928"><ele>111.33333333333333</ele><time>2026-05-03T09:28:09.852Z</time></trkpt><trkpt lat="40.8083493" lon="8.1929953"><ele>112.66666666666666</ele><time>2026-05-03T09:28:10.851Z</time></trkpt><trkpt lat="40.8083126" lon="8.1929104"><ele>114.0</ele><time>2026-05-03T09:28:11.851Z</time></trkpt><trkpt lat="40.8082608" lon="8.192844"><ele>115.33333333333334</ele><time>2026-05-03T09:28:12.852Z</time></trkpt><trkpt lat="40.8082042" lon="8.192804"><ele>116.66666666666667</ele><time>2026-05-03T09:28:13.851Z</time></trkpt><trkpt lat="40.8081329" lon="8.1927765"><ele>118.0</ele><time>2026-05-03T09:28:14.851Z</time></trkpt><trkpt lat="40.8080378" lon="8.1927546"><ele>118.0</ele><time>2026-05-03T09:28:15.851Z</time></trkpt><trkpt lat="40.8079057" lon="8.1927279"><ele>118.0</ele><time>2026-05-03T09:28:16.851Z</time></trkpt><trkpt lat="40.8077775" lon="8.1927022"><ele>118.0</ele><time>2026-05-03T09:28:17.852Z</time></trkpt><trkpt lat="40.8076708" lon="8.1926869"><ele>118.0</ele><time>2026-05-03T09:28:18.852Z</time></trkpt><trkpt lat="40.8075622" lon="8.192691"><ele>119.0</ele><time>2026-05-03T09:28:19.852Z</time></trkpt><trkpt lat="40.8074597" lon="8.1927198"><ele>120.00000000000001</ele><time>2026-05-03T09:28:20.852Z</time></trkpt><trkpt lat="40.807378" lon="8.1927474"><ele>121.00000000000001</ele><time>2026-05-03T09:28:21.851Z</time></trkpt><trkpt lat="40.8073086" lon="8.1927751"><ele>122.0</ele><time>2026-05-03T09:28:22.851Z</time></trkpt><trkpt lat="40.8072342" lon="8.1928089"><ele>123.0</ele><time>2026-05-03T09:28:23.851Z</time></trkpt><trkpt lat="40.807124" lon="8.1928457"><ele>123.0</ele><time>2026-05-03T09:28:25.852Z</time></trkpt><trkpt lat="40.8070153" lon="8.1928132"><ele>123.0</ele><time>2026-05-03T09:28:27.852Z</time></trkpt><trkpt lat="40.8069595" lon="8.1927562"><ele>123.0</ele><time>2026-05-03T09:28:28.851Z</time></trkpt><trkpt lat="40.8069054" lon="8.1926745"><ele>123.0</ele><time>2026-05-03T09:28:29.851Z</time></trkpt><trkpt lat="40.8068417" lon="8.1925823"><ele>123.0</ele><time>2026-05-03T09:28:30.852Z</time></trkpt><trkpt lat="40.8067774" lon="8.1925111"><ele>123.0</ele><time>2026-05-03T09:28:31.852Z</time></trkpt><trkpt lat="40.806702" lon="8.1924476"><ele>122.80000000000001</ele><time>2026-05-03T09:28:32.852Z</time></trkpt><trkpt lat="40.8066252" lon="8.1924001"><ele>122.60000000000001</ele><time>2026-05-03T09:28:33.852Z</time></trkpt><trkpt lat="40.806535" lon="8.1923622"><ele>122.39999999999999</ele><time>2026-05-03T09:28:34.852Z</time></trkpt><trkpt lat="40.8064195" lon="8.192326"><ele>122.19999999999999</ele><time>2026-05-03T09:28:35.852Z</time></trkpt><trkpt lat="40.8063235" lon="8.1922935"><ele>122.0</ele><time>2026-05-03T09:28:36.852Z</time></trkpt><trkpt lat="40.8062454" lon="8.1922547"><ele>122.6</ele><time>2026-05-03T09:28:37.852Z</time></trkpt><trkpt lat="40.8061705" lon="8.1921906"><ele>123.19999999999999</ele><time>2026-05-03T09:28:38.852Z</time></trkpt><trkpt lat="40.8060921" lon="8.192098"><ele>123.8</ele><time>2026-05-03T09:28:39.852Z</time></trkpt><trkpt lat="40.8059978" lon="8.1919815"><ele>124.4</ele><time>2026-05-03T09:28:40.851Z</time></trkpt><trkpt lat="40.8059023" lon="8.1918861"><ele>125.0</ele><time>2026-05-03T09:28:41.852Z</time></trkpt><trkpt lat="40.8057825" lon="8.1917989"><ele>125.0</ele><time>2026-05-03T09:28:42.852Z</time></trkpt><trkpt lat="40.8056691" lon="8.191733"><ele>125.0</ele><time>2026-05-03T09:28:43.851Z</time></trkpt><trkpt lat="40.8055733" lon="8.1916823"><ele>125.0</ele><time>2026-05-03T09:28:44.852Z</time></trkpt><trkpt lat="40.8054857" lon="8.1916395"><ele>125.0</ele><time>2026-05-03T09:28:45.852Z</time></trkpt><trkpt lat="40.8053963" lon="8.1916033"><ele>125.0</ele><time>2026-05-03T09:28:46.852Z</time></trkpt><trkpt lat="40.8052945" lon="8.1915801"><ele>125.0</ele><time>2026-05-03T09:28:47.851Z</time></trkpt><trkpt lat="40.8051909" lon="8.1915777"><ele>125.0</ele><time>2026-05-03T09:28:48.851Z</time></trkpt><trkpt lat="40.8050963" lon="8.1915909"><ele>125.0</ele><time>2026-05-03T09:28:49.852Z</time></trkpt><trkpt lat="40.8050063" lon="8.1915879"><ele>125.0</ele><time>2026-05-03T09:28:50.852Z</time></trkpt><trkpt lat="40.8049224" lon="8.1915681"><ele>125.0</ele><time>2026-05-03T09:28:51.852Z</time></trkpt><trkpt lat="40.8048441" lon="8.1915442"><ele>125.28571428571428</ele><time>2026-05-03T09:28:52.851Z</time></trkpt><trkpt lat="40.8047665" lon="8.1915097"><ele>125.57142857142858</ele><time>2026-05-03T09:28:53.851Z</time></trkpt><trkpt lat="40.8046928" lon="8.1914637"><ele>125.85714285714286</ele><time>2026-05-03T09:28:54.851Z</time></trkpt><trkpt lat="40.8046267" lon="8.1914227"><ele>126.14285714285714</ele><time>2026-05-03T09:28:55.851Z</time></trkpt><trkpt lat="40.8045668" lon="8.1913902"><ele>126.42857142857142</ele><time>2026-05-03T09:28:56.852Z</time></trkpt><trkpt lat="40.8044964" lon="8.1913742"><ele>126.71428571428572</ele><time>2026-05-03T09:28:57.851Z</time></trkpt><trkpt lat="40.8044272" lon="8.1913641"><ele>127.0</ele><time>2026-05-03T09:28:58.852Z</time></trkpt><trkpt lat="40.8043561" lon="8.1913683"><ele>127.6</ele><time>2026-05-03T09:28:59.85Z</time></trkpt><trkpt lat="40.8042714" lon="8.1913847"><ele>128.2</ele><time>2026-05-03T09:29:00.852Z</time></trkpt><trkpt lat="40.8041703" lon="8.19142"><ele>128.8</ele><time>2026-05-03T09:29:01.852Z</time></trkpt><trkpt lat="40.8040546" lon="8.1914759"><ele>129.4</ele><time>2026-05-03T09:29:02.851Z</time></trkpt><trkpt lat="40.803931" lon="8.1915468"><ele>130.0</ele><time>2026-05-03T09:29:03.852Z</time></trkpt><trkpt lat="40.8038335" lon="8.191607"><ele>130.0</ele><time>2026-05-03T09:29:04.852Z</time></trkpt><trkpt lat="40.8037429" lon="8.1916655"><ele>130.0</ele><time>2026-05-03T09:29:05.851Z</time></trkpt><trkpt lat="40.8036518" lon="8.1917382"><ele>130.0</ele><time>2026-05-03T09:29:06.852Z</time></trkpt><trkpt lat="40.8035741" lon="8.191803"><ele>130.0</ele><time>2026-05-03T09:29:07.852Z</time></trkpt><trkpt lat="40.8035106" lon="8.191853"><ele>130.0</ele><time>2026-05-03T09:29:08.852Z</time></trkpt><trkpt lat="40.8034127" lon="8.1919113"><ele>130.0</ele><time>2026-05-03T09:29:10.852Z</time></trkpt><trkpt lat="40.803322" lon="8.191936"><ele>130.0</ele><time>2026-05-03T09:29:12.852Z</time></trkpt><trkpt lat="40.8032411" lon="8.1919352"><ele>130.0</ele><time>2026-05-03T09:29:14.852Z</time></trkpt><trkpt lat="40.8031574" lon="8.1919102"><ele>130.0</ele><time>2026-05-03T09:29:16.852Z</time></trkpt><trkpt lat="40.8030397" lon="8.1918173"><ele>130.0</ele><time>2026-05-03T09:29:18.851Z</time></trkpt><trkpt lat="40.8029741" lon="8.1917278"><ele>130.0</ele><time>2026-05-03T09:29:19.851Z</time></trkpt><trkpt lat="40.8028905" lon="8.1915999"><ele>130.0</ele><time>2026-05-03T09:29:20.851Z</time></trkpt><trkpt lat="40.8027925" lon="8.1914606"><ele>130.0</ele><time>2026-05-03T09:29:21.852Z</time></trkpt><trkpt lat="40.8027119" lon="8.1913412"><ele>130.0</ele><time>2026-05-03T09:29:22.852Z</time></trkpt><trkpt lat="40.8026418" lon="8.1912372"><ele>130.2</ele><time>2026-05-03T09:29:23.852Z</time></trkpt><trkpt lat="40.8025751" lon="8.1911537"><ele>130.4</ele><time>2026-05-03T09:29:24.852Z</time></trkpt><trkpt lat="40.8025036" lon="8.1910752"><ele>130.6</ele><time>2026-05-03T09:29:25.852Z</time></trkpt><trkpt lat="40.8024312" lon="8.1909904"><ele>130.8</ele><time>2026-05-03T09:29:26.852Z</time></trkpt><trkpt lat="40.802353" lon="8.1908943"><ele>131.0</ele><time>2026-05-03T09:29:27.851Z</time></trkpt><trkpt lat="40.8022767" lon="8.1907863"><ele>131.0</ele><time>2026-05-03T09:29:28.85Z</time></trkpt><trkpt lat="40.8021847" lon="8.190681"><ele>131.0</ele><time>2026-05-03T09:29:29.852Z</time></trkpt><trkpt lat="40.8020924" lon="8.1905781"><ele>131.0</ele><time>2026-05-03T09:29:30.852Z</time></trkpt><trkpt lat="40.8020049" lon="8.1904807"><ele>131.0</ele><time>2026-05-03T09:29:31.852Z</time></trkpt><trkpt lat="40.8019323" lon="8.1903876"><ele>131.33333333333331</ele><time>2026-05-03T09:29:32.852Z</time></trkpt><trkpt lat="40.8018707" lon="8.1902921"><ele>131.66666666666666</ele><time>2026-05-03T09:29:33.852Z</time></trkpt><trkpt lat="40.8018258" lon="8.1902241"><ele>132.0</ele><time>2026-05-03T09:29:34.852Z</time></trkpt><trkpt lat="40.8017762" lon="8.1901379"><ele>132.33333333333334</ele><time>2026-05-03T09:29:36.851Z</time></trkpt><trkpt lat="40.8017342" lon="8.1900358"><ele>132.66666666666669</ele><time>2026-05-03T09:34:16.85Z</time></trkpt><trkpt lat="40.8016949" lon="8.1899108"><ele>133.0</ele><time>2026-05-03T09:34:18.85Z</time></trkpt><trkpt lat="40.8016534" lon="8.1897786"><ele>133.0</ele><time>2026-05-03T09:34:20.85Z</time></trkpt><trkpt lat="40.8016281" lon="8.1896895"><ele>133.0</ele><time>2026-05-03T09:34:21.851Z</time></trkpt><trkpt lat="40.8016011" lon="8.1896001"><ele>133.0</ele><time>2026-05-03T09:34:22.851Z</time></trkpt><trkpt lat="40.8015713" lon="8.1895163"><ele>133.0</ele><time>2026-05-03T09:34:23.851Z</time></trkpt><trkpt lat="40.8015337" lon="8.1894459"><ele>133.0</ele><time>2026-05-03T09:34:24.851Z</time></trkpt><trkpt lat="40.8014489" lon="8.1893502"><ele>133.0</ele><time>2026-05-03T09:34:26.85Z</time></trkpt><trkpt lat="40.801346" lon="8.1892751"><ele>133.0</ele><time>2026-05-03T09:34:28.851Z</time></trkpt><trkpt lat="40.8012883" lon="8.1892366"><ele>133.0</ele><time>2026-05-03T09:34:29.851Z</time></trkpt><trkpt lat="40.8012192" lon="8.1891932"><ele>133.0</ele><time>2026-05-03T09:34:30.851Z</time></trkpt><trkpt lat="40.8011422" lon="8.1891397"><ele>133.0</ele><time>2026-05-03T09:34:31.85Z</time></trkpt><trkpt lat="40.8010578" lon="8.1890639"><ele>133.0</ele><time>2026-05-03T09:34:32.851Z</time></trkpt><trkpt lat="40.8009547" lon="8.1889612"><ele>132.20000000000002</ele><time>2026-05-03T09:34:33.851Z</time></trkpt><trkpt lat="40.8008535" lon="8.1888573"><ele>131.4</ele><time>2026-05-03T09:34:34.85Z</time></trkpt><trkpt lat="40.800767" lon="8.188766"><ele>130.60000000000002</ele><time>2026-05-03T09:34:35.85Z</time></trkpt><trkpt lat="40.8006887" lon="8.1886821"><ele>129.8</ele><time>2026-05-03T09:34:36.85Z</time></trkpt><trkpt lat="40.800623" lon="8.1886121"><ele>129.0</ele><time>2026-05-03T09:34:37.85Z</time></trkpt><trkpt lat="40.8005677" lon="8.1885373"><ele>129.0</ele><time>2026-05-03T09:34:38.851Z</time></trkpt><trkpt lat="40.8005214" lon="8.188447"><ele>129.0</ele><time>2026-05-03T09:34:39.851Z</time></trkpt><trkpt lat="40.8004767" lon="8.1883445"><ele>129.0</ele><time>2026-05-03T09:34:40.851Z</time></trkpt><trkpt lat="40.8004392" lon="8.1882404"><ele>129.0</ele><time>2026-05-03T09:34:41.851Z</time></trkpt><trkpt lat="40.8004181" lon="8.1881302"><ele>129.0</ele><time>2026-05-03T09:34:42.851Z</time></trkpt><trkpt lat="40.8004112" lon="8.188007"><ele>129.0</ele><time>2026-05-03T09:34:43.85Z</time></trkpt><trkpt lat="40.800413" lon="8.1878736"><ele>128.83333333333334</ele><time>2026-05-03T09:34:44.851Z</time></trkpt><trkpt lat="40.8004189" lon="8.187748"><ele>128.66666666666666</ele><time>2026-05-03T09:34:45.851Z</time></trkpt><trkpt lat="40.8004265" lon="8.1876312"><ele>128.5</ele><time>2026-05-03T09:34:46.851Z</time></trkpt><trkpt lat="40.8004284" lon="8.1875307"><ele>128.33333333333331</ele><time>2026-05-03T09:34:47.851Z</time></trkpt><trkpt lat="40.8004288" lon="8.1874465"><ele>128.16666666666666</ele><time>2026-05-03T09:34:48.849Z</time></trkpt><trkpt lat="40.8004311" lon="8.1873073"><ele>128.0</ele><time>2026-05-03T09:34:50.851Z</time></trkpt><trkpt lat="40.8004117" lon="8.1871334"><ele>129.0</ele><time>2026-05-03T09:34:52.851Z</time></trkpt><trkpt lat="40.800381" lon="8.1870338"><ele>130.0</ele><time>2026-05-03T09:34:54.851Z</time></trkpt><trkpt lat="40.8002875" lon="8.1870454"><ele>131.0</ele><time>2026-05-03T09:35:15.851Z</time></trkpt><trkpt lat="40.8002004" lon="8.1870624"><ele>132.0</ele><time>2026-05-03T09:35:17.851Z</time></trkpt><trkpt lat="40.8001065" lon="8.1870603"><ele>133.0</ele><time>2026-05-03T09:35:19.851Z</time></trkpt><trkpt lat="40.8000074" lon="8.1870641"><ele>133.8</ele><time>2026-05-03T09:35:21.851Z</time></trkpt><trkpt lat="40.7999019" lon="8.187089"><ele>134.60000000000002</ele><time>2026-05-03T09:35:23.851Z</time></trkpt><trkpt lat="40.7998342" lon="8.1871071"><ele>135.39999999999998</ele><time>2026-05-03T09:35:24.851Z</time></trkpt><trkpt lat="40.7997509" lon="8.1871302"><ele>136.2</ele><time>2026-05-03T09:35:25.85Z</time></trkpt><trkpt lat="40.7996535" lon="8.1871642"><ele>137.0</ele><time>2026-05-03T09:35:26.85Z</time></trkpt><trkpt lat="40.7995516" lon="8.1872164"><ele>137.0</ele><time>2026-05-03T09:35:27.851Z</time></trkpt><trkpt lat="40.7994603" lon="8.1872713"><ele>137.0</ele><time>2026-05-03T09:35:28.851Z</time></trkpt><trkpt lat="40.7993875" lon="8.1873206"><ele>137.0</ele><time>2026-05-03T09:35:29.851Z</time></trkpt><trkpt lat="40.7993076" lon="8.1873554"><ele>137.0</ele><time>2026-05-03T09:35:30.851Z</time></trkpt><trkpt lat="40.7992319" lon="8.187368"><ele>137.0</ele><time>2026-05-03T09:35:31.849Z</time></trkpt><trkpt lat="40.7991629" lon="8.1873515"><ele>137.0</ele><time>2026-05-03T09:35:32.851Z</time></trkpt><trkpt lat="40.7991054" lon="8.1873085"><ele>138.16666666666666</ele><time>2026-05-03T09:35:33.851Z</time></trkpt><trkpt lat="40.7990398" lon="8.1872466"><ele>139.33333333333331</ele><time>2026-05-03T09:35:34.851Z</time></trkpt><trkpt lat="40.7989633" lon="8.1871823"><ele>140.5</ele><time>2026-05-03T09:35:35.851Z</time></trkpt><trkpt lat="40.7989022" lon="8.1871306"><ele>141.66666666666666</ele><time>2026-05-03T09:35:36.849Z</time></trkpt><trkpt lat="40.7988393" lon="8.187073"><ele>142.83333333333334</ele><time>2026-05-03T09:35:38.851Z</time></trkpt><trkpt lat="40.7987372" lon="8.1870275"><ele>144.0</ele><time>2026-05-03T09:36:09.851Z</time></trkpt><trkpt lat="40.7986311" lon="8.1870124"><ele>144.0</ele><time>2026-05-03T09:36:11.85Z</time></trkpt><trkpt lat="40.7985114" lon="8.1870301"><ele>144.0</ele><time>2026-05-03T09:36:13.851Z</time></trkpt><trkpt lat="40.7984461" lon="8.1870669"><ele>144.0</ele><time>2026-05-03T09:36:14.851Z</time></trkpt><trkpt lat="40.7983824" lon="8.1871204"><ele>144.0</ele><time>2026-05-03T09:36:15.85Z</time></trkpt><trkpt lat="40.7983319" lon="8.1871747"><ele>144.0</ele><time>2026-05-03T09:36:16.851Z</time></trkpt><trkpt lat="40.7982466" lon="8.1872667"><ele>144.0</ele><time>2026-05-03T09:36:18.851Z</time></trkpt><trkpt lat="40.7981547" lon="8.1874066"><ele>144.6</ele><time>2026-05-03T09:36:20.851Z</time></trkpt><trkpt lat="40.7981034" lon="8.187524"><ele>145.2</ele><time>2026-05-03T09:36:21.85Z</time></trkpt><trkpt lat="40.7980506" lon="8.1876315"><ele>145.79999999999998</ele><time>2026-05-03T09:36:22.851Z</time></trkpt><trkpt lat="40.7979972" lon="8.1877334"><ele>146.4</ele><time>2026-05-03T09:36:23.851Z</time></trkpt><trkpt lat="40.7979475" lon="8.1878279"><ele>147.0</ele><time>2026-05-03T09:36:24.85Z</time></trkpt><trkpt lat="40.7978889" lon="8.1879176"><ele>147.0</ele><time>2026-05-03T09:36:25.85Z</time></trkpt><trkpt lat="40.7978244" lon="8.1880052"><ele>147.0</ele><time>2026-05-03T09:36:26.851Z</time></trkpt><trkpt lat="40.7977605" lon="8.1880948"><ele>147.0</ele><time>2026-05-03T09:36:27.851Z</time></trkpt><trkpt lat="40.7977026" lon="8.1881866"><ele>147.0</ele><time>2026-05-03T09:36:28.851Z</time></trkpt><trkpt lat="40.7976484" lon="8.188278"><ele>147.0</ele><time>2026-05-03T09:36:29.851Z</time></trkpt><trkpt lat="40.7975987" lon="8.1883704"><ele>147.66666666666666</ele><time>2026-05-03T09:36:30.851Z</time></trkpt><trkpt lat="40.797554" lon="8.1884675"><ele>148.33333333333334</ele><time>2026-05-03T09:36:31.85Z</time></trkpt><trkpt lat="40.7975138" lon="8.1885664"><ele>149.0</ele><time>2026-05-03T09:36:32.851Z</time></trkpt><trkpt lat="40.7974665" lon="8.1886628"><ele>149.66666666666669</ele><time>2026-05-03T09:36:33.851Z</time></trkpt><trkpt lat="40.7974138" lon="8.1887542"><ele>150.33333333333334</ele><time>2026-05-03T09:36:34.85Z</time></trkpt><trkpt lat="40.7973573" lon="8.1888487"><ele>151.0</ele><time>2026-05-03T09:36:35.851Z</time></trkpt><trkpt lat="40.7972986" lon="8.188944"><ele>151.16666666666669</ele><time>2026-05-03T09:36:36.851Z</time></trkpt><trkpt lat="40.797236" lon="8.189032"><ele>151.33333333333334</ele><time>2026-05-03T09:36:37.851Z</time></trkpt><trkpt lat="40.7971733" lon="8.189111"><ele>151.5</ele><time>2026-05-03T09:36:38.85Z</time></trkpt><trkpt lat="40.7971103" lon="8.1891846"><ele>151.66666666666666</ele><time>2026-05-03T09:36:39.851Z</time></trkpt><trkpt lat="40.7970477" lon="8.1892506"><ele>151.83333333333331</ele><time>2026-05-03T09:36:40.85Z</time></trkpt><trkpt lat="40.7969807" lon="8.1893078"><ele>152.0</ele><time>2026-05-03T09:36:41.85Z</time></trkpt><trkpt lat="40.7969088" lon="8.1893573"><ele>154.6</ele><time>2026-05-03T09:36:42.849Z</time></trkpt><trkpt lat="40.7968303" lon="8.1894038"><ele>157.2</ele><time>2026-05-03T09:36:43.849Z</time></trkpt><trkpt lat="40.7967495" lon="8.1894477"><ele>159.8</ele><time>2026-05-03T09:36:44.849Z</time></trkpt><trkpt lat="40.7966631" lon="8.1894881"><ele>162.4</ele><time>2026-05-03T09:36:45.85Z</time></trkpt><trkpt lat="40.7965763" lon="8.189528"><ele>165.0</ele><time>2026-05-03T09:36:46.85Z</time></trkpt><trkpt lat="40.7964866" lon="8.1895748"><ele>165.0</ele><time>2026-05-03T09:36:47.85Z</time></trkpt><trkpt lat="40.7963966" lon="8.1896295"><ele>165.0</ele><time>2026-05-03T09:36:48.85Z</time></trkpt><trkpt lat="40.7963077" lon="8.1896912"><ele>165.0</ele><time>2026-05-03T09:36:49.85Z</time></trkpt><trkpt lat="40.7962183" lon="8.1897497"><ele>165.0</ele><time>2026-05-03T09:36:50.85Z</time></trkpt><trkpt lat="40.7961254" lon="8.1898056"><ele>165.0</ele><time>2026-05-03T09:36:51.849Z</time></trkpt><trkpt lat="40.7960338" lon="8.1898578"><ele>165.2</ele><time>2026-05-03T09:36:52.849Z</time></trkpt><trkpt lat="40.7959502" lon="8.189904"><ele>165.4</ele><time>2026-05-03T09:36:53.849Z</time></trkpt><trkpt lat="40.7958652" lon="8.1899503"><ele>165.60000000000002</ele><time>2026-05-03T09:36:54.85Z</time></trkpt><trkpt lat="40.7957723" lon="8.189997"><ele>165.8</ele><time>2026-05-03T09:36:55.849Z</time></trkpt><trkpt lat="40.7956713" lon="8.1900413"><ele>166.0</ele><time>2026-05-03T09:36:56.85Z</time></trkpt><trkpt lat="40.7955738" lon="8.1900832"><ele>166.0</ele><time>2026-05-03T09:36:57.85Z</time></trkpt><trkpt lat="40.7954852" lon="8.1901251"><ele>166.0</ele><time>2026-05-03T09:36:58.849Z</time></trkpt><trkpt lat="40.7954019" lon="8.1901778"><ele>166.0</ele><time>2026-05-03T09:36:59.85Z</time></trkpt><trkpt lat="40.7953127" lon="8.1902466"><ele>166.0</ele><time>2026-05-03T09:37:00.849Z</time></trkpt><trkpt lat="40.7952274" lon="8.1903321"><ele>166.0</ele><time>2026-05-03T09:37:01.85Z</time></trkpt><trkpt lat="40.7951502" lon="8.1904185"><ele>166.16666666666669</ele><time>2026-05-03T09:37:02.85Z</time></trkpt><trkpt lat="40.7950745" lon="8.19049"><ele>166.33333333333334</ele><time>2026-05-03T09:37:03.849Z</time></trkpt><trkpt lat="40.7950014" lon="8.1905435"><ele>166.5</ele><time>2026-05-03T09:37:04.85Z</time></trkpt><trkpt lat="40.7949205" lon="8.1905758"><ele>166.66666666666666</ele><time>2026-05-03T09:37:05.85Z</time></trkpt><trkpt lat="40.7948461" lon="8.1905902"><ele>166.83333333333331</ele><time>2026-05-03T09:37:06.85Z</time></trkpt><trkpt lat="40.7947761" lon="8.1905907"><ele>167.0</ele><time>2026-05-03T09:37:07.85Z</time></trkpt><trkpt lat="40.794702" lon="8.1905794"><ele>167.0</ele><time>2026-05-03T09:37:08.85Z</time></trkpt><trkpt lat="40.79463" lon="8.1905543"><ele>167.0</ele><time>2026-05-03T09:37:09.849Z</time></trkpt><trkpt lat="40.7945539" lon="8.1905269"><ele>167.0</ele><time>2026-05-03T09:37:10.849Z</time></trkpt><trkpt lat="40.7944726" lon="8.1905156"><ele>167.0</ele><time>2026-05-03T09:37:11.85Z</time></trkpt><trkpt lat="40.7943843" lon="8.1905217"><ele>167.0</ele><time>2026-05-03T09:37:12.85Z</time></trkpt><trkpt lat="40.7942689" lon="8.1905329"><ele>167.0</ele><time>2026-05-03T09:37:13.85Z</time></trkpt><trkpt lat="40.7941643" lon="8.1905329"><ele>167.6</ele><time>2026-05-03T09:37:14.85Z</time></trkpt><trkpt lat="40.7940698" lon="8.1905311"><ele>168.2</ele><time>2026-05-03T09:37:15.849Z</time></trkpt><trkpt lat="40.7939817" lon="8.1905213"><ele>168.8</ele><time>2026-05-03T09:37:16.849Z</time></trkpt><trkpt lat="40.7938916" lon="8.1905072"><ele>169.4</ele><time>2026-05-03T09:37:17.849Z</time></trkpt><trkpt lat="40.7937978" lon="8.1904973"><ele>170.0</ele><time>2026-05-03T09:37:18.85Z</time></trkpt><trkpt lat="40.7937011" lon="8.1905017"><ele>170.0</ele><time>2026-05-03T09:37:19.85Z</time></trkpt><trkpt lat="40.7936007" lon="8.1905207"><ele>170.0</ele><time>2026-05-03T09:37:20.85Z</time></trkpt><trkpt lat="40.7935019" lon="8.1905341"><ele>170.0</ele><time>2026-05-03T09:37:21.85Z</time></trkpt><trkpt lat="40.7934053" lon="8.190532"><ele>170.0</ele><time>2026-05-03T09:37:22.85Z</time></trkpt><trkpt lat="40.7932971" lon="8.1905364"><ele>170.0</ele><time>2026-05-03T09:37:23.85Z</time></trkpt><trkpt lat="40.7932003" lon="8.1905407"><ele>171.16666666666666</ele><time>2026-05-03T09:37:24.85Z</time></trkpt><trkpt lat="40.7931084" lon="8.1905444"><ele>172.33333333333331</ele><time>2026-05-03T09:37:25.85Z</time></trkpt><trkpt lat="40.7930188" lon="8.1905548"><ele>173.5</ele><time>2026-05-03T09:37:26.85Z</time></trkpt><trkpt lat="40.79294" lon="8.19057"><ele>174.66666666666666</ele><time>2026-05-03T09:37:27.85Z</time></trkpt><trkpt lat="40.7928512" lon="8.1906013"><ele>175.83333333333334</ele><time>2026-05-03T09:37:28.85Z</time></trkpt><trkpt lat="40.7927812" lon="8.190635"><ele>177.0</ele><time>2026-05-03T09:37:29.849Z</time></trkpt><trkpt lat="40.7927089" lon="8.1906609"><ele>176.16666666666666</ele><time>2026-05-03T09:37:30.85Z</time></trkpt><trkpt lat="40.7926264" lon="8.1906816"><ele>175.33333333333334</ele><time>2026-05-03T09:37:31.85Z</time></trkpt><trkpt lat="40.7925451" lon="8.1906849"><ele>174.5</ele><time>2026-05-03T09:37:32.85Z</time></trkpt><trkpt lat="40.7924702" lon="8.1906793"><ele>173.66666666666669</ele><time>2026-05-03T09:37:33.849Z</time></trkpt><trkpt lat="40.7924014" lon="8.190684"><ele>172.83333333333334</ele><time>2026-05-03T09:37:34.849Z</time></trkpt><trkpt lat="40.792324" lon="8.1907094"><ele>172.0</ele><time>2026-05-03T09:37:35.849Z</time></trkpt><trkpt lat="40.7922365" lon="8.1907581"><ele>172.0</ele><time>2026-05-03T09:37:36.85Z</time></trkpt><trkpt lat="40.7921537" lon="8.1908047"><ele>172.0</ele><time>2026-05-03T09:37:37.85Z</time></trkpt><trkpt lat="40.7920642" lon="8.1908448"><ele>172.0</ele><time>2026-05-03T09:37:38.85Z</time></trkpt><trkpt lat="40.7919674" lon="8.1908754"><ele>172.0</ele><time>2026-05-03T09:37:39.85Z</time></trkpt><trkpt lat="40.7918611" lon="8.1909136"><ele>172.0</ele><time>2026-05-03T09:37:40.85Z</time></trkpt><trkpt lat="40.7917673" lon="8.1909556"><ele>172.16666666666669</ele><time>2026-05-03T09:37:41.848Z</time></trkpt><trkpt lat="40.7916657" lon="8.1910058"><ele>172.33333333333334</ele><time>2026-05-03T09:37:42.85Z</time></trkpt><trkpt lat="40.791582" lon="8.1910478"><ele>172.5</ele><time>2026-05-03T09:37:43.85Z</time></trkpt><trkpt lat="40.7915071" lon="8.1910837"><ele>172.66666666666666</ele><time>2026-05-03T09:37:44.85Z</time></trkpt><trkpt lat="40.7914364" lon="8.1911129"><ele>172.83333333333331</ele><time>2026-05-03T09:37:45.849Z</time></trkpt><trkpt lat="40.7913622" lon="8.1911425"><ele>173.0</ele><time>2026-05-03T09:37:46.85Z</time></trkpt><trkpt lat="40.7912879" lon="8.1911708"><ele>173.0</ele><time>2026-05-03T09:37:47.849Z</time></trkpt><trkpt lat="40.7912085" lon="8.1911997"><ele>173.0</ele><time>2026-05-03T09:37:48.85Z</time></trkpt><trkpt lat="40.7911283" lon="8.1912316"><ele>173.0</ele><time>2026-05-03T09:37:49.85Z</time></trkpt><trkpt lat="40.7910519" lon="8.1912706"><ele>173.0</ele><time>2026-05-03T09:37:50.848Z</time></trkpt><trkpt lat="40.7909833" lon="8.1913088"><ele>173.0</ele><time>2026-05-03T09:37:51.85Z</time></trkpt><trkpt lat="40.790921" lon="8.1913407"><ele>173.0</ele><time>2026-05-03T09:37:52.849Z</time></trkpt><trkpt lat="40.7908286" lon="8.1914024"><ele>173.33333333333331</ele><time>2026-05-03T09:37:54.849Z</time></trkpt><trkpt lat="40.7907822" lon="8.1914904"><ele>173.66666666666666</ele><time>2026-05-03T09:37:56.85Z</time></trkpt><trkpt lat="40.7907734" lon="8.1916296"><ele>174.0</ele><time>2026-05-03T09:37:58.85Z</time></trkpt><trkpt lat="40.7907743" lon="8.191722"><ele>174.33333333333334</ele><time>2026-05-03T09:37:59.849Z</time></trkpt><trkpt lat="40.7907691" lon="8.1918159"><ele>174.66666666666669</ele><time>2026-05-03T09:38:00.849Z</time></trkpt><trkpt lat="40.7907561" lon="8.1919122"><ele>175.0</ele><time>2026-05-03T09:38:01.85Z</time></trkpt><trkpt lat="40.7907347" lon="8.1920063"><ele>175.0</ele><time>2026-05-03T09:38:02.85Z</time></trkpt><trkpt lat="40.7907071" lon="8.1920988"><ele>175.0</ele><time>2026-05-03T09:38:03.85Z</time></trkpt><trkpt lat="40.7906856" lon="8.1922"><ele>175.0</ele><time>2026-05-03T09:38:04.85Z</time></trkpt><trkpt lat="40.7906714" lon="8.192308"><ele>175.0</ele><time>2026-05-03T09:38:05.85Z</time></trkpt><trkpt lat="40.7906561" lon="8.1924263"><ele>175.0</ele><time>2026-05-03T09:38:06.85Z</time></trkpt><trkpt lat="40.7906521" lon="8.1925345"><ele>175.0</ele><time>2026-05-03T09:38:07.85Z</time></trkpt><trkpt lat="40.7906486" lon="8.1926208"><ele>175.0</ele><time>2026-05-03T09:38:08.85Z</time></trkpt><trkpt lat="40.7906697" lon="8.1927511"><ele>175.0</ele><time>2026-05-03T09:38:10.85Z</time></trkpt><trkpt lat="40.7907476" lon="8.1928363"><ele>175.0</ele><time>2026-05-03T09:38:12.85Z</time></trkpt><trkpt lat="40.7908075" lon="8.1928643"><ele>175.0</ele><time>2026-05-03T09:38:13.85Z</time></trkpt><trkpt lat="40.7909226" lon="8.1928781"><ele>175.0</ele><time>2026-05-03T09:38:15.85Z</time></trkpt><trkpt lat="40.7910158" lon="8.1929134"><ele>172.5</ele><time>2026-05-03T09:38:17.85Z</time></trkpt><trkpt lat="40.7910743" lon="8.1930119"><ele>170.0</ele><time>2026-05-03T09:38:19.85Z</time></trkpt><trkpt lat="40.7910958" lon="8.1930934"><ele>167.5</ele><time>2026-05-03T09:38:20.85Z</time></trkpt><trkpt lat="40.7911134" lon="8.1931862"><ele>165.0</ele><time>2026-05-03T09:38:21.85Z</time></trkpt><trkpt lat="40.7911313" lon="8.1932865"><ele>162.5</ele><time>2026-05-03T09:38:22.85Z</time></trkpt><trkpt lat="40.7911552" lon="8.1933867"><ele>160.0</ele><time>2026-05-03T09:38:23.85Z</time></trkpt><trkpt lat="40.7911734" lon="8.1934823"><ele>160.0</ele><time>2026-05-03T09:38:24.85Z</time></trkpt><trkpt lat="40.7911898" lon="8.1935714"><ele>160.0</ele><time>2026-05-03T09:38:25.85Z</time></trkpt><trkpt lat="40.7912073" lon="8.1936532"><ele>160.0</ele><time>2026-05-03T09:38:26.85Z</time></trkpt><trkpt lat="40.7912416" lon="8.193799"><ele>160.0</ele><time>2026-05-03T09:38:28.849Z</time></trkpt><trkpt lat="40.7912749" lon="8.1939177"><ele>160.0</ele><time>2026-05-03T09:38:30.85Z</time></trkpt><trkpt lat="40.7913174" lon="8.1940463"><ele>159.33333333333334</ele><time>2026-05-03T09:38:32.85Z</time></trkpt><trkpt lat="40.7913653" lon="8.1941684"><ele>158.66666666666669</ele><time>2026-05-03T09:38:34.85Z</time></trkpt><trkpt lat="40.7914102" lon="8.1942948"><ele>158.0</ele><time>2026-05-03T09:38:36.85Z</time></trkpt><trkpt lat="40.7914501" lon="8.1944087"><ele>157.33333333333334</ele><time>2026-05-03T09:38:38.849Z</time></trkpt><trkpt lat="40.7914687" lon="8.1945016"><ele>156.66666666666666</ele><time>2026-05-03T09:38:40.85Z</time></trkpt><trkpt lat="40.7914249" lon="8.1945682"><ele>156.0</ele><time>2026-05-03T09:38:43.849Z</time></trkpt><trkpt lat="40.7913434" lon="8.1945403"><ele>156.0</ele><time>2026-05-03T09:38:45.849Z</time></trkpt><trkpt lat="40.7912827" lon="8.1944932"><ele>156.0</ele><time>2026-05-03T09:38:46.849Z</time></trkpt><trkpt lat="40.7912105" lon="8.1944365"><ele>156.0</ele><time>2026-05-03T09:38:47.85Z</time></trkpt><trkpt lat="40.7911321" lon="8.1943767"><ele>156.0</ele><time>2026-05-03T09:38:48.849Z</time></trkpt><trkpt lat="40.791054" lon="8.1943216"><ele>156.0</ele><time>2026-05-03T09:38:49.848Z</time></trkpt><trkpt lat="40.7909566" lon="8.1942543"><ele>156.0</ele><time>2026-05-03T09:38:50.85Z</time></trkpt><trkpt lat="40.7908575" lon="8.1941862"><ele>158.4</ele><time>2026-05-03T09:38:51.85Z</time></trkpt><trkpt lat="40.7907529" lon="8.194122"><ele>160.8</ele><time>2026-05-03T09:38:52.85Z</time></trkpt><trkpt lat="40.7906536" lon="8.1940677"><ele>163.20000000000002</ele><time>2026-05-03T09:38:53.85Z</time></trkpt><trkpt lat="40.7905504" lon="8.1940151"><ele>165.6</ele><time>2026-05-03T09:38:54.849Z</time></trkpt><trkpt lat="40.790452" lon="8.19395"><ele>168.0</ele><time>2026-05-03T09:38:55.849Z</time></trkpt><trkpt lat="40.7903634" lon="8.1938794"><ele>169.2</ele><time>2026-05-03T09:38:56.85Z</time></trkpt><trkpt lat="40.7902764" lon="8.1938096"><ele>170.4</ele><time>2026-05-03T09:38:57.849Z</time></trkpt><trkpt lat="40.7901822" lon="8.193748"><ele>171.6</ele><time>2026-05-03T09:38:58.85Z</time></trkpt><trkpt lat="40.7900814" lon="8.1937042"><ele>172.79999999999998</ele><time>2026-05-03T09:38:59.848Z</time></trkpt><trkpt lat="40.7899826" lon="8.1936711"><ele>174.0</ele><time>2026-05-03T09:39:00.85Z</time></trkpt><trkpt lat="40.7898962" lon="8.1936402"><ele>174.66666666666666</ele><time>2026-05-03T09:39:01.849Z</time></trkpt><trkpt lat="40.7898163" lon="8.1936175"><ele>175.33333333333334</ele><time>2026-05-03T09:39:02.85Z</time></trkpt><trkpt lat="40.789738" lon="8.1935861"><ele>176.0</ele><time>2026-05-03T09:39:03.85Z</time></trkpt><trkpt lat="40.7896699" lon="8.1935543"><ele>176.66666666666669</ele><time>2026-05-03T09:39:04.849Z</time></trkpt><trkpt lat="40.7896088" lon="8.1935098"><ele>177.33333333333334</ele><time>2026-05-03T09:39:05.85Z</time></trkpt><trkpt lat="40.789547" lon="8.1934495"><ele>178.0</ele><time>2026-05-03T09:39:06.85Z</time></trkpt><trkpt lat="40.7894863" lon="8.1933676"><ele>178.0</ele><time>2026-05-03T09:39:07.849Z</time></trkpt><trkpt lat="40.7894291" lon="8.1932727"><ele>178.0</ele><time>2026-05-03T09:39:08.85Z</time></trkpt><trkpt lat="40.7893719" lon="8.1931664"><ele>178.0</ele><time>2026-05-03T09:39:09.85Z</time></trkpt><trkpt lat="40.7893151" lon="8.1930576"><ele>178.0</ele><time>2026-05-03T09:39:10.85Z</time></trkpt><trkpt lat="40.7892575" lon="8.1929507"><ele>178.0</ele><time>2026-05-03T09:39:11.849Z</time></trkpt><trkpt lat="40.789203" lon="8.1928473"><ele>177.5</ele><time>2026-05-03T09:39:12.85Z</time></trkpt><trkpt lat="40.7891549" lon="8.1927496"><ele>177.0</ele><time>2026-05-03T09:39:13.85Z</time></trkpt><trkpt lat="40.7891156" lon="8.1926545"><ele>176.5</ele><time>2026-05-03T09:39:14.85Z</time></trkpt><trkpt lat="40.7890765" lon="8.1925504"><ele>176.0</ele><time>2026-05-03T09:39:15.849Z</time></trkpt><trkpt lat="40.7890396" lon="8.1924343"><ele>175.5</ele><time>2026-05-03T09:39:16.849Z</time></trkpt><trkpt lat="40.7889961" lon="8.1923245"><ele>175.0</ele><time>2026-05-03T09:39:17.849Z</time></trkpt><trkpt lat="40.7889461" lon="8.1922142"><ele>175.0</ele><time>2026-05-03T09:39:18.85Z</time></trkpt><trkpt lat="40.7888901" lon="8.1921023"><ele>175.0</ele><time>2026-05-03T09:39:19.85Z</time></trkpt><trkpt lat="40.7888311" lon="8.1919922"><ele>175.0</ele><time>2026-05-03T09:39:20.85Z</time></trkpt><trkpt lat="40.7887752" lon="8.1918868"><ele>175.0</ele><time>2026-05-03T09:39:21.85Z</time></trkpt><trkpt lat="40.7887194" lon="8.1917795"><ele>175.0</ele><time>2026-05-03T09:39:22.85Z</time></trkpt><trkpt lat="40.7886614" lon="8.1916687"><ele>175.0</ele><time>2026-05-03T09:39:23.849Z</time></trkpt><trkpt lat="40.7886073" lon="8.1915578"><ele>175.0</ele><time>2026-05-03T09:39:24.85Z</time></trkpt><trkpt lat="40.7885476" lon="8.1914462"><ele>175.0</ele><time>2026-05-03T09:39:25.85Z</time></trkpt><trkpt lat="40.7884804" lon="8.1913296"><ele>175.0</ele><time>2026-05-03T09:39:26.85Z</time></trkpt><trkpt lat="40.7884095" lon="8.1912083"><ele>175.0</ele><time>2026-05-03T09:39:27.85Z</time></trkpt><trkpt lat="40.788339" lon="8.1910815"><ele>171.75</ele><time>2026-05-03T09:39:28.85Z</time></trkpt><trkpt lat="40.7882797" lon="8.1909465"><ele>168.5</ele><time>2026-05-03T09:39:29.85Z</time></trkpt><trkpt lat="40.7882253" lon="8.1908118"><ele>165.25</ele><time>2026-05-03T09:39:30.849Z</time></trkpt><trkpt lat="40.7881708" lon="8.1906866"><ele>162.0</ele><time>2026-05-03T09:39:31.85Z</time></trkpt><trkpt lat="40.7881145" lon="8.1905648"><ele>162.0</ele><time>2026-05-03T09:39:32.849Z</time></trkpt><trkpt lat="40.7880578" lon="8.1904538"><ele>162.0</ele><time>2026-05-03T09:39:33.85Z</time></trkpt><trkpt lat="40.7880064" lon="8.1903444"><ele>162.0</ele><time>2026-05-03T09:39:34.85Z</time></trkpt><trkpt lat="40.7879594" lon="8.1902342"><ele>162.0</ele><time>2026-05-03T09:39:35.849Z</time></trkpt><trkpt lat="40.7879138" lon="8.1901223"><ele>162.0</ele><time>2026-05-03T09:39:36.85Z</time></trkpt><trkpt lat="40.7878699" lon="8.1900182"><ele>162.0</ele><time>2026-05-03T09:39:37.85Z</time></trkpt><trkpt lat="40.7878174" lon="8.1899183"><ele>162.0</ele><time>2026-05-03T09:39:38.849Z</time></trkpt><trkpt lat="40.7877605" lon="8.1898092"><ele>162.0</ele><time>2026-05-03T09:39:39.85Z</time></trkpt><trkpt lat="40.7877012" lon="8.1896946"><ele>162.0</ele><time>2026-05-03T09:39:40.85Z</time></trkpt><trkpt lat="40.7876382" lon="8.1895813"><ele>162.0</ele><time>2026-05-03T09:39:41.85Z</time></trkpt><trkpt lat="40.7875717" lon="8.1894747"><ele>160.2</ele><time>2026-05-03T09:39:42.85Z</time></trkpt><trkpt lat="40.7875038" lon="8.1893652"><ele>158.39999999999998</ele><time>2026-05-03T09:39:43.85Z</time></trkpt><trkpt lat="40.7874392" lon="8.1892492"><ele>156.60000000000002</ele><time>2026-05-03T09:39:44.849Z</time></trkpt><trkpt lat="40.787378" lon="8.1891434"><ele>154.8</ele><time>2026-05-03T09:39:45.848Z</time></trkpt><trkpt lat="40.7873172" lon="8.1890501"><ele>153.0</ele><time>2026-05-03T09:39:46.85Z</time></trkpt><trkpt lat="40.7872615" lon="8.1889579"><ele>152.33333333333334</ele><time>2026-05-03T09:39:47.848Z</time></trkpt><trkpt lat="40.78722" lon="8.188864"><ele>151.66666666666666</ele><time>2026-05-03T09:39:48.85Z</time></trkpt><trkpt lat="40.787185" lon="8.1887688"><ele>151.0</ele><time>2026-05-03T09:39:49.85Z</time></trkpt><trkpt lat="40.7871595" lon="8.1886768"><ele>150.33333333333331</ele><time>2026-05-03T09:39:50.85Z</time></trkpt><trkpt lat="40.7871378" lon="8.1885801"><ele>149.66666666666666</ele><time>2026-05-03T09:39:51.85Z</time></trkpt><trkpt lat="40.7871138" lon="8.1884702"><ele>149.0</ele><time>2026-05-03T09:39:52.85Z</time></trkpt><trkpt lat="40.7870948" lon="8.1883585"><ele>149.0</ele><time>2026-05-03T09:39:53.849Z</time></trkpt><trkpt lat="40.7870808" lon="8.1882494"><ele>149.0</ele><time>2026-05-03T09:39:54.849Z</time></trkpt><trkpt lat="40.787073" lon="8.1881448"><ele>149.0</ele><time>2026-05-03T09:39:55.85Z</time></trkpt><trkpt lat="40.7870737" lon="8.1880403"><ele>149.0</ele><time>2026-05-03T09:39:56.85Z</time></trkpt><trkpt lat="40.7870871" lon="8.1879281"><ele>149.0</ele><time>2026-05-03T09:39:57.85Z</time></trkpt><trkpt lat="40.7871125" lon="8.1878015"><ele>149.0</ele><time>2026-05-03T09:39:58.85Z</time></trkpt><trkpt lat="40.7871504" lon="8.1876795"><ele>146.4</ele><time>2026-05-03T09:39:59.85Z</time></trkpt><trkpt lat="40.7871949" lon="8.1875608"><ele>143.8</ele><time>2026-05-03T09:40:00.85Z</time></trkpt><trkpt lat="40.7872455" lon="8.1874486"><ele>141.2</ele><time>2026-05-03T09:40:01.849Z</time></trkpt><trkpt lat="40.7872971" lon="8.1873392"><ele>138.6</ele><time>2026-05-03T09:40:02.85Z</time></trkpt><trkpt lat="40.7873467" lon="8.1872309"><ele>136.0</ele><time>2026-05-03T09:40:03.849Z</time></trkpt><trkpt lat="40.7873915" lon="8.1871257"><ele>135.0</ele><time>2026-05-03T09:40:04.849Z</time></trkpt><trkpt lat="40.7874239" lon="8.1870177"><ele>134.0</ele><time>2026-05-03T09:40:05.849Z</time></trkpt><trkpt lat="40.7874439" lon="8.1869113"><ele>133.0</ele><time>2026-05-03T09:40:06.849Z</time></trkpt><trkpt lat="40.7874517" lon="8.1868043"><ele>132.0</ele><time>2026-05-03T09:40:07.85Z</time></trkpt><trkpt lat="40.787445" lon="8.186687"><ele>131.0</ele><time>2026-05-03T09:40:08.849Z</time></trkpt><trkpt lat="40.7874376" lon="8.1865698"><ele>130.0</ele><time>2026-05-03T09:40:09.849Z</time></trkpt><trkpt lat="40.7874393" lon="8.1864552"><ele>129.0</ele><time>2026-05-03T09:40:10.849Z</time></trkpt><trkpt lat="40.787442" lon="8.1863411"><ele>128.0</ele><time>2026-05-03T09:40:11.85Z</time></trkpt><trkpt lat="40.7874466" lon="8.1862246"><ele>127.0</ele><time>2026-05-03T09:40:12.85Z</time></trkpt><trkpt lat="40.787457" lon="8.1861044"><ele>126.0</ele><time>2026-05-03T09:40:13.848Z</time></trkpt><trkpt lat="40.7874719" lon="8.1859876"><ele>125.00000000000001</ele><time>2026-05-03T09:40:14.849Z</time></trkpt><trkpt lat="40.7874812" lon="8.1858799"><ele>124.0</ele><time>2026-05-03T09:40:15.85Z</time></trkpt><trkpt lat="40.7874767" lon="8.1857731"><ele>122.33333333333334</ele><time>2026-05-03T09:40:16.849Z</time></trkpt><trkpt lat="40.7874637" lon="8.1856697"><ele>120.66666666666667</ele><time>2026-05-03T09:40:17.849Z</time></trkpt><trkpt lat="40.787438" lon="8.1855711"><ele>119.0</ele><time>2026-05-03T09:40:18.85Z</time></trkpt><trkpt lat="40.7874012" lon="8.1854848"><ele>117.33333333333334</ele><time>2026-05-03T09:40:19.85Z</time></trkpt><trkpt lat="40.7873583" lon="8.1854233"><ele>115.66666666666667</ele><time>2026-05-03T09:40:20.849Z</time></trkpt><trkpt lat="40.7872965" lon="8.1853595"><ele>114.0</ele><time>2026-05-03T09:40:22.849Z</time></trkpt><trkpt lat="40.787219" lon="8.1853662"><ele>114.0</ele><time>2026-05-03T09:40:34.849Z</time></trkpt><trkpt lat="40.7871617" lon="8.1854043"><ele>114.0</ele><time>2026-05-03T09:40:35.849Z</time></trkpt><trkpt lat="40.7870949" lon="8.1854298"><ele>114.0</ele><time>2026-05-03T09:40:36.85Z</time></trkpt><trkpt lat="40.7870119" lon="8.185453"><ele>114.0</ele><time>2026-05-03T09:40:37.849Z</time></trkpt><trkpt lat="40.7869265" lon="8.1854834"><ele>114.0</ele><time>2026-05-03T09:40:38.848Z</time></trkpt><trkpt lat="40.7868289" lon="8.1855227"><ele>114.0</ele><time>2026-05-03T09:40:39.849Z</time></trkpt><trkpt lat="40.7867238" lon="8.1855592"><ele>114.25</ele><time>2026-05-03T09:40:40.85Z</time></trkpt><trkpt lat="40.7866072" lon="8.1856037"><ele>114.5</ele><time>2026-05-03T09:40:41.85Z</time></trkpt><trkpt lat="40.7864898" lon="8.1856422"><ele>114.75</ele><time>2026-05-03T09:40:42.849Z</time></trkpt><trkpt lat="40.7863831" lon="8.1856814"><ele>115.0</ele><time>2026-05-03T09:40:43.85Z</time></trkpt><trkpt lat="40.7862863" lon="8.185728"><ele>115.75</ele><time>2026-05-03T09:40:44.85Z</time></trkpt><trkpt lat="40.7861979" lon="8.1857986"><ele>116.5</ele><time>2026-05-03T09:40:45.849Z</time></trkpt><trkpt lat="40.7861073" lon="8.1858963"><ele>117.25</ele><time>2026-05-03T09:40:46.85Z</time></trkpt><trkpt lat="40.7860026" lon="8.1859853"><ele>118.0</ele><time>2026-05-03T09:40:47.85Z</time></trkpt><trkpt lat="40.7858847" lon="8.1860529"><ele>118.0</ele><time>2026-05-03T09:40:48.85Z</time></trkpt><trkpt lat="40.7857703" lon="8.1860927"><ele>118.00000000000001</ele><time>2026-05-03T09:40:49.85Z</time></trkpt><trkpt lat="40.7856704" lon="8.1861133"><ele>118.00000000000001</ele><time>2026-05-03T09:40:50.85Z</time></trkpt><trkpt lat="40.7855802" lon="8.1861311"><ele>118.0</ele><time>2026-05-03T09:40:51.85Z</time></trkpt><trkpt lat="40.7855078" lon="8.1861611"><ele>118.0</ele><time>2026-05-03T09:40:52.849Z</time></trkpt><trkpt lat="40.7854295" lon="8.1862149"><ele>118.0</ele><time>2026-05-03T09:40:54.85Z</time></trkpt><trkpt lat="40.78535" lon="8.1862043"><ele>118.00000000000001</ele><time>2026-05-03T09:41:06.848Z</time></trkpt><trkpt lat="40.7853093" lon="8.1860358"><ele>118.00000000000001</ele><time>2026-05-03T09:41:08.85Z</time></trkpt><trkpt lat="40.7852894" lon="8.1859074"><ele>118.0</ele><time>2026-05-03T09:41:09.85Z</time></trkpt><trkpt lat="40.7852623" lon="8.1857597"><ele>118.0</ele><time>2026-05-03T09:41:10.848Z</time></trkpt><trkpt lat="40.7852387" lon="8.1856053"><ele>118.0</ele><time>2026-05-03T09:41:11.85Z</time></trkpt><trkpt lat="40.7852236" lon="8.1854594"><ele>118.00000000000001</ele><time>2026-05-03T09:41:12.85Z</time></trkpt><trkpt lat="40.7852121" lon="8.1853197"><ele>118.00000000000001</ele><time>2026-05-03T09:41:13.849Z</time></trkpt><trkpt lat="40.7851995" lon="8.1851917"><ele>118.0</ele><time>2026-05-03T09:41:14.849Z</time></trkpt><trkpt lat="40.7851856" lon="8.1850699"><ele>118.0</ele><time>2026-05-03T09:41:15.85Z</time></trkpt><trkpt lat="40.7851655" lon="8.1849425"><ele>118.83333333333334</ele><time>2026-05-03T09:41:16.85Z</time></trkpt><trkpt lat="40.7851326" lon="8.1848186"><ele>119.66666666666667</ele><time>2026-05-03T09:41:17.85Z</time></trkpt><trkpt lat="40.7850921" lon="8.1847183"><ele>120.5</ele><time>2026-05-03T09:41:18.85Z</time></trkpt><trkpt lat="40.7850397" lon="8.1846391"><ele>121.33333333333334</ele><time>2026-05-03T09:41:19.85Z</time></trkpt><trkpt lat="40.7849686" lon="8.1845818"><ele>122.16666666666667</ele><time>2026-05-03T09:41:20.85Z</time></trkpt><trkpt lat="40.7848867" lon="8.1845489"><ele>123.0</ele><time>2026-05-03T09:41:21.85Z</time></trkpt><trkpt lat="40.7848011" lon="8.1845221"><ele>123.0</ele><time>2026-05-03T09:41:22.85Z</time></trkpt><trkpt lat="40.7847286" lon="8.1844863"><ele>123.0</ele><time>2026-05-03T09:41:23.85Z</time></trkpt><trkpt lat="40.7846698" lon="8.1844361"><ele>123.0</ele><time>2026-05-03T09:41:24.85Z</time></trkpt><trkpt lat="40.7846242" lon="8.1843641"><ele>123.0</ele><time>2026-05-03T09:41:25.85Z</time></trkpt><trkpt lat="40.7845921" lon="8.1842738"><ele>123.0</ele><time>2026-05-03T09:41:26.849Z</time></trkpt><trkpt lat="40.7845688" lon="8.1841675"><ele>123.0</ele><time>2026-05-03T09:41:27.85Z</time></trkpt><trkpt lat="40.7845575" lon="8.1840589"><ele>123.57142857142858</ele><time>2026-05-03T09:41:28.85Z</time></trkpt><trkpt lat="40.7845561" lon="8.1839489"><ele>124.14285714285714</ele><time>2026-05-03T09:41:29.849Z</time></trkpt><trkpt lat="40.7845447" lon="8.1838542"><ele>124.71428571428572</ele><time>2026-05-03T09:41:30.85Z</time></trkpt><trkpt lat="40.7845111" lon="8.1837836"><ele>125.28571428571429</ele><time>2026-05-03T09:41:31.85Z</time></trkpt><trkpt lat="40.7844596" lon="8.1837311"><ele>125.85714285714286</ele><time>2026-05-03T09:41:32.849Z</time></trkpt><trkpt lat="40.7843952" lon="8.1836946"><ele>126.42857142857143</ele><time>2026-05-03T09:41:33.849Z</time></trkpt><trkpt lat="40.7843227" lon="8.183662"><ele>127.0</ele><time>2026-05-03T09:41:34.85Z</time></trkpt><trkpt lat="40.7842376" lon="8.1836211"><ele>127.6</ele><time>2026-05-03T09:41:35.85Z</time></trkpt><trkpt lat="40.7841506" lon="8.1835686"><ele>128.2</ele><time>2026-05-03T09:41:36.85Z</time></trkpt><trkpt lat="40.7840649" lon="8.1835125"><ele>128.8</ele><time>2026-05-03T09:41:37.85Z</time></trkpt><trkpt lat="40.7839816" lon="8.1834577"><ele>129.4</ele><time>2026-05-03T09:41:38.85Z</time></trkpt><trkpt lat="40.7839019" lon="8.1834082"><ele>130.0</ele><time>2026-05-03T09:41:39.849Z</time></trkpt><trkpt lat="40.7838259" lon="8.1833596"><ele>130.0</ele><time>2026-05-03T09:41:40.848Z</time></trkpt><trkpt lat="40.7837532" lon="8.1833004"><ele>130.0</ele><time>2026-05-03T09:41:41.85Z</time></trkpt><trkpt lat="40.7836753" lon="8.1832266"><ele>130.0</ele><time>2026-05-03T09:41:42.85Z</time></trkpt><trkpt lat="40.7835984" lon="8.183137"><ele>130.0</ele><time>2026-05-03T09:41:43.849Z</time></trkpt><trkpt lat="40.7835411" lon="8.1830548"><ele>130.0</ele><time>2026-05-03T09:41:44.85Z</time></trkpt><trkpt lat="40.783428" lon="8.1829895"><ele>131.14285714285717</ele><time>2026-05-03T09:41:46.848Z</time></trkpt><trkpt lat="40.7833567" lon="8.1830168"><ele>132.28571428571428</ele><time>2026-05-03T09:41:47.85Z</time></trkpt><trkpt lat="40.7832924" lon="8.1830654"><ele>133.42857142857144</ele><time>2026-05-03T09:41:48.85Z</time></trkpt><trkpt lat="40.7832304" lon="8.1830983"><ele>134.57142857142858</ele><time>2026-05-03T09:41:49.85Z</time></trkpt><trkpt lat="40.7831621" lon="8.1831088"><ele>135.71428571428572</ele><time>2026-05-03T09:41:50.849Z</time></trkpt><trkpt lat="40.7830833" lon="8.1831089"><ele>136.85714285714286</ele><time>2026-05-03T09:41:51.849Z</time></trkpt><trkpt lat="40.7829999" lon="8.1830942"><ele>138.0</ele><time>2026-05-03T09:41:52.848Z</time></trkpt><trkpt lat="40.7829113" lon="8.1830742"><ele>138.0</ele><time>2026-05-03T09:41:53.849Z</time></trkpt><trkpt lat="40.7828192" lon="8.1830551"><ele>138.0</ele><time>2026-05-03T09:41:54.848Z</time></trkpt><trkpt lat="40.7827232" lon="8.1830446"><ele>138.0</ele><time>2026-05-03T09:41:55.848Z</time></trkpt><trkpt lat="40.782623" lon="8.1830355"><ele>138.0</ele><time>2026-05-03T09:41:56.849Z</time></trkpt><trkpt lat="40.782524" lon="8.1830283"><ele>138.0</ele><time>2026-05-03T09:41:57.848Z</time></trkpt><trkpt lat="40.7824289" lon="8.1830281"><ele>139.0</ele><time>2026-05-03T09:41:58.849Z</time></trkpt><trkpt lat="40.7823435" lon="8.1830224"><ele>140.0</ele><time>2026-05-03T09:41:59.848Z</time></trkpt><trkpt lat="40.7822673" lon="8.1830125"><ele>141.0</ele><time>2026-05-03T09:42:00.849Z</time></trkpt><trkpt lat="40.7821966" lon="8.1829921"><ele>142.0</ele><time>2026-05-03T09:42:01.849Z</time></trkpt><trkpt lat="40.7821235" lon="8.1829509"><ele>143.0</ele><time>2026-05-03T09:42:02.849Z</time></trkpt><trkpt lat="40.7820505" lon="8.1828995"><ele>144.0</ele><time>2026-05-03T09:42:03.849Z</time></trkpt><trkpt lat="40.7819684" lon="8.1828599"><ele>144.0</ele><time>2026-05-03T09:42:04.849Z</time></trkpt><trkpt lat="40.7818784" lon="8.1828311"><ele>144.0</ele><time>2026-05-03T09:42:05.848Z</time></trkpt><trkpt lat="40.7817847" lon="8.1828159"><ele>144.0</ele><time>2026-05-03T09:42:06.848Z</time></trkpt><trkpt lat="40.7816868" lon="8.1828102"><ele>144.0</ele><time>2026-05-03T09:42:07.849Z</time></trkpt><trkpt lat="40.7815863" lon="8.1827945"><ele>144.0</ele><time>2026-05-03T09:42:08.849Z</time></trkpt><trkpt lat="40.7814874" lon="8.1827681"><ele>144.6</ele><time>2026-05-03T09:42:09.848Z</time></trkpt><trkpt lat="40.7813869" lon="8.1827349"><ele>145.2</ele><time>2026-05-03T09:42:10.849Z</time></trkpt><trkpt lat="40.7812847" lon="8.1827008"><ele>145.79999999999998</ele><time>2026-05-03T09:42:11.849Z</time></trkpt><trkpt lat="40.7811793" lon="8.1826634"><ele>146.4</ele><time>2026-05-03T09:42:12.849Z</time></trkpt><trkpt lat="40.7810727" lon="8.1826309"><ele>147.0</ele><time>2026-05-03T09:42:13.849Z</time></trkpt><trkpt lat="40.7809659" lon="8.1826108"><ele>148.2</ele><time>2026-05-03T09:42:14.848Z</time></trkpt><trkpt lat="40.7808615" lon="8.1825933"><ele>149.39999999999998</ele><time>2026-05-03T09:42:15.849Z</time></trkpt><trkpt lat="40.7807617" lon="8.1825553"><ele>150.60000000000002</ele><time>2026-05-03T09:42:16.848Z</time></trkpt><trkpt lat="40.7806618" lon="8.1825277"><ele>151.8</ele><time>2026-05-03T09:42:17.848Z</time></trkpt><trkpt lat="40.7805567" lon="8.182521"><ele>153.0</ele><time>2026-05-03T09:42:18.849Z</time></trkpt><trkpt lat="40.7804544" lon="8.1825315"><ele>153.0</ele><time>2026-05-03T09:42:19.848Z</time></trkpt><trkpt lat="40.7803586" lon="8.1825793"><ele>153.0</ele><time>2026-05-03T09:42:20.849Z</time></trkpt><trkpt lat="40.7802672" lon="8.1826571"><ele>153.0</ele><time>2026-05-03T09:42:21.849Z</time></trkpt><trkpt lat="40.7801729" lon="8.1827462"><ele>153.0</ele><time>2026-05-03T09:42:22.848Z</time></trkpt><trkpt lat="40.7800775" lon="8.1828314"><ele>153.0</ele><time>2026-05-03T09:42:23.849Z</time></trkpt><trkpt lat="40.7799888" lon="8.1829163"><ele>154.0</ele><time>2026-05-03T09:42:24.849Z</time></trkpt><trkpt lat="40.7799251" lon="8.1830119"><ele>155.0</ele><time>2026-05-03T09:42:25.848Z</time></trkpt><trkpt lat="40.7798819" lon="8.1831338"><ele>156.0</ele><time>2026-05-03T09:42:26.848Z</time></trkpt><trkpt lat="40.779846" lon="8.1832759"><ele>157.0</ele><time>2026-05-03T09:42:27.848Z</time></trkpt><trkpt lat="40.7798018" lon="8.1834172"><ele>158.0</ele><time>2026-05-03T09:42:28.849Z</time></trkpt><trkpt lat="40.7797398" lon="8.1835389"><ele>159.60000000000002</ele><time>2026-05-03T09:42:29.848Z</time></trkpt><trkpt lat="40.7796795" lon="8.1836289"><ele>161.20000000000002</ele><time>2026-05-03T09:42:30.849Z</time></trkpt><trkpt lat="40.7796281" lon="8.1836945"><ele>162.8</ele><time>2026-05-03T09:42:31.849Z</time></trkpt><trkpt lat="40.7795119" lon="8.1837755"><ele>164.4</ele><time>2026-05-03T09:42:33.848Z</time></trkpt><trkpt lat="40.7794365" lon="8.1838099"><ele>166.0</ele><time>2026-05-03T09:42:34.849Z</time></trkpt><trkpt lat="40.7793486" lon="8.1838381"><ele>167.5</ele><time>2026-05-03T09:42:35.848Z</time></trkpt><trkpt lat="40.7792518" lon="8.1838558"><ele>169.0</ele><time>2026-05-03T09:42:36.849Z</time></trkpt><trkpt lat="40.7791695" lon="8.1838702"><ele>170.5</ele><time>2026-05-03T09:42:37.849Z</time></trkpt><trkpt lat="40.779105" lon="8.1838839"><ele>172.0</ele><time>2026-05-03T09:42:38.849Z</time></trkpt><trkpt lat="40.7790408" lon="8.1838981"><ele>173.5</ele><time>2026-05-03T09:42:40.849Z</time></trkpt><trkpt lat="40.7789954" lon="8.1840148"><ele>175.0</ele><time>2026-05-03T09:43:06.848Z</time></trkpt><trkpt lat="40.7789932" lon="8.1841026"><ele>175.0</ele><time>2026-05-03T09:43:07.849Z</time></trkpt><trkpt lat="40.7789646" lon="8.184198"><ele>175.0</ele><time>2026-05-03T09:43:08.849Z</time></trkpt><trkpt lat="40.7789075" lon="8.1842923"><ele>175.0</ele><time>2026-05-03T09:43:09.849Z</time></trkpt><trkpt lat="40.7788295" lon="8.1843698"><ele>175.0</ele><time>2026-05-03T09:43:10.849Z</time></trkpt><trkpt lat="40.7787412" lon="8.1844466"><ele>175.0</ele><time>2026-05-03T09:43:11.849Z</time></trkpt><trkpt lat="40.7786595" lon="8.1845218"><ele>175.0</ele><time>2026-05-03T09:43:12.848Z</time></trkpt><trkpt lat="40.7785743" lon="8.18459"><ele>175.0</ele><time>2026-05-03T09:43:13.849Z</time></trkpt><trkpt lat="40.7784829" lon="8.1846405"><ele>175.0</ele><time>2026-05-03T09:43:14.849Z</time></trkpt><trkpt lat="40.7783828" lon="8.1846798"><ele>175.0</ele><time>2026-05-03T09:43:15.849Z</time></trkpt><trkpt lat="40.7782795" lon="8.184716"><ele>175.0</ele><time>2026-05-03T09:43:16.849Z</time></trkpt><trkpt lat="40.7781732" lon="8.1847515"><ele>174.2</ele><time>2026-05-03T09:43:17.848Z</time></trkpt><trkpt lat="40.7780676" lon="8.1847922"><ele>173.4</ele><time>2026-05-03T09:43:18.848Z</time></trkpt><trkpt lat="40.7779676" lon="8.184839"><ele>172.60000000000002</ele><time>2026-05-03T09:43:19.849Z</time></trkpt><trkpt lat="40.7778748" lon="8.1848998"><ele>171.8</ele><time>2026-05-03T09:43:20.849Z</time></trkpt><trkpt lat="40.7777921" lon="8.1849745"><ele>171.0</ele><time>2026-05-03T09:43:21.849Z</time></trkpt><trkpt lat="40.777722" lon="8.1850652"><ele>172.0</ele><time>2026-05-03T09:43:22.849Z</time></trkpt><trkpt lat="40.7776597" lon="8.1851579"><ele>173.0</ele><time>2026-05-03T09:43:23.848Z</time></trkpt><trkpt lat="40.7776002" lon="8.1852513"><ele>174.0</ele><time>2026-05-03T09:43:24.849Z</time></trkpt><trkpt lat="40.7775424" lon="8.1853322"><ele>175.0</ele><time>2026-05-03T09:43:25.848Z</time></trkpt><trkpt lat="40.7774871" lon="8.1853995"><ele>176.0</ele><time>2026-05-03T09:43:26.848Z</time></trkpt><trkpt lat="40.7774303" lon="8.185453"><ele>177.0</ele><time>2026-05-03T09:43:27.849Z</time></trkpt><trkpt lat="40.7773677" lon="8.1855052"><ele>177.0</ele><time>2026-05-03T09:43:28.849Z</time></trkpt><trkpt lat="40.7772945" lon="8.1855558"><ele>177.0</ele><time>2026-05-03T09:43:29.849Z</time></trkpt><trkpt lat="40.7772116" lon="8.1856209"><ele>177.0</ele><time>2026-05-03T09:43:30.849Z</time></trkpt><trkpt lat="40.7771289" lon="8.1857027"><ele>177.0</ele><time>2026-05-03T09:43:31.849Z</time></trkpt><trkpt lat="40.7770452" lon="8.1858049"><ele>177.0</ele><time>2026-05-03T09:43:32.849Z</time></trkpt><trkpt lat="40.7769581" lon="8.1859155"><ele>175.75</ele><time>2026-05-03T09:43:33.848Z</time></trkpt><trkpt lat="40.7768639" lon="8.186028"><ele>174.5</ele><time>2026-05-03T09:43:34.849Z</time></trkpt><trkpt lat="40.7767621" lon="8.1861313"><ele>173.25</ele><time>2026-05-03T09:43:35.849Z</time></trkpt><trkpt lat="40.7766544" lon="8.1862383"><ele>172.0</ele><time>2026-05-03T09:43:36.849Z</time></trkpt><trkpt lat="40.7765434" lon="8.186348"><ele>171.75</ele><time>2026-05-03T09:43:37.849Z</time></trkpt><trkpt lat="40.7764305" lon="8.1864647"><ele>171.5</ele><time>2026-05-03T09:43:38.849Z</time></trkpt><trkpt lat="40.776316" lon="8.1865815"><ele>171.25</ele><time>2026-05-03T09:43:39.849Z</time></trkpt><trkpt lat="40.7762033" lon="8.186699"><ele>171.0</ele><time>2026-05-03T09:43:40.849Z</time></trkpt><trkpt lat="40.7760958" lon="8.1868203"><ele>169.75</ele><time>2026-05-03T09:43:41.848Z</time></trkpt><trkpt lat="40.7759908" lon="8.1869438"><ele>168.5</ele><time>2026-05-03T09:43:42.848Z</time></trkpt><trkpt lat="40.775889" lon="8.1870692"><ele>167.25</ele><time>2026-05-03T09:43:43.849Z</time></trkpt><trkpt lat="40.7757829" lon="8.1871928"><ele>166.0</ele><time>2026-05-03T09:43:44.848Z</time></trkpt><trkpt lat="40.775666" lon="8.1873161"><ele>165.25</ele><time>2026-05-03T09:43:45.849Z</time></trkpt><trkpt lat="40.7755431" lon="8.1874392"><ele>164.5</ele><time>2026-05-03T09:43:46.849Z</time></trkpt><trkpt lat="40.7754229" lon="8.1875582"><ele>163.75</ele><time>2026-05-03T09:43:47.848Z</time></trkpt><trkpt lat="40.7753067" lon="8.1876707"><ele>163.0</ele><time>2026-05-03T09:43:48.849Z</time></trkpt><trkpt lat="40.7751938" lon="8.1877823"><ele>162.5</ele><time>2026-05-03T09:43:49.849Z</time></trkpt><trkpt lat="40.775083" lon="8.1878914"><ele>162.0</ele><time>2026-05-03T09:43:50.848Z</time></trkpt><trkpt lat="40.7749698" lon="8.1879982"><ele>161.5</ele><time>2026-05-03T09:43:51.849Z</time></trkpt><trkpt lat="40.7748549" lon="8.1881123"><ele>161.0</ele><time>2026-05-03T09:43:52.849Z</time></trkpt><trkpt lat="40.7747467" lon="8.1882351"><ele>160.75</ele><time>2026-05-03T09:43:53.849Z</time></trkpt><trkpt lat="40.7746466" lon="8.1883588"><ele>160.5</ele><time>2026-05-03T09:43:54.849Z</time></trkpt><trkpt lat="40.7745445" lon="8.1884832"><ele>160.25</ele><time>2026-05-03T09:43:55.849Z</time></trkpt><trkpt lat="40.774443" lon="8.1886011"><ele>160.0</ele><time>2026-05-03T09:43:56.849Z</time></trkpt><trkpt lat="40.7743415" lon="8.1887157"><ele>158.25</ele><time>2026-05-03T09:43:57.849Z</time></trkpt><trkpt lat="40.774243" lon="8.1888321"><ele>156.5</ele><time>2026-05-03T09:43:58.848Z</time></trkpt><trkpt lat="40.7741435" lon="8.1889602"><ele>154.75</ele><time>2026-05-03T09:43:59.848Z</time></trkpt><trkpt lat="40.7740517" lon="8.1890894"><ele>153.0</ele><time>2026-05-03T09:44:00.849Z</time></trkpt><trkpt lat="40.7739708" lon="8.1892158"><ele>153.0</ele><time>2026-05-03T09:44:01.849Z</time></trkpt><trkpt lat="40.7738991" lon="8.189331"><ele>153.0</ele><time>2026-05-03T09:44:02.849Z</time></trkpt><trkpt lat="40.7738351" lon="8.1894337"><ele>153.0</ele><time>2026-05-03T09:44:03.849Z</time></trkpt><trkpt lat="40.7737798" lon="8.1895208"><ele>153.0</ele><time>2026-05-03T09:44:04.849Z</time></trkpt><trkpt lat="40.7737209" lon="8.1896029"><ele>153.0</ele><time>2026-05-03T09:44:05.849Z</time></trkpt><trkpt lat="40.7736677" lon="8.1896654"><ele>153.0</ele><time>2026-05-03T09:44:06.849Z</time></trkpt><trkpt lat="40.7735807" lon="8.1897349"><ele>153.0</ele><time>2026-05-03T09:44:08.849Z</time></trkpt><trkpt lat="40.773498" lon="8.1897596"><ele>153.0</ele><time>2026-05-03T09:44:11.849Z</time></trkpt><trkpt lat="40.7734074" lon="8.1897239"><ele>153.0</ele><time>2026-05-03T09:44:13.848Z</time></trkpt><trkpt lat="40.7733471" lon="8.1896867"><ele>153.0</ele><time>2026-05-03T09:44:14.849Z</time></trkpt><trkpt lat="40.7732713" lon="8.1896341"><ele>153.0</ele><time>2026-05-03T09:44:15.849Z</time></trkpt><trkpt lat="40.7731831" lon="8.1895702"><ele>151.5</ele><time>2026-05-03T09:44:16.848Z</time></trkpt><trkpt lat="40.7730793" lon="8.1895007"><ele>150.0</ele><time>2026-05-03T09:44:17.849Z</time></trkpt><trkpt lat="40.772968" lon="8.1894262"><ele>148.5</ele><time>2026-05-03T09:44:18.849Z</time></trkpt><trkpt lat="40.7728551" lon="8.1893554"><ele>147.0</ele><time>2026-05-03T09:44:19.848Z</time></trkpt><trkpt lat="40.772737" lon="8.1892963"><ele>148.25</ele><time>2026-05-03T09:44:20.849Z</time></trkpt><trkpt lat="40.7726076" lon="8.1892643"><ele>149.5</ele><time>2026-05-03T09:44:21.849Z</time></trkpt><trkpt lat="40.7724698" lon="8.1892475"><ele>150.75</ele><time>2026-05-03T09:44:22.849Z</time></trkpt><trkpt lat="40.7723224" lon="8.18924"><ele>152.0</ele><time>2026-05-03T09:44:23.848Z</time></trkpt><trkpt lat="40.7721712" lon="8.1892311"><ele>152.0</ele><time>2026-05-03T09:44:24.849Z</time></trkpt><trkpt lat="40.7720165" lon="8.1892211"><ele>152.0</ele><time>2026-05-03T09:44:25.849Z</time></trkpt><trkpt lat="40.7718617" lon="8.1892126"><ele>152.0</ele><time>2026-05-03T09:44:26.849Z</time></trkpt><trkpt lat="40.7717063" lon="8.1892073"><ele>153.66666666666666</ele><time>2026-05-03T09:44:27.848Z</time></trkpt><trkpt lat="40.7715558" lon="8.1892016"><ele>155.33333333333334</ele><time>2026-05-03T09:44:28.849Z</time></trkpt><trkpt lat="40.7714009" lon="8.1892023"><ele>157.0</ele><time>2026-05-03T09:44:29.848Z</time></trkpt><trkpt lat="40.7712465" lon="8.1892135"><ele>157.0</ele><time>2026-05-03T09:44:30.849Z</time></trkpt><trkpt lat="40.7710906" lon="8.1892418"><ele>157.0</ele><time>2026-05-03T09:44:31.849Z</time></trkpt><trkpt lat="40.7709299" lon="8.189298"><ele>157.0</ele><time>2026-05-03T09:44:32.849Z</time></trkpt><trkpt lat="40.7707688" lon="8.1893662"><ele>156.33333333333334</ele><time>2026-05-03T09:44:33.849Z</time></trkpt><trkpt lat="40.7706062" lon="8.1894455"><ele>155.66666666666666</ele><time>2026-05-03T09:44:34.848Z</time></trkpt><trkpt lat="40.7704413" lon="8.1895248"><ele>155.0</ele><time>2026-05-03T09:44:35.848Z</time></trkpt><trkpt lat="40.7702754" lon="8.1896037"><ele>154.66666666666666</ele><time>2026-05-03T09:44:36.849Z</time></trkpt><trkpt lat="40.7701082" lon="8.1896836"><ele>154.33333333333334</ele><time>2026-05-03T09:44:37.848Z</time></trkpt><trkpt lat="40.7699392" lon="8.189764"><ele>154.0</ele><time>2026-05-03T09:44:38.849Z</time></trkpt><trkpt lat="40.7697697" lon="8.1898462"><ele>154.0</ele><time>2026-05-03T09:44:39.847Z</time></trkpt><trkpt lat="40.7696012" lon="8.1899289"><ele>154.0</ele><time>2026-05-03T09:44:40.849Z</time></trkpt><trkpt lat="40.7694336" lon="8.1900103"><ele>154.0</ele><time>2026-05-03T09:44:41.849Z</time></trkpt><trkpt lat="40.7692653" lon="8.1900899"><ele>156.0</ele><time>2026-05-03T09:44:42.848Z</time></trkpt><trkpt lat="40.7690974" lon="8.1901631"><ele>158.0</ele><time>2026-05-03T09:44:43.849Z</time></trkpt><trkpt lat="40.7689299" lon="8.1902349"><ele>160.0</ele><time>2026-05-03T09:44:44.849Z</time></trkpt><trkpt lat="40.7687614" lon="8.1903057"><ele>160.0</ele><time>2026-05-03T09:44:45.848Z</time></trkpt><trkpt lat="40.7685904" lon="8.1903711"><ele>160.0</ele><time>2026-05-03T09:44:46.848Z</time></trkpt><trkpt lat="40.7684229" lon="8.1904307"><ele>160.0</ele><time>2026-05-03T09:44:47.849Z</time></trkpt><trkpt lat="40.768252" lon="8.190487"><ele>162.0</ele><time>2026-05-03T09:44:48.849Z</time></trkpt><trkpt lat="40.7680856" lon="8.190548"><ele>164.0</ele><time>2026-05-03T09:44:49.849Z</time></trkpt><trkpt lat="40.7679234" lon="8.1906178"><ele>166.0</ele><time>2026-05-03T09:44:50.848Z</time></trkpt><trkpt lat="40.7677717" lon="8.1907107"><ele>166.66666666666669</ele><time>2026-05-03T09:44:51.849Z</time></trkpt><trkpt lat="40.7676337" lon="8.1908358"><ele>167.33333333333334</ele><time>2026-05-03T09:44:52.849Z</time></trkpt><trkpt lat="40.7675106" lon="8.1909995"><ele>168.0</ele><time>2026-05-03T09:44:53.847Z</time></trkpt><trkpt lat="40.7674027" lon="8.1912"><ele>168.0</ele><time>2026-05-03T09:44:54.848Z</time></trkpt><trkpt lat="40.7672907" lon="8.1914321"><ele>168.0</ele><time>2026-05-03T09:44:55.849Z</time></trkpt><trkpt lat="40.7671704" lon="8.191679"><ele>168.0</ele><time>2026-05-03T09:44:56.848Z</time></trkpt><trkpt lat="40.7670422" lon="8.1919324"><ele>168.5</ele><time>2026-05-03T09:44:57.849Z</time></trkpt><trkpt lat="40.7669035" lon="8.1922075"><ele>169.0</ele><time>2026-05-03T09:44:58.849Z</time></trkpt><trkpt lat="40.7667672" lon="8.1924843"><ele>167.0</ele><time>2026-05-03T09:44:59.848Z</time></trkpt><trkpt lat="40.7666401" lon="8.1927416"><ele>165.0</ele><time>2026-05-03T09:45:00.848Z</time></trkpt><trkpt lat="40.7665252" lon="8.1929723"><ele>163.0</ele><time>2026-05-03T09:45:01.849Z</time></trkpt><trkpt lat="40.7664183" lon="8.1931899"><ele>159.33333333333334</ele><time>2026-05-03T09:45:02.848Z</time></trkpt><trkpt lat="40.7663244" lon="8.19338"><ele>155.66666666666666</ele><time>2026-05-03T09:45:03.849Z</time></trkpt><trkpt lat="40.7662426" lon="8.1935449"><ele>152.0</ele><time>2026-05-03T09:45:04.849Z</time></trkpt><trkpt lat="40.7661651" lon="8.1936917"><ele>152.0</ele><time>2026-05-03T09:45:05.848Z</time></trkpt><trkpt lat="40.7660925" lon="8.1938284"><ele>152.0</ele><time>2026-05-03T09:45:06.848Z</time></trkpt><trkpt lat="40.7660132" lon="8.1939669"><ele>152.0</ele><time>2026-05-03T09:45:07.848Z</time></trkpt><trkpt lat="40.7659074" lon="8.1941056"><ele>152.0</ele><time>2026-05-03T09:45:08.849Z</time></trkpt><trkpt lat="40.7657771" lon="8.1942411"><ele>149.0</ele><time>2026-05-03T09:45:09.848Z</time></trkpt><trkpt lat="40.765642" lon="8.1943739"><ele>146.0</ele><time>2026-05-03T09:45:10.848Z</time></trkpt><trkpt lat="40.7654997" lon="8.1945123"><ele>143.0</ele><time>2026-05-03T09:45:11.848Z</time></trkpt><trkpt lat="40.7653577" lon="8.1946532"><ele>143.0</ele><time>2026-05-03T09:45:12.849Z</time></trkpt><trkpt lat="40.7652174" lon="8.1947934"><ele>143.0</ele><time>2026-05-03T09:45:13.849Z</time></trkpt><trkpt lat="40.7650806" lon="8.1949299"><ele>143.0</ele><time>2026-05-03T09:45:14.848Z</time></trkpt><trkpt lat="40.7649485" lon="8.1950624"><ele>139.33333333333331</ele><time>2026-05-03T09:45:15.848Z</time></trkpt><trkpt lat="40.7648196" lon="8.1951902"><ele>135.66666666666666</ele><time>2026-05-03T09:45:16.849Z</time></trkpt><trkpt lat="40.7646953" lon="8.1953151"><ele>132.0</ele><time>2026-05-03T09:45:17.849Z</time></trkpt><trkpt lat="40.7645758" lon="8.1954348"><ele>132.0</ele><time>2026-05-03T09:45:18.848Z</time></trkpt><trkpt lat="40.7644576" lon="8.1955483"><ele>132.0</ele><time>2026-05-03T09:45:19.849Z</time></trkpt><trkpt lat="40.7643421" lon="8.1956672"><ele>132.0</ele><time>2026-05-03T09:45:20.848Z</time></trkpt><trkpt lat="40.7642217" lon="8.1957871"><ele>132.0</ele><time>2026-05-03T09:45:21.849Z</time></trkpt><trkpt lat="40.7641024" lon="8.1959036"><ele>130.0</ele><time>2026-05-03T09:45:22.849Z</time></trkpt><trkpt lat="40.763987" lon="8.1960137"><ele>128.0</ele><time>2026-05-03T09:45:23.848Z</time></trkpt><trkpt lat="40.7638778" lon="8.1961193"><ele>126.0</ele><time>2026-05-03T09:45:24.848Z</time></trkpt><trkpt lat="40.7637777" lon="8.1962174"><ele>124.0</ele><time>2026-05-03T09:45:25.848Z</time></trkpt><trkpt lat="40.763679" lon="8.196309"><ele>124.0</ele><time>2026-05-03T09:45:26.847Z</time></trkpt><trkpt lat="40.7635716" lon="8.1963892"><ele>124.0</ele><time>2026-05-03T09:45:27.849Z</time></trkpt><trkpt lat="40.7634489" lon="8.1964408"><ele>124.0</ele><time>2026-05-03T09:45:28.848Z</time></trkpt><trkpt lat="40.763318" lon="8.1964576"><ele>124.0</ele><time>2026-05-03T09:45:29.848Z</time></trkpt><trkpt lat="40.7631882" lon="8.1964614"><ele>123.5</ele><time>2026-05-03T09:45:30.847Z</time></trkpt><trkpt lat="40.763062" lon="8.1964758"><ele>123.0</ele><time>2026-05-03T09:45:31.848Z</time></trkpt><trkpt lat="40.7629397" lon="8.1964981"><ele>122.5</ele><time>2026-05-03T09:45:32.849Z</time></trkpt><trkpt lat="40.7628163" lon="8.1965325"><ele>122.0</ele><time>2026-05-03T09:45:33.849Z</time></trkpt><trkpt lat="40.7626946" lon="8.1965862"><ele>121.5</ele><time>2026-05-03T09:45:34.849Z</time></trkpt><trkpt lat="40.762574" lon="8.196665"><ele>121.0</ele><time>2026-05-03T09:45:35.849Z</time></trkpt><trkpt lat="40.7624568" lon="8.1967648"><ele>120.5</ele><time>2026-05-03T09:45:36.849Z</time></trkpt><trkpt lat="40.7623404" lon="8.1968784"><ele>120.0</ele><time>2026-05-03T09:45:37.849Z</time></trkpt><trkpt lat="40.7622228" lon="8.1969959"><ele>120.0</ele><time>2026-05-03T09:45:38.848Z</time></trkpt><trkpt lat="40.7621066" lon="8.1971134"><ele>120.0</ele><time>2026-05-03T09:45:39.848Z</time></trkpt><trkpt lat="40.7619894" lon="8.1972303"><ele>120.0</ele><time>2026-05-03T09:45:40.849Z</time></trkpt><trkpt lat="40.7618685" lon="8.1973508"><ele>120.0</ele><time>2026-05-03T09:45:41.849Z</time></trkpt><trkpt lat="40.7617535" lon="8.1974914"><ele>119.5</ele><time>2026-05-03T09:45:42.848Z</time></trkpt><trkpt lat="40.7616524" lon="8.1976323"><ele>119.0</ele><time>2026-05-03T09:45:43.849Z</time></trkpt><trkpt lat="40.7615666" lon="8.1977743"><ele>118.5</ele><time>2026-05-03T09:45:44.849Z</time></trkpt><trkpt lat="40.7614894" lon="8.1979163"><ele>118.0</ele><time>2026-05-03T09:45:45.848Z</time></trkpt><trkpt lat="40.7614142" lon="8.198062"><ele>117.5</ele><time>2026-05-03T09:45:46.849Z</time></trkpt><trkpt lat="40.7613439" lon="8.1981981"><ele>117.0</ele><time>2026-05-03T09:45:47.849Z</time></trkpt><trkpt lat="40.761279" lon="8.1983268"><ele>116.5</ele><time>2026-05-03T09:45:48.849Z</time></trkpt><trkpt lat="40.761216" lon="8.1984462"><ele>116.0</ele><time>2026-05-03T09:45:49.848Z</time></trkpt><trkpt lat="40.7611531" lon="8.1985658"><ele>116.0</ele><time>2026-05-03T09:45:50.848Z</time></trkpt><trkpt lat="40.7610825" lon="8.1986962"><ele>116.0</ele><time>2026-05-03T09:45:51.849Z</time></trkpt><trkpt lat="40.7610045" lon="8.1988445"><ele>116.0</ele><time>2026-05-03T09:45:52.849Z</time></trkpt><trkpt lat="40.7609257" lon="8.1989919"><ele>116.0</ele><time>2026-05-03T09:45:53.849Z</time></trkpt><trkpt lat="40.7608529" lon="8.1991316"><ele>115.25</ele><time>2026-05-03T09:45:54.849Z</time></trkpt><trkpt lat="40.7607828" lon="8.1992653"><ele>114.5</ele><time>2026-05-03T09:45:55.849Z</time></trkpt><trkpt lat="40.7607146" lon="8.1993952"><ele>113.75</ele><time>2026-05-03T09:45:56.849Z</time></trkpt><trkpt lat="40.7606433" lon="8.1995278"><ele>113.0</ele><time>2026-05-03T09:45:57.848Z</time></trkpt><trkpt lat="40.7605531" lon="8.1996513"><ele>113.0</ele><time>2026-05-03T09:45:58.849Z</time></trkpt><trkpt lat="40.7604479" lon="8.1997352"><ele>113.0</ele><time>2026-05-03T09:45:59.849Z</time></trkpt><trkpt lat="40.7603361" lon="8.1997678"><ele>113.0</ele><time>2026-05-03T09:46:00.849Z</time></trkpt><trkpt lat="40.760222" lon="8.1997501"><ele>113.0</ele><time>2026-05-03T09:46:01.849Z</time></trkpt><trkpt lat="40.760099" lon="8.1996857"><ele>112.0</ele><time>2026-05-03T09:46:02.847Z</time></trkpt><trkpt lat="40.7599679" lon="8.1995841"><ele>111.0</ele><time>2026-05-03T09:46:03.848Z</time></trkpt><trkpt lat="40.759832" lon="8.1994713"><ele>110.0</ele><time>2026-05-03T09:46:04.849Z</time></trkpt><trkpt lat="40.7597058" lon="8.1993697"><ele>110.0</ele><time>2026-05-03T09:46:05.848Z</time></trkpt><trkpt lat="40.7595837" lon="8.1992731"><ele>110.0</ele><time>2026-05-03T09:46:06.849Z</time></trkpt><trkpt lat="40.7594633" lon="8.1991709"><ele>110.0</ele><time>2026-05-03T09:46:07.849Z</time></trkpt><trkpt lat="40.7593431" lon="8.1990676"><ele>110.0</ele><time>2026-05-03T09:46:08.849Z</time></trkpt><trkpt lat="40.7592292" lon="8.198967"><ele>110.75</ele><time>2026-05-03T09:46:09.849Z</time></trkpt><trkpt lat="40.7591246" lon="8.1988748"><ele>111.5</ele><time>2026-05-03T09:46:10.849Z</time></trkpt><trkpt lat="40.7590241" lon="8.1987903"><ele>112.25</ele><time>2026-05-03T09:46:11.849Z</time></trkpt><trkpt lat="40.7589273" lon="8.1987112"><ele>113.0</ele><time>2026-05-03T09:46:12.849Z</time></trkpt><trkpt lat="40.7588396" lon="8.1986333"><ele>112.99999999999999</ele><time>2026-05-03T09:46:13.849Z</time></trkpt><trkpt lat="40.758766" lon="8.1985655"><ele>113.0</ele><time>2026-05-03T09:46:14.849Z</time></trkpt><trkpt lat="40.7587091" lon="8.1985095"><ele>113.0</ele><time>2026-05-03T09:46:15.849Z</time></trkpt><trkpt lat="40.7586459" lon="8.1984455"><ele>113.0</ele><time>2026-05-03T09:46:17.849Z</time></trkpt><trkpt lat="40.7586674" lon="8.198535"><ele>112.99999999999999</ele><time>2026-05-03T09:47:53.847Z</time></trkpt><trkpt lat="40.75878" lon="8.1986049"><ele>113.0</ele><time>2026-05-03T09:47:55.848Z</time></trkpt><trkpt lat="40.7588431" lon="8.1986601"><ele>113.0</ele><time>2026-05-03T09:47:56.848Z</time></trkpt><trkpt lat="40.7589117" lon="8.1987233"><ele>113.00000000000001</ele><time>2026-05-03T09:47:57.848Z</time></trkpt><trkpt lat="40.7589893" lon="8.1987895"><ele>113.00000000000001</ele><time>2026-05-03T09:47:58.848Z</time></trkpt><trkpt lat="40.7590741" lon="8.1988587"><ele>113.0</ele><time>2026-05-03T09:47:59.848Z</time></trkpt><trkpt lat="40.7591649" lon="8.1989311"><ele>113.0</ele><time>2026-05-03T09:48:00.848Z</time></trkpt><trkpt lat="40.7592607" lon="8.1990097"><ele>112.4</ele><time>2026-05-03T09:48:01.848Z</time></trkpt><trkpt lat="40.7593585" lon="8.199094"><ele>111.80000000000001</ele><time>2026-05-03T09:48:02.848Z</time></trkpt><trkpt lat="40.7594505" lon="8.1991707"><ele>111.2</ele><time>2026-05-03T09:48:03.847Z</time></trkpt><trkpt lat="40.7595327" lon="8.1992318"><ele>110.6</ele><time>2026-05-03T09:48:04.847Z</time></trkpt><trkpt lat="40.7596075" lon="8.1992941"><ele>110.0</ele><time>2026-05-03T09:48:05.848Z</time></trkpt><trkpt lat="40.7596833" lon="8.1993663"><ele>110.0</ele><time>2026-05-03T09:48:06.848Z</time></trkpt><trkpt lat="40.759766" lon="8.1994404"><ele>110.0</ele><time>2026-05-03T09:48:07.847Z</time></trkpt><trkpt lat="40.7598607" lon="8.199512"><ele>110.0</ele><time>2026-05-03T09:48:08.848Z</time></trkpt><trkpt lat="40.7599566" lon="8.1995896"><ele>110.0</ele><time>2026-05-03T09:48:09.847Z</time></trkpt><trkpt lat="40.7600497" lon="8.1996694"><ele>110.0</ele><time>2026-05-03T09:48:10.848Z</time></trkpt><trkpt lat="40.7601337" lon="8.1997419"><ele>110.6</ele><time>2026-05-03T09:48:11.848Z</time></trkpt><trkpt lat="40.7602225" lon="8.199796"><ele>111.2</ele><time>2026-05-03T09:48:12.848Z</time></trkpt><trkpt lat="40.7603234" lon="8.1998235"><ele>111.80000000000001</ele><time>2026-05-03T09:48:13.848Z</time></trkpt><trkpt lat="40.7604259" lon="8.1997946"><ele>112.4</ele><time>2026-05-03T09:48:14.848Z</time></trkpt><trkpt lat="40.7605281" lon="8.1997106"><ele>113.0</ele><time>2026-05-03T09:48:15.847Z</time></trkpt><trkpt lat="40.7606277" lon="8.1995708"><ele>113.0</ele><time>2026-05-03T09:48:16.848Z</time></trkpt><trkpt lat="40.7607299" lon="8.1993769"><ele>113.0</ele><time>2026-05-03T09:48:17.848Z</time></trkpt><trkpt lat="40.7608383" lon="8.1991682"><ele>113.0</ele><time>2026-05-03T09:48:18.847Z</time></trkpt><trkpt lat="40.7609482" lon="8.1989664"><ele>114.0</ele><time>2026-05-03T09:48:19.847Z</time></trkpt><trkpt lat="40.7610551" lon="8.1987665"><ele>115.0</ele><time>2026-05-03T09:48:20.848Z</time></trkpt><trkpt lat="40.7611541" lon="8.1985771"><ele>116.0</ele><time>2026-05-03T09:48:21.847Z</time></trkpt><trkpt lat="40.7612457" lon="8.1984068"><ele>116.0</ele><time>2026-05-03T09:48:22.848Z</time></trkpt><trkpt lat="40.7613319" lon="8.1982487"><ele>116.0</ele><time>2026-05-03T09:48:23.848Z</time></trkpt><trkpt lat="40.761412" lon="8.198102"><ele>116.0</ele><time>2026-05-03T09:48:24.848Z</time></trkpt><trkpt lat="40.7614945" lon="8.1979533"><ele>116.0</ele><time>2026-05-03T09:48:25.848Z</time></trkpt><trkpt lat="40.7615827" lon="8.1977925"><ele>116.66666666666666</ele><time>2026-05-03T09:48:26.848Z</time></trkpt><trkpt lat="40.7616903" lon="8.197615"><ele>117.33333333333334</ele><time>2026-05-03T09:48:27.848Z</time></trkpt><trkpt lat="40.7618241" lon="8.1974417"><ele>118.0</ele><time>2026-05-03T09:48:28.847Z</time></trkpt><trkpt lat="40.7619683" lon="8.1972832"><ele>118.66666666666667</ele><time>2026-05-03T09:48:29.847Z</time></trkpt><trkpt lat="40.762104" lon="8.1971458"><ele>119.33333333333334</ele><time>2026-05-03T09:48:30.848Z</time></trkpt><trkpt lat="40.7622406" lon="8.1970115"><ele>120.0</ele><time>2026-05-03T09:48:31.848Z</time></trkpt><trkpt lat="40.7623642" lon="8.1968831"><ele>120.0</ele><time>2026-05-03T09:48:32.847Z</time></trkpt><trkpt lat="40.7624811" lon="8.1967693"><ele>120.0</ele><time>2026-05-03T09:48:33.848Z</time></trkpt><trkpt lat="40.7626005" lon="8.196669"><ele>120.0</ele><time>2026-05-03T09:48:34.848Z</time></trkpt><trkpt lat="40.7627267" lon="8.1965886"><ele>120.0</ele><time>2026-05-03T09:48:35.846Z</time></trkpt><trkpt lat="40.7628616" lon="8.1965342"><ele>120.5</ele><time>2026-05-03T09:48:36.847Z</time></trkpt><trkpt lat="40.7630082" lon="8.1964988"><ele>121.0</ele><time>2026-05-03T09:48:37.847Z</time></trkpt><trkpt lat="40.76316" lon="8.1964786"><ele>121.5</ele><time>2026-05-03T09:48:38.848Z</time></trkpt><trkpt lat="40.7633053" lon="8.196473"><ele>122.0</ele><time>2026-05-03T09:48:39.847Z</time></trkpt><trkpt lat="40.7634424" lon="8.1964583"><ele>122.66666666666666</ele><time>2026-05-03T09:48:40.846Z</time></trkpt><trkpt lat="40.7635805" lon="8.1963991"><ele>123.33333333333334</ele><time>2026-05-03T09:48:41.848Z</time></trkpt><trkpt lat="40.7637236" lon="8.196288"><ele>124.0</ele><time>2026-05-03T09:48:42.848Z</time></trkpt><trkpt lat="40.7638746" lon="8.1961402"><ele>124.0</ele><time>2026-05-03T09:48:43.847Z</time></trkpt><trkpt lat="40.764012" lon="8.1960045"><ele>124.0</ele><time>2026-05-03T09:48:44.846Z</time></trkpt><trkpt lat="40.7641396" lon="8.1958882"><ele>124.0</ele><time>2026-05-03T09:48:45.848Z</time></trkpt><trkpt lat="40.7642455" lon="8.1957886"><ele>124.0</ele><time>2026-05-03T09:48:46.848Z</time></trkpt><trkpt lat="40.764331" lon="8.1957052"><ele>124.0</ele><time>2026-05-03T09:48:47.848Z</time></trkpt><trkpt lat="40.7643961" lon="8.1956466"><ele>124.0</ele><time>2026-05-03T09:48:48.847Z</time></trkpt><trkpt lat="40.7644792" lon="8.1955705"><ele>124.0</ele><time>2026-05-03T09:48:50.848Z</time></trkpt><trkpt lat="40.7643816" lon="8.1956"><ele>124.0</ele><time>2026-05-03T09:49:00.846Z</time></trkpt><trkpt lat="40.7643124" lon="8.1956766"><ele>124.0</ele><time>2026-05-03T09:49:01.848Z</time></trkpt><trkpt lat="40.7642" lon="8.1957902"><ele>124.0</ele><time>2026-05-03T09:49:02.848Z</time></trkpt><trkpt lat="40.7640748" lon="8.195916"><ele>124.0</ele><time>2026-05-03T09:49:03.847Z</time></trkpt><trkpt lat="40.7639389" lon="8.1960573"><ele>124.0</ele><time>2026-05-03T09:49:04.848Z</time></trkpt><trkpt lat="40.7638126" lon="8.1961825"><ele>124.0</ele><time>2026-05-03T09:49:05.848Z</time></trkpt><trkpt lat="40.7636838" lon="8.1963016"><ele>124.0</ele><time>2026-05-03T09:49:06.846Z</time></trkpt><trkpt lat="40.7635502" lon="8.1963911"><ele>123.33333333333334</ele><time>2026-05-03T09:49:07.847Z</time></trkpt><trkpt lat="40.7633893" lon="8.1964393"><ele>122.66666666666666</ele><time>2026-05-03T09:49:08.847Z</time></trkpt><trkpt lat="40.7632142" lon="8.1964524"><ele>122.0</ele><time>2026-05-03T09:49:09.848Z</time></trkpt><trkpt lat="40.7630365" lon="8.1964705"><ele>121.33333333333333</ele><time>2026-05-03T09:49:10.848Z</time></trkpt><trkpt lat="40.7628612" lon="8.1965055"><ele>120.66666666666666</ele><time>2026-05-03T09:49:11.848Z</time></trkpt><trkpt lat="40.7626827" lon="8.1965839"><ele>120.0</ele><time>2026-05-03T09:49:12.846Z</time></trkpt><trkpt lat="40.7625064" lon="8.1967156"><ele>120.0</ele><time>2026-05-03T09:49:13.847Z</time></trkpt><trkpt lat="40.7623196" lon="8.1968902"><ele>120.0</ele><time>2026-05-03T09:49:14.847Z</time></trkpt><trkpt lat="40.7621308" lon="8.1970771"><ele>120.0</ele><time>2026-05-03T09:49:15.848Z</time></trkpt><trkpt lat="40.7619656" lon="8.1972462"><ele>120.0</ele><time>2026-05-03T09:49:16.848Z</time></trkpt><trkpt lat="40.7618171" lon="8.1974122"><ele>120.0</ele><time>2026-05-03T09:49:17.847Z</time></trkpt><trkpt lat="40.7616719" lon="8.1976134"><ele>119.0</ele><time>2026-05-03T09:49:18.848Z</time></trkpt><trkpt lat="40.7615278" lon="8.1978525"><ele>118.0</ele><time>2026-05-03T09:49:19.848Z</time></trkpt><trkpt lat="40.7613894" lon="8.1981159"><ele>117.33333333333334</ele><time>2026-05-03T09:49:20.848Z</time></trkpt><trkpt lat="40.7612607" lon="8.1983596"><ele>116.66666666666666</ele><time>2026-05-03T09:49:21.847Z</time></trkpt><trkpt lat="40.7611351" lon="8.1985943"><ele>116.0</ele><time>2026-05-03T09:49:22.848Z</time></trkpt><trkpt lat="40.7610157" lon="8.1988191"><ele>115.0</ele><time>2026-05-03T09:49:23.847Z</time></trkpt><trkpt lat="40.7609027" lon="8.1990331"><ele>114.0</ele><time>2026-05-03T09:49:24.847Z</time></trkpt><trkpt lat="40.7608037" lon="8.1992214"><ele>113.0</ele><time>2026-05-03T09:49:25.847Z</time></trkpt><trkpt lat="40.7607128" lon="8.1993996"><ele>113.0</ele><time>2026-05-03T09:49:26.847Z</time></trkpt><trkpt lat="40.7606167" lon="8.1995605"><ele>113.0</ele><time>2026-05-03T09:49:27.848Z</time></trkpt><trkpt lat="40.7605091" lon="8.1996756"><ele>113.0</ele><time>2026-05-03T09:49:28.848Z</time></trkpt><trkpt lat="40.7603925" lon="8.1997417"><ele>113.0</ele><time>2026-05-03T09:49:29.848Z</time></trkpt><trkpt lat="40.7602723" lon="8.1997668"><ele>112.0</ele><time>2026-05-03T09:49:30.847Z</time></trkpt><trkpt lat="40.7601433" lon="8.1996917"><ele>111.0</ele><time>2026-05-03T09:49:31.846Z</time></trkpt><trkpt lat="40.759996" lon="8.1995959"><ele>110.0</ele><time>2026-05-03T09:49:32.848Z</time></trkpt><trkpt lat="40.759832" lon="8.199456"><ele>110.0</ele><time>2026-05-03T09:49:33.848Z</time></trkpt><trkpt lat="40.7596456" lon="8.1992968"><ele>110.0</ele><time>2026-05-03T09:49:34.847Z</time></trkpt><trkpt lat="40.7594431" lon="8.1991312"><ele>111.5</ele><time>2026-05-03T09:49:35.846Z</time></trkpt><trkpt lat="40.7592223" lon="8.1989525"><ele>113.0</ele><time>2026-05-03T09:49:36.848Z</time></trkpt><trkpt lat="40.75899" lon="8.1987558"><ele>113.0</ele><time>2026-05-03T09:49:37.848Z</time></trkpt><trkpt lat="40.7587391" lon="8.1985445"><ele>113.0</ele><time>2026-05-03T09:49:38.847Z</time></trkpt><trkpt lat="40.7584739" lon="8.1983233"><ele>114.0</ele><time>2026-05-03T09:49:39.846Z</time></trkpt><trkpt lat="40.7581965" lon="8.1980919"><ele>115.0</ele><time>2026-05-03T09:49:40.848Z</time></trkpt><trkpt lat="40.7579105" lon="8.1978553"><ele>115.5</ele><time>2026-05-03T09:49:41.848Z</time></trkpt><trkpt lat="40.757642" lon="8.1976337"><ele>116.0</ele><time>2026-05-03T09:49:42.848Z</time></trkpt><trkpt lat="40.7573956" lon="8.1974263"><ele>116.5</ele><time>2026-05-03T09:49:43.847Z</time></trkpt><trkpt lat="40.7571709" lon="8.1972385"><ele>117.0</ele><time>2026-05-03T09:49:44.848Z</time></trkpt><trkpt lat="40.7569645" lon="8.1970637"><ele>118.0</ele><time>2026-05-03T09:49:45.847Z</time></trkpt><trkpt lat="40.7567761" lon="8.196904"><ele>119.0</ele><time>2026-05-03T09:49:46.848Z</time></trkpt><trkpt lat="40.7566042" lon="8.1967565"><ele>120.0</ele><time>2026-05-03T09:49:47.848Z</time></trkpt><trkpt lat="40.7564453" lon="8.1966085"><ele>120.33333333333334</ele><time>2026-05-03T09:49:48.848Z</time></trkpt><trkpt lat="40.7562946" lon="8.1964523"><ele>120.66666666666667</ele><time>2026-05-03T09:49:49.847Z</time></trkpt><trkpt lat="40.7561518" lon="8.1962888"><ele>121.0</ele><time>2026-05-03T09:49:50.848Z</time></trkpt><trkpt lat="40.7560109" lon="8.1961254"><ele>121.0</ele><time>2026-05-03T09:49:51.847Z</time></trkpt><trkpt lat="40.7558784" lon="8.1959743"><ele>121.0</ele><time>2026-05-03T09:49:52.847Z</time></trkpt><trkpt lat="40.7557517" lon="8.1958261"><ele>121.0</ele><time>2026-05-03T09:49:53.848Z</time></trkpt><trkpt lat="40.7556261" lon="8.195679"><ele>121.66666666666667</ele><time>2026-05-03T09:49:54.847Z</time></trkpt><trkpt lat="40.7555013" lon="8.1955303"><ele>122.33333333333334</ele><time>2026-05-03T09:49:55.848Z</time></trkpt><trkpt lat="40.755376" lon="8.1953815"><ele>123.0</ele><time>2026-05-03T09:49:56.848Z</time></trkpt><trkpt lat="40.7552496" lon="8.1952339"><ele>123.33333333333334</ele><time>2026-05-03T09:49:57.847Z</time></trkpt><trkpt lat="40.7551237" lon="8.1950855"><ele>123.66666666666667</ele><time>2026-05-03T09:49:58.847Z</time></trkpt><trkpt lat="40.754996" lon="8.1949351"><ele>124.0</ele><time>2026-05-03T09:49:59.848Z</time></trkpt><trkpt lat="40.7548673" lon="8.1947785"><ele>124.66666666666667</ele><time>2026-05-03T09:50:00.848Z</time></trkpt><trkpt lat="40.7547331" lon="8.1946153"><ele>125.33333333333334</ele><time>2026-05-03T09:50:01.847Z</time></trkpt><trkpt lat="40.754595" lon="8.1944494"><ele>126.0</ele><time>2026-05-03T09:50:02.848Z</time></trkpt><trkpt lat="40.7544564" lon="8.1942871"><ele>127.33333333333334</ele><time>2026-05-03T09:50:03.848Z</time></trkpt><trkpt lat="40.7543203" lon="8.1941233"><ele>128.66666666666669</ele><time>2026-05-03T09:50:04.848Z</time></trkpt><trkpt lat="40.7541857" lon="8.1939618"><ele>130.0</ele><time>2026-05-03T09:50:05.848Z</time></trkpt><trkpt lat="40.754055" lon="8.1938093"><ele>130.25</ele><time>2026-05-03T09:50:06.848Z</time></trkpt><trkpt lat="40.7539368" lon="8.1936742"><ele>130.5</ele><time>2026-05-03T09:50:07.848Z</time></trkpt><trkpt lat="40.7538308" lon="8.1935617"><ele>130.75</ele><time>2026-05-03T09:50:08.847Z</time></trkpt><trkpt lat="40.7537351" lon="8.1934636"><ele>131.0</ele><time>2026-05-03T09:50:09.848Z</time></trkpt><trkpt lat="40.7536491" lon="8.1933784"><ele>131.0</ele><time>2026-05-03T09:50:10.848Z</time></trkpt><trkpt lat="40.7535653" lon="8.1932958"><ele>131.0</ele><time>2026-05-03T09:50:11.847Z</time></trkpt><trkpt lat="40.75348" lon="8.1932091"><ele>131.0</ele><time>2026-05-03T09:50:12.847Z</time></trkpt><trkpt lat="40.75339" lon="8.1931205"><ele>131.0</ele><time>2026-05-03T09:50:13.848Z</time></trkpt><trkpt lat="40.753307" lon="8.1930411"><ele>131.0</ele><time>2026-05-03T09:50:14.848Z</time></trkpt><trkpt lat="40.7532409" lon="8.1929778"><ele>131.66666666666666</ele><time>2026-05-03T09:50:15.848Z</time></trkpt><trkpt lat="40.7531869" lon="8.1929277"><ele>132.33333333333331</ele><time>2026-05-03T09:50:16.848Z</time></trkpt><trkpt lat="40.7531268" lon="8.1928681"><ele>133.0</ele><time>2026-05-03T09:50:18.847Z</time></trkpt><trkpt lat="40.7531144" lon="8.192732"><ele>133.66666666666666</ele><time>2026-05-03T09:50:21.848Z</time></trkpt><trkpt lat="40.7531354" lon="8.1925948"><ele>134.33333333333334</ele><time>2026-05-03T09:50:23.848Z</time></trkpt><trkpt lat="40.7531593" lon="8.1925015"><ele>135.0</ele><time>2026-05-03T09:50:24.848Z</time></trkpt><trkpt lat="40.7531936" lon="8.1923862"><ele>135.2</ele><time>2026-05-03T09:50:25.848Z</time></trkpt><trkpt lat="40.7532338" lon="8.1922437"><ele>135.4</ele><time>2026-05-03T09:50:26.848Z</time></trkpt><trkpt lat="40.7532715" lon="8.192091"><ele>135.6</ele><time>2026-05-03T09:50:27.847Z</time></trkpt><trkpt lat="40.7533019" lon="8.191957"><ele>135.8</ele><time>2026-05-03T09:50:28.848Z</time></trkpt><trkpt lat="40.7533311" lon="8.1918426"><ele>136.0</ele><time>2026-05-03T09:50:29.848Z</time></trkpt><trkpt lat="40.7533576" lon="8.1917362"><ele>136.0</ele><time>2026-05-03T09:50:30.847Z</time></trkpt><trkpt lat="40.7533863" lon="8.1916224"><ele>136.0</ele><time>2026-05-03T09:50:31.848Z</time></trkpt><trkpt lat="40.7534168" lon="8.1914953"><ele>136.0</ele><time>2026-05-03T09:50:32.848Z</time></trkpt><trkpt lat="40.7534514" lon="8.1913607"><ele>136.0</ele><time>2026-05-03T09:50:33.848Z</time></trkpt><trkpt lat="40.7534875" lon="8.1912407"><ele>136.0</ele><time>2026-05-03T09:50:34.848Z</time></trkpt><trkpt lat="40.753527" lon="8.1911298"><ele>136.0</ele><time>2026-05-03T09:50:35.848Z</time></trkpt><trkpt lat="40.7535645" lon="8.1910182"><ele>136.0</ele><time>2026-05-03T09:50:36.848Z</time></trkpt><trkpt lat="40.7535963" lon="8.1909063"><ele>136.0</ele><time>2026-05-03T09:50:37.848Z</time></trkpt><trkpt lat="40.753626" lon="8.1908079"><ele>136.0</ele><time>2026-05-03T09:50:38.848Z</time></trkpt><trkpt lat="40.7536546" lon="8.1907021"><ele>136.0</ele><time>2026-05-03T09:50:39.848Z</time></trkpt><trkpt lat="40.7536788" lon="8.1906035"><ele>136.0</ele><time>2026-05-03T09:50:40.847Z</time></trkpt><trkpt lat="40.7537031" lon="8.1904984"><ele>136.0</ele><time>2026-05-03T09:50:41.847Z</time></trkpt><trkpt lat="40.7537252" lon="8.1903902"><ele>136.0</ele><time>2026-05-03T09:50:42.847Z</time></trkpt><trkpt lat="40.7537415" lon="8.1902707"><ele>136.0</ele><time>2026-05-03T09:50:43.847Z</time></trkpt><trkpt lat="40.7537507" lon="8.1901407"><ele>136.0</ele><time>2026-05-03T09:50:44.848Z</time></trkpt><trkpt lat="40.7537683" lon="8.1899962"><ele>136.0</ele><time>2026-05-03T09:50:45.848Z</time></trkpt><trkpt lat="40.7537977" lon="8.1898546"><ele>136.4</ele><time>2026-05-03T09:50:46.847Z</time></trkpt><trkpt lat="40.7538349" lon="8.1897272"><ele>136.8</ele><time>2026-05-03T09:50:47.848Z</time></trkpt><trkpt lat="40.7538677" lon="8.1896057"><ele>137.20000000000002</ele><time>2026-05-03T09:50:48.848Z</time></trkpt><trkpt lat="40.7539055" lon="8.1894819"><ele>137.6</ele><time>2026-05-03T09:50:49.848Z</time></trkpt><trkpt lat="40.7539397" lon="8.18936"><ele>138.0</ele><time>2026-05-03T09:50:50.848Z</time></trkpt><trkpt lat="40.7539654" lon="8.1892454"><ele>138.0</ele><time>2026-05-03T09:50:51.848Z</time></trkpt><trkpt lat="40.7539985" lon="8.189114"><ele>138.0</ele><time>2026-05-03T09:50:52.848Z</time></trkpt><trkpt lat="40.7540427" lon="8.1889845"><ele>138.0</ele><time>2026-05-03T09:50:53.848Z</time></trkpt><trkpt lat="40.7540982" lon="8.1888676"><ele>138.0</ele><time>2026-05-03T09:50:54.847Z</time></trkpt><trkpt lat="40.7541571" lon="8.1887432"><ele>138.0</ele><time>2026-05-03T09:50:55.848Z</time></trkpt><trkpt lat="40.7542052" lon="8.1886296"><ele>138.6</ele><time>2026-05-03T09:50:56.847Z</time></trkpt><trkpt lat="40.7542506" lon="8.1885094"><ele>139.20000000000002</ele><time>2026-05-03T09:50:57.847Z</time></trkpt><trkpt lat="40.7543004" lon="8.1883879"><ele>139.8</ele><time>2026-05-03T09:50:58.848Z</time></trkpt><trkpt lat="40.7543481" lon="8.1882909"><ele>140.4</ele><time>2026-05-03T09:50:59.847Z</time></trkpt><trkpt lat="40.7544017" lon="8.1881757"><ele>141.0</ele><time>2026-05-03T09:51:01.848Z</time></trkpt><trkpt lat="40.7544396" lon="8.1881022"><ele>141.0</ele><time>2026-05-03T09:51:16.847Z</time></trkpt><trkpt lat="40.7544853" lon="8.187993"><ele>141.0</ele><time>2026-05-03T09:51:18.847Z</time></trkpt><trkpt lat="40.7545154" lon="8.1878735"><ele>141.0</ele><time>2026-05-03T09:51:20.847Z</time></trkpt><trkpt lat="40.7545293" lon="8.1877777"><ele>141.0</ele><time>2026-05-03T09:51:22.848Z</time></trkpt><trkpt lat="40.7545245" lon="8.1876769"><ele>141.0</ele><time>2026-05-03T09:51:26.848Z</time></trkpt><trkpt lat="40.7545054" lon="8.1875968"><ele>141.0</ele><time>2026-05-03T09:51:30.848Z</time></trkpt><trkpt lat="40.7544712" lon="8.1875124"><ele>141.0</ele><time>2026-05-03T09:51:33.847Z</time></trkpt><trkpt lat="40.7544165" lon="8.1873794"><ele>141.0</ele><time>2026-05-03T09:51:35.848Z</time></trkpt><trkpt lat="40.7543705" lon="8.1872363"><ele>141.0</ele><time>2026-05-03T09:51:37.847Z</time></trkpt><trkpt lat="40.7543325" lon="8.1870927"><ele>141.0</ele><time>2026-05-03T09:51:39.847Z</time></trkpt><trkpt lat="40.7543288" lon="8.1869721"><ele>141.0</ele><time>2026-05-03T09:51:41.848Z</time></trkpt><trkpt lat="40.7543504" lon="8.1868219"><ele>142.0</ele><time>2026-05-03T09:51:43.847Z</time></trkpt><trkpt lat="40.7543682" lon="8.1867344"><ele>143.0</ele><time>2026-05-03T09:51:44.847Z</time></trkpt><trkpt lat="40.7543903" lon="8.186647"><ele>144.0</ele><time>2026-05-03T09:51:45.848Z</time></trkpt><trkpt lat="40.7544083" lon="8.1865648"><ele>145.0</ele><time>2026-05-03T09:51:46.847Z</time></trkpt><trkpt lat="40.7544415" lon="8.18641"><ele>146.0</ele><time>2026-05-03T09:51:48.848Z</time></trkpt><trkpt lat="40.7544598" lon="8.1863288"><ele>147.0</ele><time>2026-05-03T09:51:49.847Z</time></trkpt><trkpt lat="40.7544775" lon="8.1862393"><ele>148.0</ele><time>2026-05-03T09:51:50.848Z</time></trkpt><trkpt lat="40.7544967" lon="8.1861344"><ele>149.0</ele><time>2026-05-03T09:51:51.848Z</time></trkpt><trkpt lat="40.7545188" lon="8.1860229"><ele>150.0</ele><time>2026-05-03T09:51:52.848Z</time></trkpt><trkpt lat="40.7545429" lon="8.1859112"><ele>151.0</ele><time>2026-05-03T09:51:53.848Z</time></trkpt><trkpt lat="40.7545646" lon="8.1858044"><ele>152.0</ele><time>2026-05-03T09:51:54.848Z</time></trkpt><trkpt lat="40.754584" lon="8.185711"><ele>153.0</ele><time>2026-05-03T09:51:55.848Z</time></trkpt><trkpt lat="40.7546076" lon="8.1856197"><ele>154.16666666666666</ele><time>2026-05-03T09:51:56.848Z</time></trkpt><trkpt lat="40.7546261" lon="8.1855247"><ele>155.33333333333334</ele><time>2026-05-03T09:51:57.848Z</time></trkpt><trkpt lat="40.7546494" lon="8.1854179"><ele>156.5</ele><time>2026-05-03T09:51:58.848Z</time></trkpt><trkpt lat="40.7546777" lon="8.1853056"><ele>157.66666666666669</ele><time>2026-05-03T09:51:59.847Z</time></trkpt><trkpt lat="40.7547036" lon="8.1851912"><ele>158.83333333333334</ele><time>2026-05-03T09:52:00.848Z</time></trkpt><trkpt lat="40.7547304" lon="8.1850759"><ele>160.0</ele><time>2026-05-03T09:52:01.848Z</time></trkpt><trkpt lat="40.75476" lon="8.1849587"><ele>160.83333333333334</ele><time>2026-05-03T09:52:02.847Z</time></trkpt><trkpt lat="40.7547939" lon="8.184842"><ele>161.66666666666669</ele><time>2026-05-03T09:52:03.848Z</time></trkpt><trkpt lat="40.7548332" lon="8.1847397"><ele>162.5</ele><time>2026-05-03T09:52:04.848Z</time></trkpt><trkpt lat="40.754879" lon="8.1846466"><ele>163.33333333333334</ele><time>2026-05-03T09:52:05.848Z</time></trkpt><trkpt lat="40.7549263" lon="8.1845454"><ele>164.16666666666666</ele><time>2026-05-03T09:52:06.848Z</time></trkpt><trkpt lat="40.7549677" lon="8.1844373"><ele>165.0</ele><time>2026-05-03T09:52:07.848Z</time></trkpt><trkpt lat="40.7550052" lon="8.1843216"><ele>165.0</ele><time>2026-05-03T09:52:08.848Z</time></trkpt><trkpt lat="40.7550354" lon="8.1842227"><ele>165.0</ele><time>2026-05-03T09:52:09.848Z</time></trkpt><trkpt lat="40.7550612" lon="8.1841389"><ele>165.0</ele><time>2026-05-03T09:52:10.847Z</time></trkpt><trkpt lat="40.7551042" lon="8.1840264"><ele>165.0</ele><time>2026-05-03T09:52:12.848Z</time></trkpt><trkpt lat="40.7551293" lon="8.1839004"><ele>165.0</ele><time>2026-05-03T09:52:15.847Z</time></trkpt><trkpt lat="40.755119" lon="8.1837866"><ele>165.0</ele><time>2026-05-03T09:52:17.848Z</time></trkpt><trkpt lat="40.7550998" lon="8.1836763"><ele>164.83333333333334</ele><time>2026-05-03T09:52:19.847Z</time></trkpt><trkpt lat="40.7550856" lon="8.1835616"><ele>164.66666666666666</ele><time>2026-05-03T09:52:21.848Z</time></trkpt><trkpt lat="40.7550663" lon="8.1834653"><ele>164.5</ele><time>2026-05-03T09:52:23.847Z</time></trkpt><trkpt lat="40.7550474" lon="8.1833708"><ele>164.33333333333331</ele><time>2026-05-03T09:52:42.847Z</time></trkpt><trkpt lat="40.7550031" lon="8.1832542"><ele>164.16666666666666</ele><time>2026-05-03T09:52:44.848Z</time></trkpt><trkpt lat="40.7549324" lon="8.1831379"><ele>164.0</ele><time>2026-05-03T09:52:46.848Z</time></trkpt><trkpt lat="40.7548627" lon="8.183042"><ele>164.0</ele><time>2026-05-03T09:52:48.847Z</time></trkpt><trkpt lat="40.7547727" lon="8.1829298"><ele>164.0</ele><time>2026-05-03T09:52:50.848Z</time></trkpt><trkpt lat="40.7547158" lon="8.1828891"><ele>164.0</ele><time>2026-05-03T09:52:51.848Z</time></trkpt><trkpt lat="40.7546559" lon="8.1828501"><ele>164.0</ele><time>2026-05-03T09:52:52.848Z</time></trkpt><trkpt lat="40.7545636" lon="8.1827441"><ele>164.0</ele><time>2026-05-03T09:52:54.848Z</time></trkpt><trkpt lat="40.7544782" lon="8.1826066"><ele>164.0</ele><time>2026-05-03T09:52:56.848Z</time></trkpt><trkpt lat="40.754431" lon="8.1825233"><ele>164.0</ele><time>2026-05-03T09:52:57.848Z</time></trkpt><trkpt lat="40.7543869" lon="8.182455"><ele>164.0</ele><time>2026-05-03T09:52:58.848Z</time></trkpt><trkpt lat="40.754337" lon="8.1823909"><ele>164.0</ele><time>2026-05-03T09:52:59.848Z</time></trkpt><trkpt lat="40.7542376" lon="8.1823216"><ele>164.0</ele><time>2026-05-03T09:53:01.847Z</time></trkpt><trkpt lat="40.7541123" lon="8.1822934"><ele>160.66666666666666</ele><time>2026-05-03T09:53:03.848Z</time></trkpt><trkpt lat="40.7540435" lon="8.1822876"><ele>157.33333333333331</ele><time>2026-05-03T09:53:04.848Z</time></trkpt><trkpt lat="40.7539401" lon="8.1822842"><ele>154.0</ele><time>2026-05-03T09:53:06.847Z</time></trkpt><trkpt lat="40.7538857" lon="8.1822319"><ele>150.66666666666666</ele><time>2026-05-03T09:53:17.848Z</time></trkpt><trkpt lat="40.7538943" lon="8.1821217"><ele>147.33333333333334</ele><time>2026-05-03T09:53:19.847Z</time></trkpt><trkpt lat="40.753924" lon="8.1820065"><ele>144.0</ele><time>2026-05-03T09:53:21.848Z</time></trkpt><trkpt lat="40.7539507" lon="8.1818968"><ele>144.0</ele><time>2026-05-03T09:53:23.848Z</time></trkpt><trkpt lat="40.7540061" lon="8.1818223"><ele>144.0</ele><time>2026-05-03T09:53:25.848Z</time></trkpt><trkpt lat="40.7540696" lon="8.1817691"><ele>144.0</ele><time>2026-05-03T09:53:27.848Z</time></trkpt><trkpt lat="40.754135" lon="8.1817235"><ele>144.0</ele><time>2026-05-03T09:53:29.847Z</time></trkpt><trkpt lat="40.7542102" lon="8.1817064"><ele>144.0</ele><time>2026-05-03T09:53:31.847Z</time></trkpt><trkpt lat="40.7543222" lon="8.1817266"><ele>144.0</ele><time>2026-05-03T09:53:33.848Z</time></trkpt><trkpt lat="40.754398" lon="8.1817384"><ele>146.0</ele><time>2026-05-03T09:53:34.848Z</time></trkpt><trkpt lat="40.7544728" lon="8.1817485"><ele>148.0</ele><time>2026-05-03T09:53:35.848Z</time></trkpt><trkpt lat="40.7545459" lon="8.1817546"><ele>150.0</ele><time>2026-05-03T09:53:36.847Z</time></trkpt><trkpt lat="40.7546173" lon="8.1817577"><ele>152.0</ele><time>2026-05-03T09:53:37.847Z</time></trkpt><trkpt lat="40.7546831" lon="8.1817482"><ele>154.0</ele><time>2026-05-03T09:53:38.848Z</time></trkpt><trkpt lat="40.7547749" lon="8.181709"><ele>156.0</ele><time>2026-05-03T09:53:40.848Z</time></trkpt><trkpt lat="40.7548376" lon="8.1815926"><ele>153.2</ele><time>2026-05-03T09:53:42.848Z</time></trkpt><trkpt lat="40.7548548" lon="8.1815086"><ele>150.39999999999998</ele><time>2026-05-03T09:53:43.847Z</time></trkpt><trkpt lat="40.7548664" lon="8.181397"><ele>147.6</ele><time>2026-05-03T09:53:44.847Z</time></trkpt><trkpt lat="40.7548725" lon="8.1812517"><ele>144.79999999999998</ele><time>2026-05-03T09:53:45.848Z</time></trkpt><trkpt lat="40.7548775" lon="8.1810887"><ele>142.0</ele><time>2026-05-03T09:53:46.848Z</time></trkpt><trkpt lat="40.7548724" lon="8.1809361"><ele>142.0</ele><time>2026-05-03T09:53:47.848Z</time></trkpt><trkpt lat="40.7548575" lon="8.1807949"><ele>142.0</ele><time>2026-05-03T09:53:48.848Z</time></trkpt><trkpt lat="40.7548442" lon="8.1806612"><ele>142.0</ele><time>2026-05-03T09:53:49.848Z</time></trkpt><trkpt lat="40.7548402" lon="8.1805373"><ele>142.0</ele><time>2026-05-03T09:53:50.848Z</time></trkpt><trkpt lat="40.7548479" lon="8.1804297"><ele>142.0</ele><time>2026-05-03T09:53:51.847Z</time></trkpt><trkpt lat="40.7548595" lon="8.1803408"><ele>140.2</ele><time>2026-05-03T09:53:52.848Z</time></trkpt><trkpt lat="40.7548726" lon="8.1802537"><ele>138.39999999999998</ele><time>2026-05-03T09:53:53.848Z</time></trkpt><trkpt lat="40.7548664" lon="8.1801453"><ele>136.60000000000002</ele><time>2026-05-03T09:53:54.848Z</time></trkpt><trkpt lat="40.7548414" lon="8.1800137"><ele>134.8</ele><time>2026-05-03T09:53:55.848Z</time></trkpt><trkpt lat="40.7548009" lon="8.1798562"><ele>133.0</ele><time>2026-05-03T09:53:56.848Z</time></trkpt><trkpt lat="40.7547559" lon="8.1797168"><ele>132.25</ele><time>2026-05-03T09:53:57.847Z</time></trkpt><trkpt lat="40.7546868" lon="8.1795584"><ele>131.5</ele><time>2026-05-03T09:53:58.848Z</time></trkpt><trkpt lat="40.7546124" lon="8.1794024"><ele>130.75</ele><time>2026-05-03T09:53:59.848Z</time></trkpt><trkpt lat="40.7545466" lon="8.1792762"><ele>130.0</ele><time>2026-05-03T09:54:00.848Z</time></trkpt><trkpt lat="40.7544773" lon="8.1791518"><ele>130.0</ele><time>2026-05-03T09:54:01.847Z</time></trkpt><trkpt lat="40.7543974" lon="8.1790404"><ele>130.0</ele><time>2026-05-03T09:54:02.846Z</time></trkpt><trkpt lat="40.7542918" lon="8.178921"><ele>130.0</ele><time>2026-05-03T09:54:03.847Z</time></trkpt><trkpt lat="40.7541858" lon="8.1788093"><ele>130.0</ele><time>2026-05-03T09:54:04.847Z</time></trkpt><trkpt lat="40.7540891" lon="8.1787193"><ele>130.8</ele><time>2026-05-03T09:54:05.847Z</time></trkpt><trkpt lat="40.7539999" lon="8.1786415"><ele>131.6</ele><time>2026-05-03T09:54:06.847Z</time></trkpt><trkpt lat="40.7539167" lon="8.178573"><ele>132.4</ele><time>2026-05-03T09:54:07.847Z</time></trkpt><trkpt lat="40.7538361" lon="8.1785087"><ele>133.2</ele><time>2026-05-03T09:54:08.846Z</time></trkpt><trkpt lat="40.7537633" lon="8.1784534"><ele>134.0</ele><time>2026-05-03T09:54:09.847Z</time></trkpt><trkpt lat="40.7536992" lon="8.1784092"><ele>134.0</ele><time>2026-05-03T09:54:10.846Z</time></trkpt><trkpt lat="40.7536066" lon="8.1783251"><ele>134.0</ele><time>2026-05-03T09:54:12.846Z</time></trkpt><trkpt lat="40.7535494" lon="8.1782261"><ele>134.0</ele><time>2026-05-03T09:54:14.846Z</time></trkpt><trkpt lat="40.7535443" lon="8.178061"><ele>134.0</ele><time>2026-05-03T09:54:16.846Z</time></trkpt><trkpt lat="40.7535596" lon="8.1779279"><ele>134.0</ele><time>2026-05-03T09:54:17.847Z</time></trkpt><trkpt lat="40.7535663" lon="8.1778109"><ele>133.4</ele><time>2026-05-03T09:54:18.847Z</time></trkpt><trkpt lat="40.7535541" lon="8.1776817"><ele>132.8</ele><time>2026-05-03T09:54:19.846Z</time></trkpt><trkpt lat="40.7535241" lon="8.1775817"><ele>132.2</ele><time>2026-05-03T09:54:20.847Z</time></trkpt><trkpt lat="40.7534816" lon="8.1774814"><ele>131.6</ele><time>2026-05-03T09:54:21.847Z</time></trkpt><trkpt lat="40.7534279" lon="8.1773627"><ele>131.0</ele><time>2026-05-03T09:54:22.846Z</time></trkpt><trkpt lat="40.7533599" lon="8.1772261"><ele>128.6</ele><time>2026-05-03T09:54:23.847Z</time></trkpt><trkpt lat="40.7532949" lon="8.1771078"><ele>126.19999999999999</ele><time>2026-05-03T09:54:24.847Z</time></trkpt><trkpt lat="40.7532291" lon="8.177002"><ele>123.80000000000001</ele><time>2026-05-03T09:54:25.847Z</time></trkpt><trkpt lat="40.7531681" lon="8.1769075"><ele>121.4</ele><time>2026-05-03T09:54:26.846Z</time></trkpt><trkpt lat="40.753092" lon="8.1768211"><ele>119.0</ele><time>2026-05-03T09:54:27.847Z</time></trkpt><trkpt lat="40.7530102" lon="8.1767432"><ele>119.0</ele><time>2026-05-03T09:54:28.846Z</time></trkpt><trkpt lat="40.7529134" lon="8.1766637"><ele>119.0</ele><time>2026-05-03T09:54:29.847Z</time></trkpt><trkpt lat="40.7528335" lon="8.1765926"><ele>119.0</ele><time>2026-05-03T09:54:30.847Z</time></trkpt><trkpt lat="40.7527592" lon="8.1764994"><ele>119.0</ele><time>2026-05-03T09:54:31.847Z</time></trkpt><trkpt lat="40.7526917" lon="8.1763859"><ele>119.0</ele><time>2026-05-03T09:54:32.847Z</time></trkpt><trkpt lat="40.752632" lon="8.1762637"><ele>117.99999999999999</ele><time>2026-05-03T09:54:33.847Z</time></trkpt><trkpt lat="40.7525871" lon="8.1761525"><ele>117.0</ele><time>2026-05-03T09:54:34.847Z</time></trkpt><trkpt lat="40.7525603" lon="8.1760476"><ele>116.0</ele><time>2026-05-03T09:54:35.847Z</time></trkpt><trkpt lat="40.7525487" lon="8.1759489"><ele>115.0</ele><time>2026-05-03T09:54:36.846Z</time></trkpt><trkpt lat="40.7525427" lon="8.1758605"><ele>113.99999999999999</ele><time>2026-05-03T09:54:37.847Z</time></trkpt><trkpt lat="40.7525069" lon="8.1757311"><ele>113.0</ele><time>2026-05-03T09:54:39.846Z</time></trkpt><trkpt lat="40.7524358" lon="8.1756354"><ele>110.2</ele><time>2026-05-03T09:54:41.847Z</time></trkpt><trkpt lat="40.7523297" lon="8.1755821"><ele>107.4</ele><time>2026-05-03T09:54:43.847Z</time></trkpt><trkpt lat="40.7522333" lon="8.1755948"><ele>104.60000000000001</ele><time>2026-05-03T09:54:45.846Z</time></trkpt><trkpt lat="40.7521468" lon="8.175616"><ele>101.80000000000001</ele><time>2026-05-03T09:54:47.847Z</time></trkpt><trkpt lat="40.7520649" lon="8.1755945"><ele>99.0</ele><time>2026-05-03T09:54:49.847Z</time></trkpt><trkpt lat="40.7519886" lon="8.1754781"><ele>99.0</ele><time>2026-05-03T09:54:51.847Z</time></trkpt><trkpt lat="40.7519643" lon="8.1753845"><ele>99.0</ele><time>2026-05-03T09:54:52.846Z</time></trkpt><trkpt lat="40.7519535" lon="8.1752699"><ele>99.0</ele><time>2026-05-03T09:54:53.846Z</time></trkpt><trkpt lat="40.7519511" lon="8.1751682"><ele>99.0</ele><time>2026-05-03T09:54:54.847Z</time></trkpt><trkpt lat="40.7519463" lon="8.1750723"><ele>99.0</ele><time>2026-05-03T09:54:55.847Z</time></trkpt><trkpt lat="40.7519441" lon="8.1749776"><ele>99.0</ele><time>2026-05-03T09:54:56.847Z</time></trkpt><trkpt lat="40.7519402" lon="8.1748879"><ele>96.2</ele><time>2026-05-03T09:54:57.847Z</time></trkpt><trkpt lat="40.7519345" lon="8.174805"><ele>93.4</ele><time>2026-05-03T09:54:58.846Z</time></trkpt><trkpt lat="40.7519186" lon="8.1746554"><ele>90.6</ele><time>2026-05-03T09:55:00.847Z</time></trkpt><trkpt lat="40.751913" lon="8.1745264"><ele>87.8</ele><time>2026-05-03T09:55:02.847Z</time></trkpt><trkpt lat="40.7519142" lon="8.1744017"><ele>85.0</ele><time>2026-05-03T09:55:04.846Z</time></trkpt><trkpt lat="40.7518992" lon="8.1742464"><ele>85.0</ele><time>2026-05-03T09:55:06.847Z</time></trkpt><trkpt lat="40.7518935" lon="8.1741576"><ele>85.0</ele><time>2026-05-03T09:55:08.847Z</time></trkpt><trkpt lat="40.7518752" lon="8.1740689"><ele>85.0</ele><time>2026-05-03T09:55:10.846Z</time></trkpt><trkpt lat="40.7518596" lon="8.1739755"><ele>85.0</ele><time>2026-05-03T09:55:12.847Z</time></trkpt><trkpt lat="40.7518594" lon="8.173815"><ele>85.0</ele><time>2026-05-03T09:55:14.847Z</time></trkpt><trkpt lat="40.7518766" lon="8.1737114"><ele>85.0</ele><time>2026-05-03T09:55:15.846Z</time></trkpt><trkpt lat="40.7518992" lon="8.1735862"><ele>83.4</ele><time>2026-05-03T09:55:16.847Z</time></trkpt><trkpt lat="40.7519251" lon="8.1734511"><ele>81.8</ele><time>2026-05-03T09:55:17.847Z</time></trkpt><trkpt lat="40.7519593" lon="8.1733157"><ele>80.2</ele><time>2026-05-03T09:55:18.847Z</time></trkpt><trkpt lat="40.752004" lon="8.17317"><ele>78.6</ele><time>2026-05-03T09:55:19.846Z</time></trkpt><trkpt lat="40.7520342" lon="8.1730253"><ele>77.0</ele><time>2026-05-03T09:55:20.846Z</time></trkpt><trkpt lat="40.7520608" lon="8.1728579"><ele>77.0</ele><time>2026-05-03T09:55:21.847Z</time></trkpt><trkpt lat="40.7520813" lon="8.172718"><ele>77.0</ele><time>2026-05-03T09:55:22.846Z</time></trkpt><trkpt lat="40.7520909" lon="8.1725798"><ele>77.0</ele><time>2026-05-03T09:55:23.847Z</time></trkpt><trkpt lat="40.7520983" lon="8.1724437"><ele>77.0</ele><time>2026-05-03T09:55:24.847Z</time></trkpt><trkpt lat="40.7520983" lon="8.1723207"><ele>77.0</ele><time>2026-05-03T09:55:25.846Z</time></trkpt><trkpt lat="40.752091" lon="8.1722014"><ele>76.8</ele><time>2026-05-03T09:55:26.847Z</time></trkpt><trkpt lat="40.7520764" lon="8.1720899"><ele>76.6</ele><time>2026-05-03T09:55:27.847Z</time></trkpt><trkpt lat="40.7520673" lon="8.1719804"><ele>76.39999999999999</ele><time>2026-05-03T09:55:28.847Z</time></trkpt><trkpt lat="40.7520613" lon="8.1718563"><ele>76.2</ele><time>2026-05-03T09:55:29.846Z</time></trkpt><trkpt lat="40.7520647" lon="8.1717253"><ele>76.0</ele><time>2026-05-03T09:55:30.846Z</time></trkpt><trkpt lat="40.7520734" lon="8.1716003"><ele>76.0</ele><time>2026-05-03T09:55:31.846Z</time></trkpt><trkpt lat="40.7520772" lon="8.171473"><ele>76.0</ele><time>2026-05-03T09:55:32.847Z</time></trkpt><trkpt lat="40.7520725" lon="8.1713456"><ele>76.0</ele><time>2026-05-03T09:55:33.847Z</time></trkpt><trkpt lat="40.7520571" lon="8.1712316"><ele>76.0</ele><time>2026-05-03T09:55:34.847Z</time></trkpt><trkpt lat="40.7520354" lon="8.171137"><ele>76.0</ele><time>2026-05-03T09:55:35.847Z</time></trkpt><trkpt lat="40.7520056" lon="8.171047"><ele>76.0</ele><time>2026-05-03T09:55:36.846Z</time></trkpt><trkpt lat="40.7519673" lon="8.1709624"><ele>76.0</ele><time>2026-05-03T09:55:37.846Z</time></trkpt><trkpt lat="40.7519148" lon="8.170878"><ele>76.0</ele><time>2026-05-03T09:55:38.847Z</time></trkpt><trkpt lat="40.7518694" lon="8.1707993"><ele>76.0</ele><time>2026-05-03T09:55:39.847Z</time></trkpt><trkpt lat="40.7518297" lon="8.1707161"><ele>76.0</ele><time>2026-05-03T09:55:40.847Z</time></trkpt><trkpt lat="40.7517957" lon="8.170625"><ele>76.0</ele><time>2026-05-03T09:55:41.846Z</time></trkpt><trkpt lat="40.7517618" lon="8.1705451"><ele>76.0</ele><time>2026-05-03T09:55:42.846Z</time></trkpt><trkpt lat="40.7517303" lon="8.1704712"><ele>76.0</ele><time>2026-05-03T09:55:43.845Z</time></trkpt><trkpt lat="40.7516998" lon="8.170397"><ele>75.0</ele><time>2026-05-03T09:55:44.846Z</time></trkpt><trkpt lat="40.7516695" lon="8.170315"><ele>74.0</ele><time>2026-05-03T09:55:45.847Z</time></trkpt><trkpt lat="40.7516329" lon="8.17022"><ele>73.0</ele><time>2026-05-03T09:55:46.847Z</time></trkpt><trkpt lat="40.7515997" lon="8.1701095"><ele>72.0</ele><time>2026-05-03T09:55:47.846Z</time></trkpt><trkpt lat="40.7515708" lon="8.1699626"><ele>71.0</ele><time>2026-05-03T09:55:48.847Z</time></trkpt><trkpt lat="40.7515442" lon="8.1697862"><ele>70.2</ele><time>2026-05-03T09:55:49.847Z</time></trkpt><trkpt lat="40.7515182" lon="8.1696336"><ele>69.39999999999999</ele><time>2026-05-03T09:55:50.846Z</time></trkpt><trkpt lat="40.7514936" lon="8.1694926"><ele>68.6</ele><time>2026-05-03T09:55:51.846Z</time></trkpt><trkpt lat="40.7514732" lon="8.1693611"><ele>67.8</ele><time>2026-05-03T09:55:52.847Z</time></trkpt><trkpt lat="40.7514573" lon="8.169244"><ele>67.0</ele><time>2026-05-03T09:55:53.846Z</time></trkpt><trkpt lat="40.7514478" lon="8.1691327"><ele>66.2</ele><time>2026-05-03T09:55:54.846Z</time></trkpt><trkpt lat="40.7514335" lon="8.1690201"><ele>65.4</ele><time>2026-05-03T09:55:55.846Z</time></trkpt><trkpt lat="40.7514006" lon="8.1688834"><ele>64.6</ele><time>2026-05-03T09:55:56.847Z</time></trkpt><trkpt lat="40.7513647" lon="8.1687345"><ele>63.8</ele><time>2026-05-03T09:55:57.847Z</time></trkpt><trkpt lat="40.7513311" lon="8.1685923"><ele>63.0</ele><time>2026-05-03T09:55:58.847Z</time></trkpt><trkpt lat="40.7513046" lon="8.1684592"><ele>63.0</ele><time>2026-05-03T09:55:59.847Z</time></trkpt><trkpt lat="40.7512805" lon="8.1683372"><ele>63.0</ele><time>2026-05-03T09:56:00.847Z</time></trkpt><trkpt lat="40.7512577" lon="8.1682316"><ele>63.0</ele><time>2026-05-03T09:56:01.847Z</time></trkpt><trkpt lat="40.7512282" lon="8.1681392"><ele>63.0</ele><time>2026-05-03T09:56:02.847Z</time></trkpt><trkpt lat="40.7511645" lon="8.1680258"><ele>63.0</ele><time>2026-05-03T09:56:04.847Z</time></trkpt><trkpt lat="40.7510771" lon="8.1679727"><ele>61.8</ele><time>2026-05-03T09:56:06.847Z</time></trkpt><trkpt lat="40.7509959" lon="8.1678565"><ele>60.599999999999994</ele><time>2026-05-03T09:56:08.846Z</time></trkpt><trkpt lat="40.7509643" lon="8.167753"><ele>59.400000000000006</ele><time>2026-05-03T09:56:09.847Z</time></trkpt><trkpt lat="40.7509258" lon="8.1676373"><ele>58.2</ele><time>2026-05-03T09:56:10.847Z</time></trkpt><trkpt lat="40.7508831" lon="8.1675176"><ele>57.0</ele><time>2026-05-03T09:56:11.846Z</time></trkpt><trkpt lat="40.7508483" lon="8.1673768"><ele>57.25</ele><time>2026-05-03T09:56:12.847Z</time></trkpt><trkpt lat="40.750816" lon="8.1672105"><ele>57.5</ele><time>2026-05-03T09:56:13.846Z</time></trkpt><trkpt lat="40.7507929" lon="8.1670472"><ele>57.75</ele><time>2026-05-03T09:56:14.847Z</time></trkpt><trkpt lat="40.750778" lon="8.1668873"><ele>58.0</ele><time>2026-05-03T09:56:15.847Z</time></trkpt><trkpt lat="40.750761" lon="8.166745"><ele>58.0</ele><time>2026-05-03T09:56:16.847Z</time></trkpt><trkpt lat="40.7507449" lon="8.1666086"><ele>58.0</ele><time>2026-05-03T09:56:17.847Z</time></trkpt><trkpt lat="40.7507407" lon="8.1664442"><ele>58.0</ele><time>2026-05-03T09:56:18.846Z</time></trkpt><trkpt lat="40.7507488" lon="8.1662805"><ele>58.0</ele><time>2026-05-03T09:56:19.846Z</time></trkpt><trkpt lat="40.7507527" lon="8.1661339"><ele>57.599999999999994</ele><time>2026-05-03T09:56:20.847Z</time></trkpt><trkpt lat="40.7507487" lon="8.1659969"><ele>57.199999999999996</ele><time>2026-05-03T09:56:21.847Z</time></trkpt><trkpt lat="40.7507524" lon="8.1658608"><ele>56.8</ele><time>2026-05-03T09:56:22.846Z</time></trkpt><trkpt lat="40.750761" lon="8.1657424"><ele>56.4</ele><time>2026-05-03T09:56:23.847Z</time></trkpt><trkpt lat="40.7507845" lon="8.1656235"><ele>56.0</ele><time>2026-05-03T09:56:24.846Z</time></trkpt><trkpt lat="40.7508278" lon="8.1654605"><ele>54.25</ele><time>2026-05-03T09:56:25.847Z</time></trkpt><trkpt lat="40.7508747" lon="8.1652984"><ele>52.5</ele><time>2026-05-03T09:56:26.847Z</time></trkpt><trkpt lat="40.7509114" lon="8.1651593"><ele>50.75</ele><time>2026-05-03T09:56:27.847Z</time></trkpt><trkpt lat="40.7509447" lon="8.1650092"><ele>49.0</ele><time>2026-05-03T09:56:28.845Z</time></trkpt><trkpt lat="40.7509657" lon="8.1648732"><ele>48.6</ele><time>2026-05-03T09:56:29.846Z</time></trkpt><trkpt lat="40.7509845" lon="8.1647499"><ele>48.2</ele><time>2026-05-03T09:56:30.846Z</time></trkpt><trkpt lat="40.7509964" lon="8.1646366"><ele>47.800000000000004</ele><time>2026-05-03T09:56:31.847Z</time></trkpt><trkpt lat="40.7510044" lon="8.1645357"><ele>47.400000000000006</ele><time>2026-05-03T09:56:32.847Z</time></trkpt><trkpt lat="40.7510057" lon="8.1644412"><ele>47.0</ele><time>2026-05-03T09:56:33.847Z</time></trkpt><trkpt lat="40.7509705" lon="8.1642723"><ele>47.0</ele><time>2026-05-03T09:56:35.847Z</time></trkpt><trkpt lat="40.7509175" lon="8.1641571"><ele>47.0</ele><time>2026-05-03T09:56:36.845Z</time></trkpt><trkpt lat="40.7508332" lon="8.1640251"><ele>47.0</ele><time>2026-05-03T09:56:37.846Z</time></trkpt><trkpt lat="40.750769" lon="8.1639244"><ele>47.0</ele><time>2026-05-03T09:56:38.847Z</time></trkpt><trkpt lat="40.7507165" lon="8.1638297"><ele>47.0</ele><time>2026-05-03T09:56:39.847Z</time></trkpt><trkpt lat="40.7506731" lon="8.1637387"><ele>46.25</ele><time>2026-05-03T09:56:40.846Z</time></trkpt><trkpt lat="40.7506435" lon="8.163653"><ele>45.5</ele><time>2026-05-03T09:56:41.847Z</time></trkpt><trkpt lat="40.7506073" lon="8.1635289"><ele>44.75</ele><time>2026-05-03T09:56:42.847Z</time></trkpt><trkpt lat="40.7505588" lon="8.1633453"><ele>44.0</ele><time>2026-05-03T09:56:43.846Z</time></trkpt><trkpt lat="40.7505013" lon="8.16314"><ele>42.25</ele><time>2026-05-03T09:56:44.846Z</time></trkpt><trkpt lat="40.7504517" lon="8.1629544"><ele>40.5</ele><time>2026-05-03T09:56:45.847Z</time></trkpt><trkpt lat="40.7504074" lon="8.1627672"><ele>38.75</ele><time>2026-05-03T09:56:46.847Z</time></trkpt><trkpt lat="40.7503708" lon="8.1625918"><ele>37.0</ele><time>2026-05-03T09:56:47.847Z</time></trkpt><trkpt lat="40.7503483" lon="8.1624227"><ele>35.6</ele><time>2026-05-03T09:56:48.847Z</time></trkpt><trkpt lat="40.7503311" lon="8.1622767"><ele>34.2</ele><time>2026-05-03T09:56:49.847Z</time></trkpt><trkpt lat="40.7503074" lon="8.1621486"><ele>32.8</ele><time>2026-05-03T09:56:50.846Z</time></trkpt><trkpt lat="40.7502841" lon="8.162026"><ele>31.4</ele><time>2026-05-03T09:56:51.846Z</time></trkpt><trkpt lat="40.7502515" lon="8.1618983"><ele>30.0</ele><time>2026-05-03T09:56:52.847Z</time></trkpt><trkpt lat="40.7502172" lon="8.161775"><ele>31.6</ele><time>2026-05-03T09:56:53.847Z</time></trkpt><trkpt lat="40.7501831" lon="8.1616417"><ele>33.2</ele><time>2026-05-03T09:56:54.847Z</time></trkpt><trkpt lat="40.7501527" lon="8.161519"><ele>34.8</ele><time>2026-05-03T09:56:55.847Z</time></trkpt><trkpt lat="40.7501238" lon="8.1613993"><ele>36.4</ele><time>2026-05-03T09:56:56.847Z</time></trkpt><trkpt lat="40.7500959" lon="8.1612818"><ele>38.0</ele><time>2026-05-03T09:56:57.846Z</time></trkpt><trkpt lat="40.7500698" lon="8.1611655"><ele>38.0</ele><time>2026-05-03T09:56:58.846Z</time></trkpt><trkpt lat="40.7500451" lon="8.1610523"><ele>38.0</ele><time>2026-05-03T09:56:59.847Z</time></trkpt><trkpt lat="40.7500193" lon="8.1609433"><ele>38.0</ele><time>2026-05-03T09:57:00.846Z</time></trkpt><trkpt lat="40.749999" lon="8.1608285"><ele>38.0</ele><time>2026-05-03T09:57:01.847Z</time></trkpt><trkpt lat="40.7499736" lon="8.1606923"><ele>38.0</ele><time>2026-05-03T09:57:02.846Z</time></trkpt><trkpt lat="40.7499334" lon="8.1605425"><ele>37.0</ele><time>2026-05-03T09:57:03.847Z</time></trkpt><trkpt lat="40.7498803" lon="8.1603676"><ele>36.0</ele><time>2026-05-03T09:57:04.847Z</time></trkpt><trkpt lat="40.749825" lon="8.1601967"><ele>35.0</ele><time>2026-05-03T09:57:05.846Z</time></trkpt><trkpt lat="40.7497712" lon="8.1600179"><ele>34.0</ele><time>2026-05-03T09:57:06.846Z</time></trkpt><trkpt lat="40.749737" lon="8.1598532"><ele>33.0</ele><time>2026-05-03T09:57:07.847Z</time></trkpt><trkpt lat="40.7497103" lon="8.1597071"><ele>32.0</ele><time>2026-05-03T09:57:08.847Z</time></trkpt><trkpt lat="40.749693" lon="8.1595766"><ele>31.0</ele><time>2026-05-03T09:57:09.847Z</time></trkpt><trkpt lat="40.7496886" lon="8.1594604"><ele>30.0</ele><time>2026-05-03T09:57:10.847Z</time></trkpt><trkpt lat="40.7496714" lon="8.1593408"><ele>29.0</ele><time>2026-05-03T09:57:11.846Z</time></trkpt><trkpt lat="40.7496487" lon="8.1592393"><ele>28.999999999999996</ele><time>2026-05-03T09:57:12.847Z</time></trkpt><trkpt lat="40.7496324" lon="8.1591416"><ele>29.0</ele><time>2026-05-03T09:57:13.847Z</time></trkpt><trkpt lat="40.7496124" lon="8.1590427"><ele>29.0</ele><time>2026-05-03T09:57:14.846Z</time></trkpt><trkpt lat="40.7495987" lon="8.1589456"><ele>29.0</ele><time>2026-05-03T09:57:15.847Z</time></trkpt><trkpt lat="40.7495868" lon="8.1588496"><ele>28.999999999999996</ele><time>2026-05-03T09:57:16.847Z</time></trkpt><trkpt lat="40.7495826" lon="8.1587594"><ele>29.0</ele><time>2026-05-03T09:57:17.847Z</time></trkpt><trkpt lat="40.7495791" lon="8.1586018"><ele>27.799999999999997</ele><time>2026-05-03T09:57:19.846Z</time></trkpt><trkpt lat="40.749584" lon="8.1584678"><ele>26.599999999999998</ele><time>2026-05-03T09:57:21.846Z</time></trkpt><trkpt lat="40.7495783" lon="8.1583413"><ele>25.4</ele><time>2026-05-03T09:57:23.847Z</time></trkpt><trkpt lat="40.7495632" lon="8.1582125"><ele>24.2</ele><time>2026-05-03T09:57:25.846Z</time></trkpt><trkpt lat="40.7495586" lon="8.1580763"><ele>23.0</ele><time>2026-05-03T09:57:27.847Z</time></trkpt><trkpt lat="40.7495706" lon="8.1579301"><ele>21.5</ele><time>2026-05-03T09:57:29.846Z</time></trkpt><trkpt lat="40.7495856" lon="8.157799"><ele>20.0</ele><time>2026-05-03T09:57:31.847Z</time></trkpt><trkpt lat="40.7496026" lon="8.157678"><ele>18.5</ele><time>2026-05-03T09:57:33.845Z</time></trkpt><trkpt lat="40.7496228" lon="8.1575798"><ele>17.0</ele><time>2026-05-03T09:57:35.847Z</time></trkpt><trkpt lat="40.7496276" lon="8.1574857"><ele>15.500000000000002</ele><time>2026-05-03T09:57:38.847Z</time></trkpt><trkpt lat="40.7495517" lon="8.157456"><ele>14.0</ele><time>2026-05-03T09:57:41.847Z</time></trkpt><trkpt lat="40.7494941" lon="8.1575043"><ele>14.0</ele><time>2026-05-03T09:57:43.847Z</time></trkpt><trkpt lat="40.749448" lon="8.1575727"><ele>14.0</ele><time>2026-05-03T09:57:45.847Z</time></trkpt><trkpt lat="40.7493977" lon="8.1576372"><ele>14.0</ele><time>2026-05-03T09:57:47.846Z</time></trkpt><trkpt lat="40.7493516" lon="8.1577008"><ele>8.0</ele><time>2026-05-03T09:57:50.847Z</time></trkpt></trkseg></trk></gpx>